Darstellungsparameter: Aktuell verwendete Einstellungen:
Skalierung der Graphiken ... ?
xyx+y,   Skalierungsfaktor:      Skalierung: Modus: x, Faktor: 1
Darstellungszeitraum ... ?
Vom - - bis: - -   Zeitraum: 18.05.2007 - 17.11.2007
Min/Max/Avg-Anzeige ... ?
Zeige MMA aktuell
Zeige MMA Monat
Zeige MMA alles
Zeige --A aktuell
Zeige --A Monat
Zeige --A alles
Keine MMA-Anzeige
MMA:
Average (ber die Originaldaten)
MMA-Basis: 17.04.2019 - 19.05.2019
Quicknavigation für Darstellung... ?
Tage:      1T, 2T, 3T, 5T -1T -2T -3T -5T +1T +2T +3T +5T
Wochen: 1W, 2W, 3W -1W -2W -3W +1W +2W +3W
Monate: 1M, 3M, 6M -1M -3M -6M +1M +3M +6M
Jahre:    1J, 3J, 5J, 10J -1J -3J -5J -10J +1J +3J +5J +10J
Nutze für die Darstellung ... ?
Originaldaten oder Mittelwerte auf ...
Stundenbasis Tagesbasis Wochenbasis
Monatsbasis Jahresbasis      Datenbasis: Original-Daten
Darstellen als:
Statistik (Auto) Statistik J:M      Darstellung:
Zur Graphik,    zurück zur Übersicht aller Sensoren.
 
Tabellarische Datenbersicht: ?
 
Sensor: Nr:Datum:Temp:Abs-Feuchte:Windchill:Wind:
Aussen-T/F 1 18-05-2007 00:04:02 8.5 C 7.68 g/m*3 8.5 C 0 km/h
2 18-05-2007 00:16:02 8.5 C 7.68 g/m*3 8.5 C 0 km/h
3 18-05-2007 00:28:02 8.4 C 7.72 g/m*3 8.4 C 0 km/h
4 18-05-2007 00:40:02 8.1 C 7.57 g/m*3 8.1 C 0 km/h
5 18-05-2007 00:52:03 8.1 C 7.57 g/m*3 8.1 C 0 km/h
6 18-05-2007 01:04:03 7.9 C 7.56 g/m*3 7.9 C 0 km/h
7 18-05-2007 01:16:03 7.7 C 7.46 g/m*3 7.7 C 0 km/h
8 18-05-2007 01:28:03 7.6 C 7.49 g/m*3 7.6 C 0 km/h
9 18-05-2007 01:40:02 7.4 C 7.4 g/m*3 7.4 C 0 km/h
10 18-05-2007 01:52:02 7.4 C 7.4 g/m*3 7.4 C 0 km/h
11 18-05-2007 02:04:02 7.4 C 7.48 g/m*3 7.4 C 0 km/h
12 18-05-2007 02:16:02 7.3 C 7.43 g/m*3 7.3 C 0 km/h
13 18-05-2007 02:28:02 7.3 C 7.43 g/m*3 7.3 C 0 km/h
14 18-05-2007 02:40:02 7.3 C 7.51 g/m*3 7.3 C 0 km/h
15 18-05-2007 02:53:04 7.1 C 7.41 g/m*3 7.1 C 0 km/h
16 18-05-2007 03:05:04 7 C 7.36 g/m*3 7 C 0 km/h
17 18-05-2007 03:17:04 6.8 C 7.27 g/m*3 6.8 C 0 km/h
18 18-05-2007 03:29:04 6.8 C 7.27 g/m*3 6.8 C 0 km/h
19 18-05-2007 03:41:02 6.8 C 7.27 g/m*3 6.8 C 0 km/h
20 18-05-2007 03:53:02 6.7 C 7.22 g/m*3 6.7 C 0 km/h
21 18-05-2007 04:05:02 6.6 C 7.17 g/m*3 6.6 C 0 km/h
22 18-05-2007 04:17:01 6.6 C 7.17 g/m*3 6.6 C 0 km/h
23 18-05-2007 04:29:01 6.6 C 7.17 g/m*3 6.6 C 0 km/h
24 18-05-2007 04:41:02 6.6 C 7.17 g/m*3 6.6 C 0 km/h
25 18-05-2007 04:53:02 6.5 C 7.12 g/m*3 6.5 C 0 km/h
Sensor: Nr:Datum:Temp:Abs-Feuchte:Windchill:Wind:
Aussen-T/F 26 18-05-2007 05:05:02 6.6 C 7.17 g/m*3 6.6 C 0 km/h
27 18-05-2007 05:17:02 6.7 C 7.22 g/m*3 6.7 C 0 km/h
28 18-05-2007 05:29:02 6.7 C 7.22 g/m*3 6.7 C 0 km/h
29 18-05-2007 05:41:02 6.7 C 7.22 g/m*3 6.7 C 0 km/h
30 18-05-2007 05:53:02 6.7 C 7.14 g/m*3 6.7 C 0 km/h
31 18-05-2007 06:05:02 6.5 C 7.05 g/m*3 6.5 C 0 km/h
32 18-05-2007 06:17:02 6.7 C 7.14 g/m*3 6.7 C 0 km/h
33 18-05-2007 06:29:02 6.9 C 7.16 g/m*3 6.9 C 0 km/h
34 18-05-2007 06:41:02 6.8 C 7.11 g/m*3 6.8 C 0 km/h
35 18-05-2007 06:53:03 7 C 7.13 g/m*3 7 C 0 km/h
36 18-05-2007 07:05:02 7.2 C 7.14 g/m*3 7.2 C 0 km/h
37 18-05-2007 07:17:02 7.5 C 7.28 g/m*3 7.5 C 0 km/h
38 18-05-2007 07:29:02 7.7 C 7.3 g/m*3 7.7 C 0 km/h
39 18-05-2007 07:41:02 7.8 C 7.26 g/m*3 7.8 C 0 km/h
40 18-05-2007 07:53:02 8.1 C 7.32 g/m*3 8.1 C 0 km/h
41 18-05-2007 08:05:02 8.3 C 7.33 g/m*3 8.3 C 0 km/h
42 18-05-2007 08:17:02 8.5 C 7.26 g/m*3 8.5 C 0 km/h
43 18-05-2007 08:29:02 8.7 C 7.26 g/m*3 8.7 C 0 km/h
44 18-05-2007 08:41:02 9 C 7.32 g/m*3 9 C 0 km/h
45 18-05-2007 08:53:02 9.5 C 7.46 g/m*3 9.5 C 0 km/h
46 18-05-2007 09:05:02 10.1 C 7.47 g/m*3 10.1 C 0 km/h
47 18-05-2007 09:17:02 11 C 7.81 g/m*3 11 C 0 km/h
48 18-05-2007 09:29:02 11 C 7.41 g/m*3 11 C 0 km/h
49 18-05-2007 09:41:02 11.4 C 7.39 g/m*3 11.4 C 0 km/h
50 18-05-2007 09:53:01 11 C 7.41 g/m*3 11 C 0 km/h
Sensor: Nr:Datum:Temp:Abs-Feuchte:Windchill:Wind:
Aussen-T/F 51 18-05-2007 10:05:02 11.3 C 7.65 g/m*3 11.3 C 0 km/h
52 18-05-2007 10:17:02 12.1 C 7.94 g/m*3 12.1 C 0 km/h
53 18-05-2007 10:29:03 12.9 C 8.23 g/m*3 12.9 C 0 km/h
54 18-05-2007 10:41:01 13.7 C 8.17 g/m*3 13.7 C 0 km/h
55 18-05-2007 10:53:02 14 C 7.96 g/m*3 14 C 0 km/h
56 18-05-2007 11:05:01 14.7 C 7.93 g/m*3 14.7 C 0 km/h
57 18-05-2007 11:17:02 15.3 C 7.97 g/m*3 15.3 C 0 km/h
58 18-05-2007 11:29:02 15.5 C 7.67 g/m*3 15.5 C 0 km/h
59 18-05-2007 11:41:02 16.1 C 7.68 g/m*3 16.1 C 0 km/h
60 18-05-2007 11:53:02 16.8 C 7.72 g/m*3 16.8 C 0 km/h
61 18-05-2007 12:05:02 16.7 C 7.39 g/m*3 16.7 C 0 km/h
62 18-05-2007 12:17:02 17.7 C 7.24 g/m*3 17.7 C 0 km/h
63 18-05-2007 12:29:02 17.9 C 7.18 g/m*3 17.9 C 0 km/h
64 18-05-2007 12:41:02 18.7 C 7.2 g/m*3 18.7 C 0 km/h
65 18-05-2007 12:53:02 18.7 C 7.2 g/m*3 18.7 C 0 km/h
66 18-05-2007 13:05:01 19.6 C 7.09 g/m*3 19.6 C 0 km/h
67 18-05-2007 13:17:02 19.9 C 7.04 g/m*3 19.9 C 0 km/h
68 18-05-2007 13:29:02 20.8 C 7.06 g/m*3 20.8 C 0 km/h
69 18-05-2007 13:41:02 20.6 C 7.16 g/m*3 20.6 C 0 km/h
70 18-05-2007 13:53:03 20.8 C 6.88 g/m*3 20.8 C 0 km/h
71 18-05-2007 14:05:02 20.4 C 7.08 g/m*3 20.4 C 0 km/h
72 18-05-2007 14:17:02 20.5 C 6.76 g/m*3 20.5 C 0 km/h
73 18-05-2007 14:29:02 20.5 C 6.58 g/m*3 20.5 C 0 km/h
74 18-05-2007 14:41:02 21.2 C 6.67 g/m*3 21.2 C 0 km/h
75 18-05-2007 14:53:02 21 C 6.96 g/m*3 21 C 0 km/h
Sensor: Nr:Datum:Temp:Abs-Feuchte:Windchill:Wind:
Aussen-T/F 76 18-05-2007 15:05:02 21.4 C 7.31 g/m*3 21.4 C 0 km/h
77 18-05-2007 15:17:02 21.2 C 7.41 g/m*3 21.2 C 0 km/h
78 18-05-2007 15:29:02 21.3 C 7.08 g/m*3 21.3 C 0 km/h
79 18-05-2007 15:41:02 21.8 C 7.48 g/m*3 21.8 C 0 km/h
80 18-05-2007 15:53:01 22.3 C 7.11 g/m*3 22.3 C 0 km/h
81 18-05-2007 16:05:02 22 C 6.79 g/m*3 22 C 0 km/h
82 18-05-2007 16:17:02 22.1 C 6.83 g/m*3 22.1 C 0 km/h
83 18-05-2007 16:29:02 22.7 C 7.27 g/m*3 22.7 C 0 km/h
84 18-05-2007 16:41:01 22.5 C 7.19 g/m*3 22.5 C 0 km/h
85 18-05-2007 16:53:02 22.1 C 7.42 g/m*3 22.1 C 0 km/h
86 18-05-2007 17:05:01 22.3 C 7.5 g/m*3 22.3 C 0 km/h
87 18-05-2007 17:17:02 23.3 C 7.53 g/m*3 23.3 C 0 km/h
88 18-05-2007 17:29:02 23.4 C 7.57 g/m*3 23.4 C 0 km/h
89 18-05-2007 17:41:02 23.6 C 7.44 g/m*3 23.6 C 0 km/h
90 18-05-2007 17:53:03 23.9 C 7.57 g/m*3 23.9 C 0 km/h
91 18-05-2007 18:05:02 23.8 C 7.53 g/m*3 23.8 C 0 km/h
92 18-05-2007 18:17:02 23.4 C 7.57 g/m*3 23.4 C 0 km/h
93 18-05-2007 18:29:02 23.4 C 7.57 g/m*3 23.4 C 0 km/h
94 18-05-2007 18:41:03 23.3 C 7.53 g/m*3 23.3 C 0 km/h
95 18-05-2007 18:53:02 22.8 C 7.72 g/m*3 22.8 C 0 km/h
96 18-05-2007 19:05:02 22.8 C 7.72 g/m*3 22.8 C 0 km/h
97 18-05-2007 19:17:02 22.7 C 7.88 g/m*3 22.7 C 0 km/h
98 18-05-2007 19:29:02 23.1 C 7.86 g/m*3 23.1 C 0 km/h
99 18-05-2007 19:41:02 23 C 7.81 g/m*3 23 C 0 km/h
100 18-05-2007 19:53:02 22.7 C 7.68 g/m*3 22.7 C 0 km/h
Sensor: Nr:Datum:Temp:Abs-Feuchte:Windchill:Wind:
Aussen-T/F 101 18-05-2007 20:05:02 22.8 C 8.13 g/m*3 22.8 C 0 km/h
102 18-05-2007 20:17:02 22.5 C 8.19 g/m*3 22.5 C 0 km/h
103 18-05-2007 20:29:02 21.9 C 8.49 g/m*3 21.9 C 0 km/h
104 18-05-2007 20:41:02 20.7 C 8.28 g/m*3 20.7 C 0 km/h
105 18-05-2007 20:53:02 19.7 C 8.66 g/m*3 19.7 C 0 km/h
106 18-05-2007 21:05:02 19.1 C 8.85 g/m*3 19.1 C 0 km/h
107 18-05-2007 21:17:01 18.3 C 8.91 g/m*3 18.3 C 0 km/h
108 18-05-2007 21:29:01 18 C 8.75 g/m*3 18 C 0 km/h
109 18-05-2007 21:41:02 17.8 C 8.95 g/m*3 17.8 C 0 km/h
110 18-05-2007 21:53:01 17.7 C 8.9 g/m*3 17.7 C 0 km/h
111 18-05-2007 22:05:02 17.5 C 8.95 g/m*3 17.5 C 0 km/h
112 18-05-2007 22:17:01 17.4 C 8.89 g/m*3 17.4 C 0 km/h
113 18-05-2007 22:29:01 17.2 C 8.93 g/m*3 17.2 C 0 km/h
114 18-05-2007 22:41:01 17 C 8.97 g/m*3 17 C 0 km/h
115 18-05-2007 22:53:02 16.9 C 9.21 g/m*3 16.9 C 0 km/h
116 18-05-2007 23:05:01 16.6 C 9.18 g/m*3 16.6 C 0 km/h
117 18-05-2007 23:17:02 16.3 C 9.16 g/m*3 16.3 C 0 km/h
118 18-05-2007 23:29:02 16.2 C 9.24 g/m*3 16.2 C 0 km/h
119 18-05-2007 23:41:02 15.6 C 9.44 g/m*3 15.6 C 0 km/h
120 18-05-2007 23:53:02 15.3 C 9.4 g/m*3 15.3 C 0 km/h
121 19-05-2007 00:05:02 15.1 C 9.42 g/m*3 15.1 C 0 km/h
122 19-05-2007 00:17:03 14.8 C 9.37 g/m*3 14.8 C 0 km/h
123 19-05-2007 00:29:03 14.8 C 9.5 g/m*3 14.8 C 0 km/h
124 19-05-2007 00:41:02 14.7 C 9.44 g/m*3 14.7 C 0 km/h
125 19-05-2007 00:53:02 14.7 C 9.57 g/m*3 14.7 C 0 km/h
Sensor: Nr:Datum:Temp:Abs-Feuchte:Windchill:Wind:
Aussen-T/F 126 19-05-2007 01:05:02 14.3 C 9.34 g/m*3 14.3 C 0 km/h
127 19-05-2007 01:17:02 14.1 C 9.34 g/m*3 14.1 C 0 km/h
128 19-05-2007 01:29:02 14.1 C 9.34 g/m*3 14.1 C 0 km/h
129 19-05-2007 01:41:02 14 C 9.41 g/m*3 14 C 0 km/h
130 19-05-2007 01:53:03 13.7 C 9.35 g/m*3 13.7 C 0 km/h
131 19-05-2007 02:05:02 13.7 C 9.47 g/m*3 13.7 C 0 km/h
132 19-05-2007 02:17:03 13.7 C 9.59 g/m*3 13.7 C 0 km/h
133 19-05-2007 02:29:03 13.6 C 9.53 g/m*3 13.6 C 0 km/h
134 19-05-2007 02:41:02 13.5 C 9.36 g/m*3 13.5 C 0 km/h
135 19-05-2007 02:54:03 13.5 C 9.47 g/m*3 13.5 C 0 km/h
136 19-05-2007 03:06:03 13.5 C 9.47 g/m*3 13.5 C 0 km/h
137 19-05-2007 03:18:04 13.5 C 9.47 g/m*3 13.5 C 0 km/h
138 19-05-2007 03:30:04 13.5 C 9.59 g/m*3 13.5 C 0 km/h
139 19-05-2007 03:42:03 13.5 C 9.59 g/m*3 13.5 C 0 km/h
140 19-05-2007 03:54:03 13.7 C 9.59 g/m*3 13.7 C 0 km/h
141 19-05-2007 04:06:02 13.7 C 9.59 g/m*3 13.7 C 0 km/h
142 19-05-2007 04:18:02 13.7 C 9.47 g/m*3 13.7 C 0 km/h
143 19-05-2007 04:30:02 13.5 C 9.36 g/m*3 13.5 C 0 km/h
144 19-05-2007 04:42:03 13.3 C 9.36 g/m*3 13.3 C 0 km/h
145 19-05-2007 04:54:01 13.3 C 9.36 g/m*3 13.3 C 0 km/h
146 19-05-2007 05:06:01 13.5 C 9.59 g/m*3 13.5 C 0 km/h
147 19-05-2007 05:18:02 13.5 C 9.47 g/m*3 13.5 C 0 km/h
148 19-05-2007 05:30:02 13.2 C 9.53 g/m*3 13.2 C 0 km/h
149 19-05-2007 05:42:02 13.4 C 9.88 g/m*3 13.4 C 0 km/h
150 19-05-2007 05:54:01 13.4 C 9.88 g/m*3 13.4 C 0 km/h
Sensor: Nr:Datum:Temp:Abs-Feuchte:Windchill:Wind:
Aussen-T/F 151 19-05-2007 06:06:02 13.3 C 9.94 g/m*3 13.3 C 0 km/h
152 19-05-2007 06:18:02 13.3 C 10.05 g/m*3 13.3 C 0 km/h
153 19-05-2007 06:30:02 13.5 C 10.29 g/m*3 13.5 C 0 km/h
154 19-05-2007 06:42:01 13.7 C 10.42 g/m*3 13.7 C 0 km/h
155 19-05-2007 06:54:02 14 C 10.49 g/m*3 14 C 0 km/h
156 19-05-2007 07:06:01 14.1 C 10.44 g/m*3 14.1 C 0 km/h
157 19-05-2007 07:18:02 14.1 C 10.44 g/m*3 14.1 C 0 km/h
158 19-05-2007 07:30:02 14.4 C 10.63 g/m*3 14.4 C 0 km/h
159 19-05-2007 07:42:02 14.5 C 10.7 g/m*3 14.5 C 0 km/h
160 19-05-2007 07:54:03 14.4 C 10.63 g/m*3 14.4 C 0 km/h
161 19-05-2007 08:06:02 14.4 C 10.63 g/m*3 14.4 C 0 km/h
162 19-05-2007 08:18:02 14.4 C 10.63 g/m*3 14.4 C 0 km/h
163 19-05-2007 08:30:02 14.7 C 10.95 g/m*3 14.7 C 0 km/h
164 19-05-2007 08:42:03 14.7 C 10.95 g/m*3 14.7 C 0 km/h
165 19-05-2007 08:54:02 14.7 C 10.95 g/m*3 14.7 C 0 km/h
166 19-05-2007 09:06:02 14.7 C 10.95 g/m*3 14.7 C 0 km/h
167 19-05-2007 09:18:02 14.8 C 11.02 g/m*3 14.8 C 0 km/h
168 19-05-2007 09:30:02 15 C 10.77 g/m*3 15 C 0 km/h
169 19-05-2007 09:42:02 15.4 C 10.9 g/m*3 15.4 C 0 km/h
170 19-05-2007 09:54:01 16 C 11.17 g/m*3 16 C 0 km/h
171 19-05-2007 10:06:02 16.6 C 11.16 g/m*3 16.6 C 0 km/h
172 19-05-2007 10:18:03 16.7 C 10.94 g/m*3 16.7 C 0 km/h
173 19-05-2007 10:30:03 17.4 C 10.82 g/m*3 17.4 C 0 km/h
174 19-05-2007 10:42:02 17.9 C 10.69 g/m*3 17.9 C 0 km/h
175 19-05-2007 10:54:01 18.2 C 10.57 g/m*3 18.2 C 0 km/h
Sensor: Nr:Datum:Temp:Abs-Feuchte:Windchill:Wind:
Aussen-T/F 176 19-05-2007 11:06:02 18.3 C 10.48 g/m*3 18.3 C 0 km/h
177 19-05-2007 11:18:02 18.6 C 10.5 g/m*3 18.6 C 0 km/h
178 19-05-2007 11:30:02 18.6 C 10.35 g/m*3 18.6 C 0 km/h
179 19-05-2007 11:42:01 18.4 C 10.38 g/m*3 18.4 C 0 km/h
180 19-05-2007 11:54:02 18.4 C 10.7 g/m*3 18.4 C 0 km/h
181 19-05-2007 12:06:02 19.1 C 10.49 g/m*3 19.1 C 0 km/h
182 19-05-2007 12:18:02 20 C 10.2 g/m*3 20 C 0 km/h
183 19-05-2007 12:30:02 20.9 C 10.2 g/m*3 20.9 C 0 km/h
184 19-05-2007 12:42:01 22.1 C 10.15 g/m*3 22.1 C 0 km/h
185 19-05-2007 12:54:02 22.4 C 10.33 g/m*3 22.4 C 0 km/h
186 19-05-2007 13:06:01 22 C 10.29 g/m*3 22 C 0 km/h
187 19-05-2007 13:18:02 21.2 C 10.38 g/m*3 21.2 C 0 km/h
188 19-05-2007 13:30:02 21.6 C 10.43 g/m*3 21.6 C 0 km/h
189 19-05-2007 13:42:02 22.1 C 10.74 g/m*3 22.1 C 0 km/h
190 19-05-2007 13:54:03 22.8 C 10.36 g/m*3 22.8 C 0 km/h
191 19-05-2007 14:06:03 22 C 9.9 g/m*3 22 C 0 km/h
192 19-05-2007 14:18:02 22.4 C 9.93 g/m*3 22.4 C 0 km/h
193 19-05-2007 14:30:03 22 C 9.7 g/m*3 22 C 0 km/h
194 19-05-2007 14:42:02 23 C 9.87 g/m*3 23 C 0 km/h
195 19-05-2007 14:54:02 22.7 C 9.7 g/m*3 22.7 C 0 km/h
196 19-05-2007 15:06:02 23.5 C 10.15 g/m*3 23.5 C 0 km/h
197 19-05-2007 15:18:01 24.2 C 9.9 g/m*3 24.2 C 0 km/h
198 19-05-2007 15:30:01 24.8 C 9.79 g/m*3 24.8 C 0 km/h
199 19-05-2007 15:42:01 24.6 C 9.45 g/m*3 24.6 C 0 km/h
200 19-05-2007 15:54:01 24.8 C 9.56 g/m*3 24.8 C 0 km/h
Sensor: Nr:Datum:Temp:Abs-Feuchte:Windchill:Wind:
Aussen-T/F 201 19-05-2007 16:06:01 25.5 C 9.23 g/m*3 25.5 C 0 km/h
202 19-05-2007 16:18:02 25.1 C 8.8 g/m*3 25.1 C 0 km/h
203 19-05-2007 16:30:02 24.5 C 9.4 g/m*3 24.5 C 0 km/h
204 19-05-2007 16:42:01 25.2 C 9.08 g/m*3 25.2 C 0 km/h
205 19-05-2007 16:54:02 25 C 9.21 g/m*3 25 C 0 km/h
206 19-05-2007 17:06:02 24.3 C 9.29 g/m*3 24.3 C 0 km/h
207 19-05-2007 17:18:01 24.9 C 9.16 g/m*3 24.9 C 0 km/h
208 19-05-2007 17:30:01 24.6 C 8.78 g/m*3 24.6 C 0 km/h
209 19-05-2007 17:42:02 24.6 C 9 g/m*3 24.6 C 0 km/h
210 19-05-2007 17:54:01 25.2 C 8.38 g/m*3 25.2 C 0 km/h
211 19-05-2007 18:06:01 23.7 C 10.05 g/m*3 23.7 C 0 km/h
212 19-05-2007 18:18:02 23.5 C 10.36 g/m*3 23.5 C 0 km/h
213 19-05-2007 18:30:02 25.1 C 10.19 g/m*3 25.1 C 0 km/h
214 19-05-2007 18:42:02 24.9 C 9.61 g/m*3 24.9 C 0 km/h
215 19-05-2007 18:54:01 25.3 C 9.6 g/m*3 25.3 C 0 km/h
216 19-05-2007 19:06:03 25.8 C 9.63 g/m*3 25.8 C 0 km/h
217 19-05-2007 19:18:02 26.5 C 9.26 g/m*3 26.5 C 0 km/h
218 19-05-2007 19:30:02 26.4 C 9.46 g/m*3 26.4 C 0 km/h
219 19-05-2007 19:42:02 26.1 C 9.3 g/m*3 26.1 C 0 km/h
220 19-05-2007 19:54:02 25 C 9.21 g/m*3 25 C 0 km/h
221 19-05-2007 20:06:02 23.3 C 9.62 g/m*3 23.3 C 0 km/h
222 19-05-2007 20:18:02 22.5 C 9.79 g/m*3 22.5 C 0 km/h
223 19-05-2007 20:30:02 22.2 C 9.82 g/m*3 22.2 C 0 km/h
224 19-05-2007 20:42:02 21.9 C 10.03 g/m*3 21.9 C 0 km/h
225 19-05-2007 20:54:02 21.5 C 9.99 g/m*3 21.5 C 0 km/h
Sensor: Nr:Datum:Temp:Abs-Feuchte:Windchill:Wind:
Aussen-T/F 226 19-05-2007 21:06:02 21 C 10.26 g/m*3 21 C 0 km/h
227 19-05-2007 21:18:02 20.4 C 10.26 g/m*3 20.4 C 0 km/h
228 19-05-2007 21:30:02 19.7 C 10.36 g/m*3 19.7 C 0 km/h
229 19-05-2007 21:42:02 19.5 C 10.41 g/m*3 19.5 C 0 km/h
230 19-05-2007 21:54:01 19.3 C 10.45 g/m*3 19.3 C 0 km/h
231 19-05-2007 22:06:02 19 C 10.27 g/m*3 19 C 0 km/h
232 19-05-2007 22:18:02 18.6 C 10.5 g/m*3 18.6 C 0 km/h
233 19-05-2007 22:30:02 18.5 C 10.44 g/m*3 18.5 C 0 km/h
234 19-05-2007 22:42:01 18.2 C 10.41 g/m*3 18.2 C 0 km/h
235 19-05-2007 22:54:02 18.1 C 10.51 g/m*3 18.1 C 0 km/h
236 19-05-2007 23:06:01 17.9 C 10.54 g/m*3 17.9 C 0 km/h
237 19-05-2007 23:18:02 18 C 10.44 g/m*3 18 C 0 km/h
238 19-05-2007 23:30:02 18 C 10.44 g/m*3 18 C 0 km/h
239 19-05-2007 23:42:02 17.9 C 10.69 g/m*3 17.9 C 0 km/h
240 19-05-2007 23:54:02 17.7 C 10.71 g/m*3 17.7 C 0 km/h
241 20-05-2007 00:06:02 17.7 C 10.71 g/m*3 17.7 C 0 km/h
242 20-05-2007 00:18:02 17.5 C 10.44 g/m*3 17.5 C 0 km/h
243 20-05-2007 00:30:02 17.3 C 10.46 g/m*3 17.3 C 0 km/h
244 20-05-2007 00:42:03 17.3 C 10.46 g/m*3 17.3 C 0 km/h
245 20-05-2007 00:54:02 16.9 C 10.36 g/m*3 16.9 C 0 km/h
246 20-05-2007 01:06:02 16.6 C 10.17 g/m*3 16.6 C 0 km/h
247 20-05-2007 01:18:02 16.6 C 10.31 g/m*3 16.6 C 0 km/h
248 20-05-2007 01:30:02 16.4 C 10.19 g/m*3 16.4 C 0 km/h
249 20-05-2007 01:42:02 16.1 C 10.14 g/m*3 16.1 C 0 km/h
250 20-05-2007 01:54:02 15.8 C 10.1 g/m*3 15.8 C 0 km/h
Sensor: Nr:Datum:Temp:Abs-Feuchte:Windchill:Wind:
Aussen-T/F 251 20-05-2007 02:06:02 15.7 C 10.17 g/m*3 15.7 C 0 km/h
252 20-05-2007 02:18:03 15.8 C 10.23 g/m*3 15.8 C 0 km/h
253 20-05-2007 02:30:03 16 C 10.35 g/m*3 16 C 0 km/h
254 20-05-2007 02:42:02 15.9 C 10.56 g/m*3 15.9 C 0 km/h
255 20-05-2007 02:55:03 16 C 10.49 g/m*3 16 C 0 km/h
256 20-05-2007 03:07:03 16.1 C 10.42 g/m*3 16.1 C 0 km/h
257 20-05-2007 03:19:04 16 C 10.35 g/m*3 16 C 0 km/h
258 20-05-2007 03:31:02 16 C 10.22 g/m*3 16 C 0 km/h
259 20-05-2007 03:43:02 15.9 C 10.16 g/m*3 15.9 C 0 km/h
260 20-05-2007 03:55:03 15.9 C 10.02 g/m*3 15.9 C 0 km/h
261 20-05-2007 04:07:02 15.5 C 9.52 g/m*3 15.5 C 0 km/h
262 20-05-2007 04:19:03 15.5 C 9.52 g/m*3 15.5 C 0 km/h
263 20-05-2007 04:31:03 15.2 C 9.48 g/m*3 15.2 C 0 km/h
264 20-05-2007 04:43:03 15.1 C 9.42 g/m*3 15.1 C 0 km/h
265 20-05-2007 04:55:02 15 C 9.36 g/m*3 15 C 0 km/h
266 20-05-2007 05:07:02 14.9 C 9.43 g/m*3 14.9 C 0 km/h
267 20-05-2007 05:19:02 14.7 C 9.32 g/m*3 14.7 C 0 km/h
268 20-05-2007 05:31:02 14.3 C 9.21 g/m*3 14.3 C 0 km/h
269 20-05-2007 05:43:02 14.3 C 9.21 g/m*3 14.3 C 0 km/h
270 20-05-2007 05:55:01 14.2 C 9.28 g/m*3 14.2 C 0 km/h
271 20-05-2007 06:07:02 14.3 C 9.46 g/m*3 14.3 C 0 km/h
272 20-05-2007 06:19:02 14.5 C 9.45 g/m*3 14.5 C 0 km/h
273 20-05-2007 06:31:01 14.8 C 9.63 g/m*3 14.8 C 0 km/h
274 20-05-2007 06:43:01 15 C 9.62 g/m*3 15 C 0 km/h
275 20-05-2007 06:55:02 15.1 C 9.55 g/m*3 15.1 C 0 km/h
Sensor: Nr:Datum:Temp:Abs-Feuchte:Windchill:Wind:
Aussen-T/F 276 20-05-2007 07:07:02 14.9 C 9.3 g/m*3 14.9 C 0 km/h
277 20-05-2007 07:19:01 14.9 C 9.3 g/m*3 14.9 C 0 km/h
278 20-05-2007 07:31:02 14.9 C 9.3 g/m*3 14.9 C 0 km/h
279 20-05-2007 07:43:02 15.3 C 9.4 g/m*3 15.3 C 0 km/h
280 20-05-2007 07:55:01 15.8 C 9.29 g/m*3 15.8 C 0 km/h
281 20-05-2007 08:07:02 16.1 C 9.18 g/m*3 16.1 C 0 km/h
282 20-05-2007 08:19:01 16.2 C 9.1 g/m*3 16.2 C 0 km/h
283 20-05-2007 08:31:01 16.7 C 9.38 g/m*3 16.7 C 0 km/h
284 20-05-2007 08:43:01 17.1 C 9.32 g/m*3 17.1 C 0 km/h
285 20-05-2007 08:55:02 17.9 C 9.62 g/m*3 17.9 C 0 km/h
286 20-05-2007 09:07:02 18.7 C 9.61 g/m*3 18.7 C 0 km/h
287 20-05-2007 09:19:02 18.7 C 9.61 g/m*3 18.7 C 0 km/h
288 20-05-2007 09:31:02 19.1 C 9.67 g/m*3 19.1 C 0 km/h
289 20-05-2007 09:43:02 19.7 C 9.85 g/m*3 19.7 C 0 km/h
290 20-05-2007 09:55:02 20.3 C 9.85 g/m*3 20.3 C 0 km/h
291 20-05-2007 10:07:02 20.9 C 9.83 g/m*3 20.9 C 0 km/h
292 20-05-2007 10:19:02 20.9 C 10.02 g/m*3 20.9 C 0 km/h
293 20-05-2007 10:31:03 20.5 C 10.14 g/m*3 20.5 C 0 km/h
294 20-05-2007 10:43:03 20.8 C 10.32 g/m*3 20.8 C 0 km/h
295 20-05-2007 10:55:01 21.7 C 10.3 g/m*3 21.7 C 0 km/h
296 20-05-2007 11:07:02 22.2 C 10.01 g/m*3 22.2 C 0 km/h
297 20-05-2007 11:19:02 22 C 10.09 g/m*3 22 C 0 km/h
298 20-05-2007 11:31:01 22.5 C 10.79 g/m*3 22.5 C 0 km/h
299 20-05-2007 11:43:01 23.2 C 10.6 g/m*3 23.2 C 0 km/h
300 20-05-2007 11:55:02 24.5 C 10.74 g/m*3 24.5 C 0 km/h
Sensor: Nr:Datum:Temp:Abs-Feuchte:Windchill:Wind:
Aussen-T/F 301 20-05-2007 12:07:02 25 C 10.36 g/m*3 25 C 0 km/h
302 20-05-2007 12:19:01 26.1 C 10.28 g/m*3 26.1 C 0 km/h
303 20-05-2007 12:31:02 27 C 10.04 g/m*3 27 C 0 km/h
304 20-05-2007 12:43:02 27.2 C 9.37 g/m*3 27.2 C 0 km/h
305 20-05-2007 12:55:02 27.6 C 9.04 g/m*3 27.6 C 0 km/h
306 20-05-2007 13:07:01 27.8 C 7.53 g/m*3 27.8 C 0 km/h
307 20-05-2007 13:19:02 28 C 7.07 g/m*3 28 C 0 km/h
308 20-05-2007 13:31:01 29.1 C 7.51 g/m*3 29.1 C 0 km/h
309 20-05-2007 13:43:01 28.5 C 7.83 g/m*3 28.5 C 0 km/h
310 20-05-2007 13:55:02 29.4 C 7.34 g/m*3 29.4 C 0 km/h
311 20-05-2007 14:07:02 30 C 6.67 g/m*3 30 C 0 km/h
312 20-05-2007 14:19:02 29.5 C 6.2 g/m*3 29.5 C 0 km/h
313 20-05-2007 14:31:02 29.8 C 6.3 g/m*3 29.8 C 0 km/h
314 20-05-2007 14:43:02 29.8 C 6 g/m*3 29.8 C 0 km/h
315 20-05-2007 14:55:01 30.6 C 6.26 g/m*3 30.6 C 0 km/h
316 20-05-2007 15:07:02 30.3 C 6.16 g/m*3 30.3 C 0 km/h
317 20-05-2007 15:19:02 30.3 C 6.16 g/m*3 30.3 C 0 km/h
318 20-05-2007 15:31:01 30.7 C 6.3 g/m*3 30.7 C 0 km/h
319 20-05-2007 15:43:01 30.7 C 6.3 g/m*3 30.7 C 0 km/h
320 20-05-2007 15:55:02 30 C 8.19 g/m*3 30 C 0 km/h
321 20-05-2007 16:07:02 29.5 C 7.97 g/m*3 29.5 C 0 km/h
322 20-05-2007 16:19:02 29.9 C 7.24 g/m*3 29.9 C 0 km/h
323 20-05-2007 16:31:02 31 C 7.04 g/m*3 31 C 0 km/h
324 20-05-2007 16:43:02 31 C 6.4 g/m*3 31 C 0 km/h
325 20-05-2007 16:55:01 30.6 C 7.2 g/m*3 30.6 C 0 km/h
Sensor: Nr:Datum:Temp:Abs-Feuchte:Windchill:Wind:
Aussen-T/F 326 20-05-2007 17:07:02 30.4 C 7.44 g/m*3 30.4 C 0 km/h
327 20-05-2007 17:19:02 30.2 C 8.58 g/m*3 30.2 C 0 km/h
328 20-05-2007 17:31:02 29.8 C 9.3 g/m*3 29.8 C 0 km/h
329 20-05-2007 17:43:02 29.1 C 9.24 g/m*3 29.1 C 0 km/h
330 20-05-2007 17:55:02 28.5 C 8.66 g/m*3 28.5 C 0 km/h
331 20-05-2007 18:07:02 29.1 C 9.24 g/m*3 29.1 C 0 km/h
332 20-05-2007 18:19:02 30.3 C 7.7 g/m*3 30.3 C 0 km/h
333 20-05-2007 18:31:02 30.7 C 6.3 g/m*3 30.7 C 0 km/h
334 20-05-2007 18:43:02 30 C 8.19 g/m*3 30 C 0 km/h
335 20-05-2007 18:55:01 29.3 C 8.76 g/m*3 29.3 C 0 km/h
336 20-05-2007 19:07:02 28.1 C 8.75 g/m*3 28.1 C 0 km/h
337 20-05-2007 19:19:02 27.2 C 8.33 g/m*3 27.2 C 0 km/h
338 20-05-2007 19:31:01 26.5 C 8.76 g/m*3 26.5 C 0 km/h
339 20-05-2007 19:43:01 25.4 C 7.77 g/m*3 25.4 C 0 km/h
340 20-05-2007 19:55:02 24.7 C 7.7 g/m*3 24.7 C 0 km/h
341 20-05-2007 20:07:01 24.4 C 8.23 g/m*3 24.4 C 0 km/h
342 20-05-2007 20:19:02 24 C 7.61 g/m*3 24 C 0 km/h
343 20-05-2007 20:31:02 23.6 C 7.87 g/m*3 23.6 C 0 km/h
344 20-05-2007 20:43:02 23.3 C 7.74 g/m*3 23.3 C 0 km/h
345 20-05-2007 20:55:02 23.1 C 7.86 g/m*3 23.1 C 0 km/h
346 20-05-2007 21:07:02 22.8 C 7.92 g/m*3 22.8 C 0 km/h
347 20-05-2007 21:19:02 22.8 C 8.13 g/m*3 22.8 C 0 km/h
348 20-05-2007 21:31:02 22.5 C 7.99 g/m*3 22.5 C 0 km/h
349 20-05-2007 21:43:02 22.4 C 7.94 g/m*3 22.4 C 0 km/h
350 20-05-2007 21:55:01 22.3 C 8.1 g/m*3 22.3 C 0 km/h
Sensor: Nr:Datum:Temp:Abs-Feuchte:Windchill:Wind:
Aussen-T/F 351 20-05-2007 22:07:02 22.2 C 8.25 g/m*3 22.2 C 0 km/h
352 20-05-2007 22:19:02 22 C 8.15 g/m*3 22 C 0 km/h
353 20-05-2007 22:31:01 21.9 C 8.1 g/m*3 21.9 C 0 km/h
354 20-05-2007 22:43:01 22 C 7.96 g/m*3 22 C 0 km/h
355 20-05-2007 22:55:02 22 C 8.15 g/m*3 22 C 0 km/h
356 20-05-2007 23:07:01 22 C 7.76 g/m*3 22 C 0 km/h
357 20-05-2007 23:19:02 21.5 C 8.67 g/m*3 21.5 C 0 km/h
358 20-05-2007 23:31:02 20.7 C 9.18 g/m*3 20.7 C 0 km/h
359 20-05-2007 23:43:02 20.9 C 9.11 g/m*3 20.9 C 0 km/h
360 20-05-2007 23:55:03 20.7 C 9 g/m*3 20.7 C 0 km/h
361 21-05-2007 00:07:03 20.8 C 9.42 g/m*3 20.8 C 0 km/h
362 21-05-2007 00:19:03 20.7 C 9 g/m*3 20.7 C 0 km/h
363 21-05-2007 00:31:02 20.6 C 9.13 g/m*3 20.6 C 0 km/h
364 21-05-2007 00:43:02 20.5 C 9.07 g/m*3 20.5 C 0 km/h
365 21-05-2007 00:55:02 20 C 9.16 g/m*3 20 C 0 km/h
366 21-05-2007 01:07:02 19.7 C 9.34 g/m*3 19.7 C 0 km/h
367 21-05-2007 01:19:03 19.6 C 9.28 g/m*3 19.6 C 0 km/h
368 21-05-2007 01:31:03 19.3 C 9.12 g/m*3 19.3 C 0 km/h
369 21-05-2007 01:43:03 18.9 C 8.91 g/m*3 18.9 C 0 km/h
370 21-05-2007 01:55:02 18.7 C 8.65 g/m*3 18.7 C 0 km/h
371 21-05-2007 02:07:01 18.4 C 8.65 g/m*3 18.4 C 0 km/h
372 21-05-2007 02:19:01 18.2 C 8.7 g/m*3 18.2 C 0 km/h
373 21-05-2007 02:31:01 18 C 8.75 g/m*3 18 C 0 km/h
374 21-05-2007 02:43:01 17.8 C 8.95 g/m*3 17.8 C 0 km/h
375 21-05-2007 02:55:02 17.5 C 8.95 g/m*3 17.5 C 0 km/h
Sensor: Nr:Datum:Temp:Abs-Feuchte:Windchill:Wind:
Aussen-T/F 376 21-05-2007 03:07:02 17.4 C 9.34 g/m*3 17.4 C 0 km/h
377 21-05-2007 03:19:02 17.3 C 9.28 g/m*3 17.3 C 0 km/h
378 21-05-2007 03:31:02 17 C 9.41 g/m*3 17 C 0 km/h
379 21-05-2007 03:43:02 16.9 C 9.64 g/m*3 16.9 C 0 km/h
380 21-05-2007 03:55:02 16.8 C 9.58 g/m*3 16.8 C 0 km/h
381 21-05-2007 04:07:02 16.6 C 9.46 g/m*3 16.6 C 0 km/h
382 21-05-2007 04:19:02 16.4 C 9.49 g/m*3 16.4 C 0 km/h
383 21-05-2007 04:31:01 16.3 C 9.99 g/m*3 16.3 C 0 km/h
384 21-05-2007 04:43:01 16.2 C 10.2 g/m*3 16.2 C 0 km/h
385 21-05-2007 04:55:02 16 C 10.22 g/m*3 16 C 0 km/h
386 21-05-2007 05:07:02 15.8 C 10.36 g/m*3 15.8 C 0 km/h
387 21-05-2007 05:19:02 15.7 C 10.3 g/m*3 15.7 C 0 km/h
388 21-05-2007 05:31:02 15.6 C 10.11 g/m*3 15.6 C 0 km/h
389 21-05-2007 05:43:02 15.6 C 10.11 g/m*3 15.6 C 0 km/h
390 21-05-2007 05:55:02 15.6 C 10.24 g/m*3 15.6 C 0 km/h
391 21-05-2007 06:07:02 15.6 C 10.37 g/m*3 15.6 C 0 km/h
392 21-05-2007 06:19:01 15.6 C 10.51 g/m*3 15.6 C 0 km/h
393 21-05-2007 06:31:02 15.6 C 10.51 g/m*3 15.6 C 0 km/h
394 21-05-2007 06:43:02 15.5 C 10.44 g/m*3 15.5 C 0 km/h
395 21-05-2007 06:55:01 15.6 C 10.51 g/m*3 15.6 C 0 km/h
396 21-05-2007 07:07:02 16 C 10.63 g/m*3 16 C 0 km/h
397 21-05-2007 07:19:02 16.4 C 10.89 g/m*3 16.4 C 0 km/h
398 21-05-2007 07:31:01 16.7 C 10.94 g/m*3 16.7 C 0 km/h
399 21-05-2007 07:43:01 16.9 C 10.93 g/m*3 16.9 C 0 km/h
400 21-05-2007 07:55:02 17.2 C 10.84 g/m*3 17.2 C 0 km/h
Sensor: Nr:Datum:Temp:Abs-Feuchte:Windchill:Wind:
Aussen-T/F 401 21-05-2007 08:07:01 17.7 C 11.01 g/m*3 17.7 C 0 km/h
402 21-05-2007 08:19:01 17.8 C 11.08 g/m*3 17.8 C 0 km/h
403 21-05-2007 08:31:02 18.1 C 10.97 g/m*3 18.1 C 0 km/h
404 21-05-2007 08:43:02 18.6 C 11.14 g/m*3 18.6 C 0 km/h
405 21-05-2007 08:55:01 19.3 C 11.28 g/m*3 19.3 C 0 km/h
406 21-05-2007 09:07:02 19.9 C 11.68 g/m*3 19.9 C 0 km/h
407 21-05-2007 09:19:02 20.5 C 11.74 g/m*3 20.5 C 0 km/h
408 21-05-2007 09:31:01 20.8 C 11.77 g/m*3 20.8 C 0 km/h
409 21-05-2007 09:43:01 20.4 C 11.68 g/m*3 20.4 C 0 km/h
410 21-05-2007 09:55:02 20.7 C 12.06 g/m*3 20.7 C 0 km/h
411 21-05-2007 10:07:01 21 C 11.72 g/m*3 21 C 0 km/h
412 21-05-2007 10:19:01 21.5 C 11.69 g/m*3 21.5 C 0 km/h
413 21-05-2007 10:31:02 22.2 C 11.78 g/m*3 22.2 C 0 km/h
414 21-05-2007 10:43:02 22.6 C 11.25 g/m*3 22.6 C 0 km/h
415 21-05-2007 10:55:01 23 C 11.1 g/m*3 23 C 0 km/h
416 21-05-2007 11:07:02 23.2 C 10.81 g/m*3 23.2 C 0 km/h
417 21-05-2007 11:19:01 23.3 C 10.87 g/m*3 23.3 C 0 km/h
418 21-05-2007 11:31:02 23.7 C 10.48 g/m*3 23.7 C 0 km/h
419 21-05-2007 11:43:02 24.3 C 10.4 g/m*3 24.3 C 0 km/h
420 21-05-2007 11:55:01 24.3 C 9.96 g/m*3 24.3 C 0 km/h
421 21-05-2007 12:07:01 25 C 9.67 g/m*3 25 C 0 km/h
422 21-05-2007 12:19:02 25.4 C 9.42 g/m*3 25.4 C 0 km/h
423 21-05-2007 12:31:01 25.6 C 9.28 g/m*3 25.6 C 0 km/h
424 21-05-2007 12:43:01 26.6 C 9.31 g/m*3 26.6 C 0 km/h
425 21-05-2007 12:55:02 26.5 C 9.01 g/m*3 26.5 C 0 km/h
Sensor: Nr:Datum:Temp:Abs-Feuchte:Windchill:Wind:
Aussen-T/F 426 21-05-2007 13:07:01 27.4 C 9.21 g/m*3 27.4 C 0 km/h
427 21-05-2007 13:19:01 28.2 C 9.07 g/m*3 28.2 C 0 km/h
428 21-05-2007 13:31:02 28.5 C 9.22 g/m*3 28.5 C 0 km/h
429 21-05-2007 13:43:02 28.5 C 8.94 g/m*3 28.5 C 0 km/h
430 21-05-2007 13:55:01 28.5 C 9.22 g/m*3 28.5 C 0 km/h
431 21-05-2007 14:07:01 28.5 C 9.5 g/m*3 28.5 C 0 km/h
432 21-05-2007 14:19:02 28.5 C 10.06 g/m*3 28.5 C 0 km/h
433 21-05-2007 14:31:01 29 C 10.05 g/m*3 29 C 0 km/h
434 21-05-2007 14:43:01 29.1 C 9.82 g/m*3 29.1 C 0 km/h
435 21-05-2007 14:55:02 30 C 10.01 g/m*3 30 C 0 km/h
436 21-05-2007 15:07:01 30 C 10.01 g/m*3 30 C 0 km/h
437 21-05-2007 15:19:01 30.4 C 9.92 g/m*3 30.4 C 0 km/h
438 21-05-2007 15:31:02 30.4 C 9.92 g/m*3 30.4 C 0 km/h
439 21-05-2007 15:43:02 30.7 C 9.76 g/m*3 30.7 C 0 km/h
440 21-05-2007 15:55:01 31.2 C 9.38 g/m*3 31.2 C 0 km/h
441 21-05-2007 16:07:02 31.3 C 9.11 g/m*3 31.3 C 0 km/h
442 21-05-2007 16:19:02 31.2 C 8.73 g/m*3 31.2 C 0 km/h
443 21-05-2007 16:31:01 31.7 C 8.64 g/m*3 31.7 C 0 km/h
444 21-05-2007 16:43:01 31.6 C 8.26 g/m*3 31.6 C 0 km/h
445 21-05-2007 16:55:02 31.5 C 8.22 g/m*3 31.5 C 0 km/h
446 21-05-2007 17:07:02 31.8 C 8.35 g/m*3 31.8 C 0 km/h
447 21-05-2007 17:19:01 31.6 C 8.26 g/m*3 31.6 C 0 km/h
448 21-05-2007 17:31:02 31.4 C 8.83 g/m*3 31.4 C 0 km/h
449 21-05-2007 17:43:02 31.9 C 9.07 g/m*3 31.9 C 0 km/h
450 21-05-2007 17:55:01 31.8 C 9.35 g/m*3 31.8 C 0 km/h
Sensor: Nr:Datum:Temp:Abs-Feuchte:Windchill:Wind:
Aussen-T/F 451 21-05-2007 18:07:02 31.6 C 8.92 g/m*3 31.6 C 0 km/h
452 21-05-2007 18:19:02 32.6 C 9.41 g/m*3 32.6 C 0 km/h
453 21-05-2007 18:31:01 31.8 C 9.69 g/m*3 31.8 C 0 km/h
454 21-05-2007 18:43:01 30.6 C 10.96 g/m*3 30.6 C 0 km/h
455 21-05-2007 18:55:02 25.7 C 16.04 g/m*3 25.7 C 0 km/h
456 21-05-2007 19:07:02 23.7 C 16.9 g/m*3 23.7 C 0 km/h
457 21-05-2007 19:19:02 24.1 C 16.63 g/m*3 24.1 C 0 km/h
458 21-05-2007 19:31:01 24.5 C 16.34 g/m*3 24.5 C 0 km/h
459 21-05-2007 19:43:01 24.5 C 15.89 g/m*3 24.5 C 0 km/h
460 21-05-2007 19:55:01 25.2 C 15.83 g/m*3 25.2 C 0 km/h
461 21-05-2007 20:07:02 24.9 C 15.79 g/m*3 24.9 C 0 km/h
462 21-05-2007 20:19:02 24.5 C 15.44 g/m*3 24.5 C 0 km/h
463 21-05-2007 20:31:01 23.6 C 15.1 g/m*3 23.6 C 0 km/h
464 21-05-2007 20:43:01 23.3 C 15.05 g/m*3 23.3 C 0 km/h
465 21-05-2007 20:55:02 23 C 14.18 g/m*3 23 C 0 km/h
466 21-05-2007 21:07:01 22.9 C 14.31 g/m*3 22.9 C 0 km/h
467 21-05-2007 21:19:01 22.5 C 13.78 g/m*3 22.5 C 0 km/h
468 21-05-2007 21:31:02 22.3 C 13.43 g/m*3 22.3 C 0 km/h
469 21-05-2007 21:43:02 22 C 13.39 g/m*3 22 C 0 km/h
470 21-05-2007 21:55:01 21.2 C 13.34 g/m*3 21.2 C 0 km/h
471 21-05-2007 22:07:01 21.1 C 13.08 g/m*3 21.1 C 0 km/h
472 21-05-2007 22:19:01 21 C 12.82 g/m*3 21 C 0 km/h
473 21-05-2007 22:31:01 21.1 C 13.08 g/m*3 21.1 C 0 km/h
474 21-05-2007 22:43:01 21.1 C 13.45 g/m*3 21.1 C 0 km/h
475 21-05-2007 22:55:02 21 C 13.56 g/m*3 21 C 0 km/h
Sensor: Nr:Datum:Temp:Abs-Feuchte:Windchill:Wind:
Aussen-T/F 476 21-05-2007 23:07:01 20.9 C 13.66 g/m*3 20.9 C 0 km/h
477 21-05-2007 23:19:01 20.7 C 13.68 g/m*3 20.7 C 0 km/h
478 21-05-2007 23:31:02 20.6 C 13.6 g/m*3 20.6 C 0 km/h
479 21-05-2007 23:43:02 20.3 C 13.37 g/m*3 20.3 C 0 km/h
480 21-05-2007 23:55:01 20 C 13.31 g/m*3 20 C 0 km/h
481 22-05-2007 00:07:02 20 C 13.13 g/m*3 20 C 0 km/h
482 22-05-2007 00:19:02 19.8 C 13.15 g/m*3 19.8 C 0 km/h
483 22-05-2007 00:31:02 19.7 C 13.25 g/m*3 19.7 C 0 km/h
484 22-05-2007 00:43:02 19.7 C 13.25 g/m*3 19.7 C 0 km/h
485 22-05-2007 00:55:02 19.6 C 13.17 g/m*3 19.6 C 0 km/h
486 22-05-2007 01:07:01 19.6 C 13 g/m*3 19.6 C 0 km/h
487 22-05-2007 01:19:02 19.6 C 13.17 g/m*3 19.6 C 0 km/h
488 22-05-2007 01:31:02 19.5 C 13.09 g/m*3 19.5 C 0 km/h
489 22-05-2007 01:43:02 19.6 C 13.17 g/m*3 19.6 C 0 km/h
490 22-05-2007 01:55:02 19.4 C 13.01 g/m*3 19.4 C 0 km/h
491 22-05-2007 02:07:02 19.3 C 13.1 g/m*3 19.3 C 0 km/h
492 22-05-2007 02:19:02 19.3 C 12.94 g/m*3 19.3 C 0 km/h
493 22-05-2007 02:31:01 19.1 C 12.95 g/m*3 19.1 C 0 km/h
494 22-05-2007 02:43:01 18.9 C 12.8 g/m*3 18.9 C 0 km/h
495 22-05-2007 02:56:07 18.6 C 12.57 g/m*3 18.6 C 0 km/h
496 22-05-2007 03:08:07 18.4 C 12.58 g/m*3 18.4 C 0 km/h
497 22-05-2007 03:20:07 18.3 C 12.66 g/m*3 18.3 C 0 km/h
498 22-05-2007 03:32:02 18.2 C 12.59 g/m*3 18.2 C 0 km/h
499 22-05-2007 03:44:03 18 C 12.44 g/m*3 18 C 0 km/h
500 22-05-2007 03:56:03 17.9 C 12.52 g/m*3 17.9 C 0 km/h
Sensor: Nr:Datum:Temp:Abs-Feuchte:Windchill:Wind:
Aussen-T/F 501 22-05-2007 04:08:02 17.6 C 12.3 g/m*3 17.6 C 0 km/h
502 22-05-2007 04:20:03 17.5 C 12.23 g/m*3 17.5 C 0 km/h
503 22-05-2007 04:32:02 17.5 C 12.23 g/m*3 17.5 C 0 km/h
504 22-05-2007 04:44:02 17.5 C 12.23 g/m*3 17.5 C 0 km/h
505 22-05-2007 04:56:03 17.4 C 12.15 g/m*3 17.4 C 0 km/h
506 22-05-2007 05:08:02 17.5 C 12.23 g/m*3 17.5 C 0 km/h
507 22-05-2007 05:20:02 17.4 C 12.15 g/m*3 17.4 C 0 km/h
508 22-05-2007 05:32:02 17.6 C 12.3 g/m*3 17.6 C 0 km/h
509 22-05-2007 05:44:02 17.6 C 12.15 g/m*3 17.6 C 0 km/h
510 22-05-2007 05:56:02 17.7 C 12.07 g/m*3 17.7 C 0 km/h
511 22-05-2007 06:08:03 17.7 C 12.07 g/m*3 17.7 C 0 km/h
512 22-05-2007 06:20:02 17.6 C 12 g/m*3 17.6 C 0 km/h
513 22-05-2007 06:32:02 17.5 C 11.93 g/m*3 17.5 C 0 km/h
514 22-05-2007 06:44:02 17.5 C 11.93 g/m*3 17.5 C 0 km/h
515 22-05-2007 06:56:03 17.5 C 11.93 g/m*3 17.5 C 0 km/h
516 22-05-2007 07:08:03 17.5 C 11.93 g/m*3 17.5 C 0 km/h
517 22-05-2007 07:20:03 17.4 C 12 g/m*3 17.4 C 0 km/h
518 22-05-2007 07:32:03 17.6 C 12.15 g/m*3 17.6 C 0 km/h
519 22-05-2007 07:44:03 17.2 C 11.86 g/m*3 17.2 C 0 km/h
520 22-05-2007 07:56:02 17.2 C 12.01 g/m*3 17.2 C 0 km/h
521 22-05-2007 08:08:02 17.2 C 12.01 g/m*3 17.2 C 0 km/h
522 22-05-2007 08:20:02 17.6 C 12.3 g/m*3 17.6 C 0 km/h
523 22-05-2007 08:32:02 17.9 C 12.37 g/m*3 17.9 C 0 km/h
524 22-05-2007 08:44:02 18.4 C 12.58 g/m*3 18.4 C 0 km/h
525 22-05-2007 08:56:01 19.1 C 12.29 g/m*3 19.1 C 0 km/h
Sensor: Nr:Datum:Temp:Abs-Feuchte:Windchill:Wind:
Aussen-T/F 526 22-05-2007 09:08:02 19.6 C 12.15 g/m*3 19.6 C 0 km/h
527 22-05-2007 09:20:02 20.2 C 12.06 g/m*3 20.2 C 0 km/h
528 22-05-2007 09:32:01 20.7 C 12.24 g/m*3 20.7 C 0 km/h
529 22-05-2007 09:44:01 21.3 C 12.3 g/m*3 21.3 C 0 km/h
530 22-05-2007 09:56:02 22 C 11.65 g/m*3 22 C 0 km/h
531 22-05-2007 10:08:02 22.6 C 11.45 g/m*3 22.6 C 0 km/h
532 22-05-2007 10:20:02 23.4 C 11.57 g/m*3 23.4 C 0 km/h
533 22-05-2007 10:32:02 24.1 C 11.6 g/m*3 24.1 C 0 km/h
534 22-05-2007 10:44:03 24.3 C 10.84 g/m*3 24.3 C 0 km/h
535 22-05-2007 10:56:02 25.3 C 11.24 g/m*3 25.3 C 0 km/h
536 22-05-2007 11:08:03 26 C 11.44 g/m*3 26 C 0 km/h
537 22-05-2007 11:20:02 26.5 C 11.26 g/m*3 26.5 C 0 km/h
538 22-05-2007 11:32:02 26.4 C 10.46 g/m*3 26.4 C 0 km/h
539 22-05-2007 11:44:02 26.8 C 10.44 g/m*3 26.8 C 0 km/h
540 22-05-2007 11:56:02 28.2 C 11 g/m*3 28.2 C 0 km/h
541 22-05-2007 12:08:02 28.7 C 9.89 g/m*3 28.7 C 0 km/h
542 22-05-2007 12:20:02 29.3 C 9.34 g/m*3 29.3 C 0 km/h
543 22-05-2007 12:32:02 29.7 C 9.25 g/m*3 29.7 C 0 km/h
544 22-05-2007 12:44:02 30 C 9.7 g/m*3 30 C 0 km/h
545 22-05-2007 12:56:01 29.7 C 9.25 g/m*3 29.7 C 0 km/h
546 22-05-2007 13:08:02 30.3 C 9.25 g/m*3 30.3 C 0 km/h
547 22-05-2007 13:20:02 31.1 C 8.69 g/m*3 31.1 C 0 km/h
548 22-05-2007 13:32:01 31.2 C 7.76 g/m*3 31.2 C 0 km/h
549 22-05-2007 13:44:01 31 C 8 g/m*3 31 C 0 km/h
550 22-05-2007 13:56:02 29.6 C 8.61 g/m*3 29.6 C 0 km/h
Sensor: Nr:Datum:Temp:Abs-Feuchte:Windchill:Wind:
Aussen-T/F 551 22-05-2007 14:08:02 29.6 C 8.9 g/m*3 29.6 C 0 km/h
552 22-05-2007 14:20:02 30.3 C 8.63 g/m*3 30.3 C 0 km/h
553 22-05-2007 14:32:02 30 C 8.49 g/m*3 30 C 0 km/h
554 22-05-2007 14:44:02 30.5 C 8.72 g/m*3 30.5 C 0 km/h
555 22-05-2007 14:56:02 30.7 C 7.87 g/m*3 30.7 C 0 km/h
556 22-05-2007 15:08:02 30.3 C 7.7 g/m*3 30.3 C 0 km/h
557 22-05-2007 15:20:02 30.7 C 7.56 g/m*3 30.7 C 0 km/h
558 22-05-2007 15:32:02 31.2 C 7.76 g/m*3 31.2 C 0 km/h
559 22-05-2007 15:44:02 30.9 C 7 g/m*3 30.9 C 0 km/h
560 22-05-2007 15:56:01 30.6 C 7.2 g/m*3 30.6 C 0 km/h
561 22-05-2007 16:08:02 31 C 6.72 g/m*3 31 C 0 km/h
562 22-05-2007 16:20:01 31.1 C 6.43 g/m*3 31.1 C 0 km/h
563 22-05-2007 16:32:01 31.3 C 6.5 g/m*3 31.3 C 0 km/h
564 22-05-2007 16:44:01 31 C 6.4 g/m*3 31 C 0 km/h
565 22-05-2007 16:56:02 29.8 C 7.5 g/m*3 29.8 C 0 km/h
566 22-05-2007 17:08:01 29.2 C 8.42 g/m*3 29.2 C 0 km/h
567 22-05-2007 17:20:02 27.5 C 9.26 g/m*3 27.5 C 0 km/h
568 22-05-2007 17:32:02 26.3 C 9.16 g/m*3 26.3 C 0 km/h
569 22-05-2007 17:44:02 27.6 C 9.58 g/m*3 27.6 C 0 km/h
570 22-05-2007 17:56:01 28.6 C 9.84 g/m*3 28.6 C 0 km/h
571 22-05-2007 18:08:02 25.7 C 10.53 g/m*3 25.7 C 0 km/h
572 22-05-2007 18:20:02 25.8 C 10.83 g/m*3 25.8 C 0 km/h
573 22-05-2007 18:32:01 24 C 11.31 g/m*3 24 C 0 km/h
574 22-05-2007 18:44:01 23.7 C 11.55 g/m*3 23.7 C 0 km/h
575 22-05-2007 18:56:02 23 C 11.3 g/m*3 23 C 0 km/h
Sensor: Nr:Datum:Temp:Abs-Feuchte:Windchill:Wind:
Aussen-T/F 576 22-05-2007 19:08:01 23.1 C 10.96 g/m*3 23.1 C 0 km/h
577 22-05-2007 19:20:02 23.6 C 11.27 g/m*3 23.6 C 0 km/h
578 22-05-2007 19:32:02 24 C 10.88 g/m*3 24 C 0 km/h
579 22-05-2007 19:44:02 25.1 C 10.19 g/m*3 25.1 C 0 km/h
580 22-05-2007 19:56:02 25.1 C 9.72 g/m*3 25.1 C 0 km/h
581 22-05-2007 20:08:03 25.2 C 9.78 g/m*3 25.2 C 0 km/h
582 22-05-2007 20:20:02 24.3 C 9.74 g/m*3 24.3 C 0 km/h
583 22-05-2007 20:32:02 23.5 C 9.94 g/m*3 23.5 C 0 km/h
584 22-05-2007 20:44:02 22.5 C 10.39 g/m*3 22.5 C 0 km/h
585 22-05-2007 20:56:02 21.2 C 10.19 g/m*3 21.2 C 0 km/h
586 22-05-2007 21:08:02 21 C 10.08 g/m*3 21 C 0 km/h
587 22-05-2007 21:20:02 21 C 10.08 g/m*3 21 C 0 km/h
588 22-05-2007 21:32:02 20.8 C 10.5 g/m*3 20.8 C 0 km/h
589 22-05-2007 21:44:02 20.5 C 10.85 g/m*3 20.5 C 0 km/h
590 22-05-2007 21:56:02 20.6 C 10.92 g/m*3 20.6 C 0 km/h
591 22-05-2007 22:08:01 20.8 C 11.05 g/m*3 20.8 C 0 km/h
592 22-05-2007 22:20:01 20.8 C 11.05 g/m*3 20.8 C 0 km/h
593 22-05-2007 22:32:02 20.3 C 11.26 g/m*3 20.3 C 0 km/h
594 22-05-2007 22:44:02 20 C 11.41 g/m*3 20 C 0 km/h
595 22-05-2007 22:56:02 19.8 C 11.79 g/m*3 19.8 C 0 km/h
596 22-05-2007 23:08:02 19.7 C 11.89 g/m*3 19.7 C 0 km/h
597 22-05-2007 23:20:02 20 C 11.92 g/m*3 20 C 0 km/h
598 22-05-2007 23:32:01 20 C 11.92 g/m*3 20 C 0 km/h
599 22-05-2007 23:44:01 20.2 C 11.89 g/m*3 20.2 C 0 km/h
600 22-05-2007 23:56:02 19.8 C 11.79 g/m*3 19.8 C 0 km/h
Sensor: Nr:Datum:Temp:Abs-Feuchte:Windchill:Wind:
Aussen-T/F 601 23-05-2007 00:08:02 20 C 11.75 g/m*3 20 C 0 km/h
602 23-05-2007 00:20:02 20.2 C 11.89 g/m*3 20.2 C 0 km/h
603 23-05-2007 00:32:02 19.7 C 11.72 g/m*3 19.7 C 0 km/h
604 23-05-2007 00:44:02 19.4 C 11.68 g/m*3 19.4 C 0 km/h
605 23-05-2007 00:56:02 19.6 C 11.82 g/m*3 19.6 C 0 km/h
606 23-05-2007 01:08:02 19.8 C 11.96 g/m*3 19.8 C 0 km/h
607 23-05-2007 01:20:02 19.7 C 11.89 g/m*3 19.7 C 0 km/h
608 23-05-2007 01:32:02 19.5 C 11.92 g/m*3 19.5 C 0 km/h
609 23-05-2007 01:44:02 19.2 C 12.04 g/m*3 19.2 C 0 km/h
610 23-05-2007 01:56:03 19.2 C 12.2 g/m*3 19.2 C 0 km/h
611 23-05-2007 02:08:02 19.1 C 12.29 g/m*3 19.1 C 0 km/h
612 23-05-2007 02:20:03 19 C 12.22 g/m*3 19 C 0 km/h
613 23-05-2007 02:32:03 19.1 C 12.46 g/m*3 19.1 C 0 km/h
614 23-05-2007 02:44:03 19.1 C 12.29 g/m*3 19.1 C 0 km/h
615 23-05-2007 02:57:03 18.9 C 12.31 g/m*3 18.9 C 0 km/h
616 23-05-2007 03:09:03 18.8 C 12.24 g/m*3 18.8 C 0 km/h
617 23-05-2007 03:21:05 19 C 12.06 g/m*3 19 C 0 km/h
618 23-05-2007 03:33:02 19 C 11.9 g/m*3 19 C 0 km/h
619 23-05-2007 03:45:03 18.9 C 11.99 g/m*3 18.9 C 0 km/h
620 23-05-2007 03:57:03 18.6 C 11.78 g/m*3 18.6 C 0 km/h
621 23-05-2007 04:09:02 18.4 C 11.95 g/m*3 18.4 C 0 km/h
622 23-05-2007 04:21:02 18.4 C 11.95 g/m*3 18.4 C 0 km/h
623 23-05-2007 04:33:02 18.4 C 11.95 g/m*3 18.4 C 0 km/h
624 23-05-2007 04:45:02 18.3 C 11.88 g/m*3 18.3 C 0 km/h
625 23-05-2007 04:57:02 18.3 C 11.88 g/m*3 18.3 C 0 km/h
Sensor: Nr:Datum:Temp:Abs-Feuchte:Windchill:Wind:
Aussen-T/F 626 23-05-2007 05:09:02 18.2 C 11.81 g/m*3 18.2 C 0 km/h
627 23-05-2007 05:21:02 18.2 C 11.81 g/m*3 18.2 C 0 km/h
628 23-05-2007 05:33:02 18.2 C 11.66 g/m*3 18.2 C 0 km/h
629 23-05-2007 05:45:01 18.2 C 11.66 g/m*3 18.2 C 0 km/h
630 23-05-2007 05:57:01 18 C 11.67 g/m*3 18 C 0 km/h
631 23-05-2007 06:09:02 18 C 11.52 g/m*3 18 C 0 km/h
632 23-05-2007 06:21:02 17.8 C 11.54 g/m*3 17.8 C 0 km/h
633 23-05-2007 06:33:01 17.8 C 11.69 g/m*3 17.8 C 0 km/h
634 23-05-2007 06:45:02 17.7 C 11.62 g/m*3 17.7 C 0 km/h
635 23-05-2007 06:57:02 17.6 C 11.55 g/m*3 17.6 C 0 km/h
636 23-05-2007 07:09:02 17.5 C 11.48 g/m*3 17.5 C 0 km/h
637 23-05-2007 07:21:02 17.7 C 11.62 g/m*3 17.7 C 0 km/h
638 23-05-2007 07:33:02 17.7 C 11.47 g/m*3 17.7 C 0 km/h
639 23-05-2007 07:45:02 17.7 C 11.47 g/m*3 17.7 C 0 km/h
640 23-05-2007 07:57:02 17.7 C 11.47 g/m*3 17.7 C 0 km/h
641 23-05-2007 08:09:01 17.6 C 11.4 g/m*3 17.6 C 0 km/h
642 23-05-2007 08:21:01 17.2 C 11.57 g/m*3 17.2 C 0 km/h
643 23-05-2007 08:33:02 16.8 C 11.87 g/m*3 16.8 C 0 km/h
644 23-05-2007 08:45:02 16.8 C 11.87 g/m*3 16.8 C 0 km/h
645 23-05-2007 08:57:02 17.1 C 11.94 g/m*3 17.1 C 0 km/h
646 23-05-2007 09:09:02 17.6 C 12.15 g/m*3 17.6 C 0 km/h
647 23-05-2007 09:21:02 17.7 C 11.92 g/m*3 17.7 C 0 km/h
648 23-05-2007 09:33:03 17.7 C 11.62 g/m*3 17.7 C 0 km/h
649 23-05-2007 09:45:02 18 C 11.67 g/m*3 18 C 0 km/h
650 23-05-2007 09:57:02 17.9 C 11.45 g/m*3 17.9 C 0 km/h
Sensor: Nr:Datum:Temp:Abs-Feuchte:Windchill:Wind:
Aussen-T/F 651 23-05-2007 10:09:02 18.2 C 11.5 g/m*3 18.2 C 0 km/h
652 23-05-2007 10:21:02 18.8 C 11.6 g/m*3 18.8 C 0 km/h
653 23-05-2007 10:33:03 19.2 C 11.38 g/m*3 19.2 C 0 km/h
654 23-05-2007 10:45:02 19 C 10.76 g/m*3 19 C 0 km/h
655 23-05-2007 10:57:03 19 C 10.76 g/m*3 19 C 0 km/h
656 23-05-2007 11:09:01 19.3 C 10.95 g/m*3 19.3 C 0 km/h
657 23-05-2007 11:21:01 19.5 C 10.74 g/m*3 19.5 C 0 km/h
658 23-05-2007 11:33:02 19.8 C 10.93 g/m*3 19.8 C 0 km/h
659 23-05-2007 11:45:03 20.4 C 10.97 g/m*3 20.4 C 0 km/h
660 23-05-2007 11:57:03 20.4 C 10.79 g/m*3 20.4 C 0 km/h
661 23-05-2007 12:09:02 20.4 C 10.79 g/m*3 20.4 C 0 km/h
662 23-05-2007 12:21:02 20.4 C 10.61 g/m*3 20.4 C 0 km/h
663 23-05-2007 12:33:03 20.7 C 10.8 g/m*3 20.7 C 0 km/h
664 23-05-2007 12:45:02 20.7 C 10.62 g/m*3 20.7 C 0 km/h
665 23-05-2007 12:57:02 21.2 C 10.75 g/m*3 21.2 C 0 km/h
666 23-05-2007 13:09:02 21.7 C 10.68 g/m*3 21.7 C 0 km/h
667 23-05-2007 13:21:02 21.6 C 10.62 g/m*3 21.6 C 0 km/h
668 23-05-2007 13:33:02 22.3 C 10.47 g/m*3 22.3 C 0 km/h
669 23-05-2007 13:45:02 22.7 C 10.51 g/m*3 22.7 C 0 km/h
670 23-05-2007 13:57:02 22.1 C 10.35 g/m*3 22.1 C 0 km/h
671 23-05-2007 14:09:01 21.7 C 10.68 g/m*3 21.7 C 0 km/h
672 23-05-2007 14:21:02 21.7 C 10.68 g/m*3 21.7 C 0 km/h
673 23-05-2007 14:33:02 21.7 C 10.49 g/m*3 21.7 C 0 km/h
674 23-05-2007 14:45:02 22.7 C 10.71 g/m*3 22.7 C 0 km/h
675 23-05-2007 14:57:02 23.4 C 10.3 g/m*3 23.4 C 0 km/h
Sensor: Nr:Datum:Temp:Abs-Feuchte:Windchill:Wind:
Aussen-T/F 676 23-05-2007 15:09:02 23.3 C 10.25 g/m*3 23.3 C 0 km/h
677 23-05-2007 15:21:02 24 C 10.23 g/m*3 24 C 0 km/h
678 23-05-2007 15:33:02 24.9 C 10.3 g/m*3 24.9 C 0 km/h
679 23-05-2007 15:45:02 25.4 C 9.89 g/m*3 25.4 C 0 km/h
680 23-05-2007 15:57:03 24.5 C 9.85 g/m*3 24.5 C 0 km/h
681 23-05-2007 16:09:02 24.1 C 10.06 g/m*3 24.1 C 0 km/h
682 23-05-2007 16:21:02 24.5 C 10.07 g/m*3 24.5 C 0 km/h
683 23-05-2007 16:33:02 26.1 C 10.04 g/m*3 26.1 C 0 km/h
684 23-05-2007 16:45:01 26.7 C 10.12 g/m*3 26.7 C 0 km/h
685 23-05-2007 16:57:01 27 C 9.26 g/m*3 27 C 0 km/h
686 23-05-2007 17:09:04 26.2 C 9.85 g/m*3 26.2 C 0 km/h
687 23-05-2007 17:21:02 25 C 9.67 g/m*3 25 C 0 km/h
688 23-05-2007 17:33:01 24.6 C 9.9 g/m*3 24.6 C 0 km/h
689 23-05-2007 17:45:03 24.8 C 10.02 g/m*3 24.8 C 0 km/h
690 23-05-2007 17:57:03 26.3 C 10.15 g/m*3 26.3 C 0 km/h
691 23-05-2007 18:09:03 26.8 C 9.42 g/m*3 26.8 C 0 km/h
692 23-05-2007 18:21:02 26.2 C 9.85 g/m*3 26.2 C 0 km/h
693 23-05-2007 18:33:02 25.9 C 9.93 g/m*3 25.9 C 0 km/h
694 23-05-2007 18:45:02 25.3 C 9.6 g/m*3 25.3 C 0 km/h
695 23-05-2007 18:57:02 25.9 C 9.93 g/m*3 25.9 C 0 km/h
696 23-05-2007 19:09:02 26.1 C 9.55 g/m*3 26.1 C 0 km/h
697 23-05-2007 19:21:02 25.5 C 9.94 g/m*3 25.5 C 0 km/h
698 23-05-2007 19:33:03 24.9 C 9.61 g/m*3 24.9 C 0 km/h
699 23-05-2007 19:45:02 24.9 C 9.84 g/m*3 24.9 C 0 km/h
700 23-05-2007 19:57:02 24.8 C 10.02 g/m*3 24.8 C 0 km/h
Sensor: Nr:Datum:Temp:Abs-Feuchte:Windchill:Wind:
Aussen-T/F 701 23-05-2007 20:09:03 24.4 C 10.01 g/m*3 24.4 C 0 km/h
702 23-05-2007 20:21:02 24.1 C 10.06 g/m*3 24.1 C 0 km/h
703 23-05-2007 20:33:02 24.2 C 10.78 g/m*3 24.2 C 0 km/h
704 23-05-2007 20:45:02 24 C 10.23 g/m*3 24 C 0 km/h
705 23-05-2007 20:57:02 23.4 C 10.93 g/m*3 23.4 C 0 km/h
706 23-05-2007 21:09:01 22.9 C 11.04 g/m*3 22.9 C 0 km/h
707 23-05-2007 21:21:02 22.5 C 10.99 g/m*3 22.5 C 0 km/h
708 23-05-2007 21:33:01 22.1 C 10.93 g/m*3 22.1 C 0 km/h
709 23-05-2007 21:45:02 21.6 C 11 g/m*3 21.6 C 0 km/h
710 23-05-2007 21:57:02 21.5 C 10.94 g/m*3 21.5 C 0 km/h
711 23-05-2007 22:09:02 21.3 C 10.81 g/m*3 21.3 C 0 km/h
712 23-05-2007 22:21:02 20.9 C 10.93 g/m*3 20.9 C 0 km/h
713 23-05-2007 22:33:02 20.6 C 10.74 g/m*3 20.6 C 0 km/h
714 23-05-2007 22:45:02 20.5 C 10.85 g/m*3 20.5 C 0 km/h
715 23-05-2007 22:57:02 20.4 C 10.97 g/m*3 20.4 C 0 km/h
716 23-05-2007 23:09:02 20 C 11.06 g/m*3 20 C 0 km/h
717 23-05-2007 23:21:02 19.7 C 11.04 g/m*3 19.7 C 0 km/h
718 23-05-2007 23:33:02 19.5 C 11.24 g/m*3 19.5 C 0 km/h
719 23-05-2007 23:45:01 19.2 C 11.05 g/m*3 19.2 C 0 km/h
720 23-05-2007 23:57:01 19 C 11.08 g/m*3 19 C 0 km/h
721 24-05-2007 00:09:02 18.6 C 11.14 g/m*3 18.6 C 0 km/h
722 24-05-2007 00:21:02 18.5 C 11.23 g/m*3 18.5 C 0 km/h
723 24-05-2007 00:33:02 18.3 C 11.26 g/m*3 18.3 C 0 km/h
724 24-05-2007 00:45:02 18.2 C 11.19 g/m*3 18.2 C 0 km/h
725 24-05-2007 00:57:02 18 C 11.06 g/m*3 18 C 0 km/h
Sensor: Nr:Datum:Temp:Abs-Feuchte:Windchill:Wind:
Aussen-T/F 726 24-05-2007 01:09:02 17.9 C 11.15 g/m*3 17.9 C 0 km/h
727 24-05-2007 01:21:03 17.8 C 11.23 g/m*3 17.8 C 0 km/h
728 24-05-2007 01:33:01 17.6 C 11.4 g/m*3 17.6 C 0 km/h
729 24-05-2007 01:45:03 17.6 C 11.4 g/m*3 17.6 C 0 km/h
730 24-05-2007 01:57:03 17.5 C 11.33 g/m*3 17.5 C 0 km/h
731 24-05-2007 02:09:02 17.5 C 11.33 g/m*3 17.5 C 0 km/h
732 24-05-2007 02:21:03 17.4 C 11.26 g/m*3 17.4 C 0 km/h
733 24-05-2007 02:33:02 17.2 C 11.13 g/m*3 17.2 C 0 km/h
734 24-05-2007 02:46:03 16.9 C 11.22 g/m*3 16.9 C 0 km/h
735 24-05-2007 02:58:03 16.8 C 11.15 g/m*3 16.8 C 0 km/h
736 24-05-2007 03:10:04 16.7 C 11.08 g/m*3 16.7 C 0 km/h
737 24-05-2007 03:22:04 16.6 C 11.16 g/m*3 16.6 C 0 km/h
738 24-05-2007 03:34:02 16.5 C 10.95 g/m*3 16.5 C 0 km/h
739 24-05-2007 03:46:02 16.3 C 10.96 g/m*3 16.3 C 0 km/h
740 24-05-2007 03:58:02 16.2 C 10.89 g/m*3 16.2 C 0 km/h
741 24-05-2007 04:10:02 16.1 C 10.83 g/m*3 16.1 C 0 km/h
742 24-05-2007 04:22:02 15.8 C 10.77 g/m*3 15.8 C 0 km/h
743 24-05-2007 04:34:02 15.7 C 10.7 g/m*3 15.7 C 0 km/h
744 24-05-2007 04:46:02 15.6 C 10.64 g/m*3 15.6 C 0 km/h
745 24-05-2007 04:58:02 15.6 C 10.77 g/m*3 15.6 C 0 km/h
746 24-05-2007 05:10:02 15.4 C 10.64 g/m*3 15.4 C 0 km/h
747 24-05-2007 05:22:02 15.4 C 10.64 g/m*3 15.4 C 0 km/h
748 24-05-2007 05:34:02 15.3 C 10.58 g/m*3 15.3 C 0 km/h
749 24-05-2007 05:46:02 15.3 C 10.71 g/m*3 15.3 C 0 km/h
750 24-05-2007 05:58:02 15.2 C 10.64 g/m*3 15.2 C 0 km/h
Sensor: Nr:Datum:Temp:Abs-Feuchte:Windchill:Wind:
Aussen-T/F 751 24-05-2007 06:10:01 15.1 C 10.58 g/m*3 15.1 C 0 km/h
752 24-05-2007 06:22:02 15.2 C 10.64 g/m*3 15.2 C 0 km/h
753 24-05-2007 06:34:03 15.3 C 10.71 g/m*3 15.3 C 0 km/h
754 24-05-2007 06:46:02 15.3 C 10.71 g/m*3 15.3 C 0 km/h
755 24-05-2007 06:58:02 15.4 C 10.9 g/m*3 15.4 C 0 km/h
756 24-05-2007 07:10:02 15.5 C 10.97 g/m*3 15.5 C 0 km/h
757 24-05-2007 07:22:02 15.6 C 11.04 g/m*3 15.6 C 0 km/h
758 24-05-2007 07:34:02 15.9 C 11.1 g/m*3 15.9 C 0 km/h
759 24-05-2007 07:46:02 16.2 C 11.03 g/m*3 16.2 C 0 km/h
760 24-05-2007 07:58:02 16.4 C 11.03 g/m*3 16.4 C 0 km/h
761 24-05-2007 08:10:02 16.8 C 11.29 g/m*3 16.8 C 0 km/h
762 24-05-2007 08:22:02 17.3 C 11.34 g/m*3 17.3 C 0 km/h
763 24-05-2007 08:34:02 17.7 C 11.32 g/m*3 17.7 C 0 km/h
764 24-05-2007 08:46:03 18.2 C 11.19 g/m*3 18.2 C 0 km/h
765 24-05-2007 08:58:03 18.9 C 11.34 g/m*3 18.9 C 0 km/h
766 24-05-2007 09:10:03 19.4 C 11.18 g/m*3 19.4 C 0 km/h
767 24-05-2007 09:22:02 19.8 C 11.27 g/m*3 19.8 C 0 km/h
768 24-05-2007 09:34:02 20 C 11.06 g/m*3 20 C 0 km/h
769 24-05-2007 09:46:02 20.4 C 11.32 g/m*3 20.4 C 0 km/h
770 24-05-2007 09:58:02 20.9 C 11.47 g/m*3 20.9 C 0 km/h
771 24-05-2007 10:10:02 21.3 C 11.37 g/m*3 21.3 C 0 km/h
772 24-05-2007 10:22:03 21.9 C 11.58 g/m*3 21.9 C 0 km/h
773 24-05-2007 10:34:02 22.4 C 11.52 g/m*3 22.4 C 0 km/h
774 24-05-2007 10:46:01 23.1 C 11.58 g/m*3 23.1 C 0 km/h
775 24-05-2007 10:58:01 23.5 C 11.42 g/m*3 23.5 C 0 km/h
Sensor: Nr:Datum:Temp:Abs-Feuchte:Windchill:Wind:
Aussen-T/F 776 24-05-2007 11:10:02 23.9 C 11.47 g/m*3 23.9 C 0 km/h
777 24-05-2007 11:22:01 24.5 C 11.64 g/m*3 24.5 C 0 km/h
778 24-05-2007 11:34:01 24.7 C 11.32 g/m*3 24.7 C 0 km/h
779 24-05-2007 11:46:02 25.4 C 11.54 g/m*3 25.4 C 0 km/h
780 24-05-2007 11:58:02 26.2 C 11.57 g/m*3 26.2 C 0 km/h
781 24-05-2007 12:10:01 26.9 C 11.26 g/m*3 26.9 C 0 km/h
782 24-05-2007 12:22:02 27.5 C 10.85 g/m*3 27.5 C 0 km/h
783 24-05-2007 12:34:02 28.6 C 11.24 g/m*3 28.6 C 0 km/h
784 24-05-2007 12:46:02 29 C 10.63 g/m*3 29 C 0 km/h
785 24-05-2007 12:58:02 29.1 C 10.4 g/m*3 29.1 C 0 km/h
786 24-05-2007 13:10:02 29.6 C 10.09 g/m*3 29.6 C 0 km/h
787 24-05-2007 13:22:02 30 C 10.31 g/m*3 30 C 0 km/h
788 24-05-2007 13:34:02 29.8 C 9.9 g/m*3 29.8 C 0 km/h
789 24-05-2007 13:46:02 30.8 C 9.81 g/m*3 30.8 C 0 km/h
790 24-05-2007 13:58:02 30.4 C 9.61 g/m*3 30.4 C 0 km/h
791 24-05-2007 14:10:01 30.1 C 9.76 g/m*3 30.1 C 0 km/h
792 24-05-2007 14:22:02 30.6 C 10.02 g/m*3 30.6 C 0 km/h
793 24-05-2007 14:34:02 31.1 C 9.97 g/m*3 31.1 C 0 km/h
794 24-05-2007 14:46:03 30.7 C 9.76 g/m*3 30.7 C 0 km/h
795 24-05-2007 14:58:03 31.4 C 9.48 g/m*3 31.4 C 0 km/h
796 24-05-2007 15:10:02 31.4 C 9.48 g/m*3 31.4 C 0 km/h
797 24-05-2007 15:22:02 31.7 C 9.97 g/m*3 31.7 C 0 km/h
798 24-05-2007 15:34:02 32.3 C 8.58 g/m*3 32.3 C 0 km/h
799 24-05-2007 15:46:02 32 C 8.44 g/m*3 32 C 0 km/h
800 24-05-2007 15:58:02 32.4 C 7.24 g/m*3 32.4 C 0 km/h
Sensor: Nr:Datum:Temp:Abs-Feuchte:Windchill:Wind:
Aussen-T/F 801 24-05-2007 16:10:02 32.7 C 7.01 g/m*3 32.7 C 0 km/h
802 24-05-2007 16:22:02 32.9 C 7.08 g/m*3 32.9 C 0 km/h
803 24-05-2007 16:34:02 32.8 C 7.04 g/m*3 32.8 C 0 km/h
804 24-05-2007 16:46:02 33.1 C 7.16 g/m*3 33.1 C 0 km/h
805 24-05-2007 16:58:02 33 C 7.12 g/m*3 33 C 0 km/h
806 24-05-2007 17:10:02 33 C 7.12 g/m*3 33 C 0 km/h
807 24-05-2007 17:22:01 33 C 7.12 g/m*3 33 C 0 km/h
808 24-05-2007 17:34:01 33.4 C 7.27 g/m*3 33.4 C 0 km/h
809 24-05-2007 17:46:02 33.7 C 7.39 g/m*3 33.7 C 0 km/h
810 24-05-2007 17:58:02 33.2 C 7.2 g/m*3 33.2 C 0 km/h
811 24-05-2007 18:10:01 33.3 C 7.23 g/m*3 33.3 C 0 km/h
812 24-05-2007 18:22:02 33.4 C 7.27 g/m*3 33.4 C 0 km/h
813 24-05-2007 18:34:01 33.8 C 7.43 g/m*3 33.8 C 0 km/h
814 24-05-2007 18:46:01 33.7 C 7.39 g/m*3 33.7 C 0 km/h
815 24-05-2007 18:58:01 33.6 C 7.35 g/m*3 33.6 C 0 km/h
816 24-05-2007 19:10:02 33.2 C 7.2 g/m*3 33.2 C 0 km/h
817 24-05-2007 19:22:02 33.1 C 7.52 g/m*3 33.1 C 0 km/h
818 24-05-2007 19:34:01 32.8 C 8.45 g/m*3 32.8 C 0 km/h
819 24-05-2007 19:46:02 32.3 C 8.58 g/m*3 32.3 C 0 km/h
820 24-05-2007 19:58:03 31.8 C 9.35 g/m*3 31.8 C 0 km/h
821 24-05-2007 20:10:02 31.4 C 9.15 g/m*3 31.4 C 0 km/h
822 24-05-2007 20:22:01 30.6 C 10.02 g/m*3 30.6 C 0 km/h
823 24-05-2007 20:34:02 29.9 C 10.56 g/m*3 29.9 C 0 km/h
824 24-05-2007 20:46:01 28.6 C 10.12 g/m*3 28.6 C 0 km/h
825 24-05-2007 20:58:01 27.5 C 10.05 g/m*3 27.5 C 0 km/h
Sensor: Nr:Datum:Temp:Abs-Feuchte:Windchill:Wind:
Aussen-T/F 826 24-05-2007 21:10:02 26.7 C 10.12 g/m*3 26.7 C 0 km/h
827 24-05-2007 21:22:02 26.2 C 10.34 g/m*3 26.2 C 0 km/h
828 24-05-2007 21:34:02 25.8 C 10.59 g/m*3 25.8 C 0 km/h
829 24-05-2007 21:46:02 25.6 C 10.48 g/m*3 25.6 C 0 km/h
830 24-05-2007 21:58:02 25.2 C 10.48 g/m*3 25.2 C 0 km/h
831 24-05-2007 22:10:03 25.1 C 10.42 g/m*3 25.1 C 0 km/h
832 24-05-2007 22:22:02 24.8 C 10.7 g/m*3 24.8 C 0 km/h
833 24-05-2007 22:34:02 24.5 C 10.74 g/m*3 24.5 C 0 km/h
834 24-05-2007 22:46:03 24.4 C 10.9 g/m*3 24.4 C 0 km/h
835 24-05-2007 22:58:03 24.2 C 11 g/m*3 24.2 C 0 km/h
836 24-05-2007 23:10:02 23.9 C 11.25 g/m*3 23.9 C 0 km/h
837 24-05-2007 23:22:02 23.4 C 11.35 g/m*3 23.4 C 0 km/h
838 24-05-2007 23:34:03 23.2 C 11.43 g/m*3 23.2 C 0 km/h
839 24-05-2007 23:46:02 23 C 11.51 g/m*3 23 C 0 km/h
840 24-05-2007 23:58:02 22.8 C 11.58 g/m*3 22.8 C 0 km/h
841 25-05-2007 00:10:03 22.9 C 11.85 g/m*3 22.9 C 0 km/h
842 25-05-2007 00:22:03 23 C 11.92 g/m*3 23 C 0 km/h
843 25-05-2007 00:34:02 22.6 C 11.65 g/m*3 22.6 C 0 km/h
844 25-05-2007 00:46:02 22.5 C 11.78 g/m*3 22.5 C 0 km/h
845 25-05-2007 00:58:02 22.2 C 11.98 g/m*3 22.2 C 0 km/h
846 25-05-2007 01:10:02 21.9 C 12.16 g/m*3 21.9 C 0 km/h
847 25-05-2007 01:22:03 21.7 C 12.02 g/m*3 21.7 C 0 km/h
848 25-05-2007 01:34:03 21.6 C 12.14 g/m*3 21.6 C 0 km/h
849 25-05-2007 01:46:02 21.6 C 12.14 g/m*3 21.6 C 0 km/h
850 25-05-2007 01:58:02 21.3 C 12.12 g/m*3 21.3 C 0 km/h
Sensor: Nr:Datum:Temp:Abs-Feuchte:Windchill:Wind:
Aussen-T/F 851 25-05-2007 02:10:01 21.1 C 12.16 g/m*3 21.1 C 0 km/h
852 25-05-2007 02:22:02 20.8 C 12.13 g/m*3 20.8 C 0 km/h
853 25-05-2007 02:34:02 20.4 C 12.03 g/m*3 20.4 C 0 km/h
854 25-05-2007 02:47:03 20.3 C 12.14 g/m*3 20.3 C 0 km/h
855 25-05-2007 02:59:03 20 C 11.92 g/m*3 20 C 0 km/h
856 25-05-2007 03:11:03 20 C 12.1 g/m*3 20 C 0 km/h
857 25-05-2007 03:23:03 19.7 C 12.06 g/m*3 19.7 C 0 km/h
858 25-05-2007 03:35:02 19.5 C 12.08 g/m*3 19.5 C 0 km/h
859 25-05-2007 03:47:02 19.4 C 12.01 g/m*3 19.4 C 0 km/h
860 25-05-2007 03:59:02 19.1 C 11.8 g/m*3 19.1 C 0 km/h
861 25-05-2007 04:11:01 19 C 11.9 g/m*3 19 C 0 km/h
862 25-05-2007 04:23:02 18.9 C 11.99 g/m*3 18.9 C 0 km/h
863 25-05-2007 04:35:02 18.9 C 12.15 g/m*3 18.9 C 0 km/h
864 25-05-2007 04:47:01 18.6 C 12.1 g/m*3 18.6 C 0 km/h
865 25-05-2007 04:59:01 18.6 C 11.94 g/m*3 18.6 C 0 km/h
866 25-05-2007 05:11:02 18.4 C 11.8 g/m*3 18.4 C 0 km/h
867 25-05-2007 05:23:02 18.3 C 11.73 g/m*3 18.3 C 0 km/h
868 25-05-2007 05:35:01 18.2 C 11.81 g/m*3 18.2 C 0 km/h
869 25-05-2007 05:47:03 18.1 C 11.74 g/m*3 18.1 C 0 km/h
870 25-05-2007 05:59:03 18 C 11.67 g/m*3 18 C 0 km/h
871 25-05-2007 06:11:02 18 C 11.83 g/m*3 18 C 0 km/h
872 25-05-2007 06:23:03 18.1 C 11.9 g/m*3 18.1 C 0 km/h
873 25-05-2007 06:35:03 18 C 11.98 g/m*3 18 C 0 km/h
874 25-05-2007 06:47:03 18 C 11.98 g/m*3 18 C 0 km/h
875 25-05-2007 06:59:03 18.1 C 11.9 g/m*3 18.1 C 0 km/h
Sensor: Nr:Datum:Temp:Abs-Feuchte:Windchill:Wind:
Aussen-T/F 876 25-05-2007 07:11:02 18.3 C 12.04 g/m*3 18.3 C 0 km/h
877 25-05-2007 07:23:03 18.3 C 12.04 g/m*3 18.3 C 0 km/h
878 25-05-2007 07:35:03 18.5 C 12.18 g/m*3 18.5 C 0 km/h
879 25-05-2007 07:47:02 18.7 C 12.17 g/m*3 18.7 C 0 km/h
880 25-05-2007 07:59:02 18.9 C 12.31 g/m*3 18.9 C 0 km/h
881 25-05-2007 08:11:02 19.3 C 12.27 g/m*3 19.3 C 0 km/h
882 25-05-2007 08:23:02 19.7 C 12.4 g/m*3 19.7 C 0 km/h
883 25-05-2007 08:35:02 20.1 C 12.17 g/m*3 20.1 C 0 km/h
884 25-05-2007 08:47:02 20.5 C 12.28 g/m*3 20.5 C 0 km/h
885 25-05-2007 08:59:02 21 C 12.27 g/m*3 21 C 0 km/h
886 25-05-2007 09:11:02 21.6 C 12.52 g/m*3 21.6 C 0 km/h
887 25-05-2007 09:23:03 22.2 C 12.17 g/m*3 22.2 C 0 km/h
888 25-05-2007 09:35:02 22.9 C 12.47 g/m*3 22.9 C 0 km/h
889 25-05-2007 09:47:02 23.4 C 12.41 g/m*3 23.4 C 0 km/h
890 25-05-2007 09:59:02 23.9 C 12.55 g/m*3 23.9 C 0 km/h
891 25-05-2007 10:11:02 24.3 C 11.51 g/m*3 24.3 C 0 km/h
892 25-05-2007 10:23:01 24.6 C 11.25 g/m*3 24.6 C 0 km/h
893 25-05-2007 10:35:02 25 C 10.36 g/m*3 25 C 0 km/h
894 25-05-2007 10:47:02 25.5 C 10.42 g/m*3 25.5 C 0 km/h
895 25-05-2007 10:59:02 26.2 C 10.09 g/m*3 26.2 C 0 km/h
896 25-05-2007 11:11:01 26.6 C 10.57 g/m*3 26.6 C 0 km/h
897 25-05-2007 11:23:02 27.2 C 10.67 g/m*3 27.2 C 0 km/h
898 25-05-2007 11:35:02 27.3 C 9.94 g/m*3 27.3 C 0 km/h
899 25-05-2007 11:47:03 27.6 C 9.84 g/m*3 27.6 C 0 km/h
900 25-05-2007 11:59:03 27.5 C 9.52 g/m*3 27.5 C 0 km/h
Sensor: Nr:Datum:Temp:Abs-Feuchte:Windchill:Wind:
Aussen-T/F 901 25-05-2007 12:11:02 28.1 C 9.3 g/m*3 28.1 C 0 km/h
902 25-05-2007 12:23:02 28.7 C 9.32 g/m*3 28.7 C 0 km/h
903 25-05-2007 12:35:02 28.9 C 9.43 g/m*3 28.9 C 0 km/h
904 25-05-2007 12:47:02 29.9 C 9.65 g/m*3 29.9 C 0 km/h
905 25-05-2007 12:59:02 29.5 C 9.15 g/m*3 29.5 C 0 km/h
906 25-05-2007 13:11:02 30 C 9.1 g/m*3 30 C 0 km/h
907 25-05-2007 13:23:02 30.1 C 9.15 g/m*3 30.1 C 0 km/h
908 25-05-2007 13:35:03 30.3 C 8.94 g/m*3 30.3 C 0 km/h
909 25-05-2007 13:47:01 30.1 C 8.84 g/m*3 30.1 C 0 km/h
910 25-05-2007 13:59:01 30 C 8.49 g/m*3 30 C 0 km/h
911 25-05-2007 14:11:01 30.1 C 8.54 g/m*3 30.1 C 0 km/h
912 25-05-2007 14:23:02 30.4 C 8.37 g/m*3 30.4 C 0 km/h
913 25-05-2007 14:35:01 30.6 C 8.14 g/m*3 30.6 C 0 km/h
914 25-05-2007 14:47:02 30.6 C 7.83 g/m*3 30.6 C 0 km/h
915 25-05-2007 14:59:02 30.7 C 7.87 g/m*3 30.7 C 0 km/h
916 25-05-2007 15:11:02 31.3 C 8.78 g/m*3 31.3 C 0 km/h
917 25-05-2007 15:23:02 30.8 C 8.23 g/m*3 30.8 C 0 km/h
918 25-05-2007 15:35:01 31.2 C 8.09 g/m*3 31.2 C 0 km/h
919 25-05-2007 15:47:02 31.3 C 7.81 g/m*3 31.3 C 0 km/h
920 25-05-2007 15:59:02 31.8 C 8.02 g/m*3 31.8 C 0 km/h
921 25-05-2007 16:11:02 31.7 C 7.31 g/m*3 31.7 C 0 km/h
922 25-05-2007 16:23:03 31.7 C 6.98 g/m*3 31.7 C 0 km/h
923 25-05-2007 16:35:03 31.7 C 7.64 g/m*3 31.7 C 0 km/h
924 25-05-2007 16:47:03 31.9 C 7.39 g/m*3 31.9 C 0 km/h
925 25-05-2007 16:59:03 31.2 C 7.76 g/m*3 31.2 C 0 km/h
Sensor: Nr:Datum:Temp:Abs-Feuchte:Windchill:Wind:
Aussen-T/F 926 25-05-2007 17:11:03 31.3 C 7.81 g/m*3 31.3 C 0 km/h
927 25-05-2007 17:23:03 30.8 C 8.23 g/m*3 30.8 C 0 km/h
928 25-05-2007 17:35:03 28.8 C 11.08 g/m*3 28.8 C 0 km/h
929 25-05-2007 17:47:03 27.4 C 11.05 g/m*3 27.4 C 0 km/h
930 25-05-2007 17:59:03 27.3 C 11.77 g/m*3 27.3 C 0 km/h
931 25-05-2007 18:11:02 29.6 C 10.98 g/m*3 29.6 C 0 km/h
932 25-05-2007 18:23:02 29.7 C 10.44 g/m*3 29.7 C 0 km/h
933 25-05-2007 18:35:03 29.7 C 10.44 g/m*3 29.7 C 0 km/h
934 25-05-2007 18:47:02 30.1 C 9.76 g/m*3 30.1 C 0 km/h
935 25-05-2007 18:59:02 30 C 9.7 g/m*3 30 C 0 km/h
936 25-05-2007 19:11:02 29.8 C 9.9 g/m*3 29.8 C 0 km/h
937 25-05-2007 19:23:02 29.2 C 9.58 g/m*3 29.2 C 0 km/h
938 25-05-2007 19:35:02 29.4 C 9.69 g/m*3 29.4 C 0 km/h
939 25-05-2007 19:47:02 29.4 C 10.27 g/m*3 29.4 C 0 km/h
940 25-05-2007 19:59:02 28.6 C 10.4 g/m*3 28.6 C 0 km/h
941 25-05-2007 20:11:02 28 C 10.61 g/m*3 28 C 0 km/h
942 25-05-2007 20:23:02 27.1 C 10.87 g/m*3 27.1 C 0 km/h
943 25-05-2007 20:35:02 26.4 C 11.2 g/m*3 26.4 C 0 km/h
944 25-05-2007 20:47:02 25.5 C 11.36 g/m*3 25.5 C 0 km/h
945 25-05-2007 20:59:02 24.6 C 11.7 g/m*3 24.6 C 0 km/h
946 25-05-2007 21:11:02 24.4 C 12.02 g/m*3 24.4 C 0 km/h
947 25-05-2007 21:23:02 24 C 12.18 g/m*3 24 C 0 km/h
948 25-05-2007 21:35:02 24.1 C 12.47 g/m*3 24.1 C 0 km/h
949 25-05-2007 21:47:01 24.2 C 12.32 g/m*3 24.2 C 0 km/h
950 25-05-2007 21:59:01 23.9 C 12.55 g/m*3 23.9 C 0 km/h
Sensor: Nr:Datum:Temp:Abs-Feuchte:Windchill:Wind:
Aussen-T/F 951 25-05-2007 22:11:02 23.6 C 12.55 g/m*3 23.6 C 0 km/h
952 25-05-2007 22:23:01 23.5 C 12.48 g/m*3 23.5 C 0 km/h
953 25-05-2007 22:36:11 23.5 C 12.69 g/m*3 23.5 C 0 km/h
954 25-05-2007 22:48:11 23.4 C 12.83 g/m*3 23.4 C 0 km/h
955 25-05-2007 23:00:11 22.7 C 13.94 g/m*3 22.7 C 0 km/h
956 25-05-2007 23:12:11 21.6 C 14.6 g/m*3 21.6 C 0 km/h
957 25-05-2007 23:24:11 21.6 C 15.17 g/m*3 21.6 C 0 km/h
958 25-05-2007 23:36:11 21 C 14.47 g/m*3 21 C 0 km/h
959 25-05-2007 23:48:11 21.2 C 14.46 g/m*3 21.2 C 0 km/h
960 26-05-2007 00:00:11 21.3 C 14.35 g/m*3 21.3 C 0 km/h
961 26-05-2007 00:12:11 21.4 C 14.25 g/m*3 21.4 C 0 km/h
962 26-05-2007 00:24:11 21.5 C 14.14 g/m*3 21.5 C 0 km/h
963 26-05-2007 00:36:11 21.4 C 14.06 g/m*3 21.4 C 0 km/h
964 26-05-2007 00:48:11 21.5 C 14.14 g/m*3 21.5 C 0 km/h
965 26-05-2007 01:00:11 20.8 C 14.3 g/m*3 20.8 C 0 km/h
966 26-05-2007 01:12:11 19.4 C 13.85 g/m*3 19.4 C 0 km/h
967 26-05-2007 01:24:11 17.9 C 13.28 g/m*3 17.9 C 0 km/h
968 26-05-2007 01:36:11 18 C 13.67 g/m*3 18 C 0 km/h
969 26-05-2007 01:48:11 17.6 C 13.65 g/m*3 17.6 C 0 km/h
970 26-05-2007 02:00:12 17.8 C 13.51 g/m*3 17.8 C 0 km/h
971 26-05-2007 02:12:12 17.8 C 13.51 g/m*3 17.8 C 0 km/h
972 26-05-2007 02:24:12 17.8 C 13.51 g/m*3 17.8 C 0 km/h
973 26-05-2007 02:36:12 17.5 C 13.27 g/m*3 17.5 C 0 km/h
974 26-05-2007 02:48:12 17.3 C 13.11 g/m*3 17.3 C 0 km/h
975 26-05-2007 03:00:12 17.2 C 13.18 g/m*3 17.2 C 0 km/h
Sensor: Nr:Datum:Temp:Abs-Feuchte:Windchill:Wind:
Aussen-T/F 976 26-05-2007 03:12:12 17 C 13.02 g/m*3 17 C 0 km/h
977 26-05-2007 03:24:12 17 C 13.02 g/m*3 17 C 0 km/h
978 26-05-2007 03:36:12 17 C 13.02 g/m*3 17 C 0 km/h
979 26-05-2007 03:48:12 16.9 C 13.09 g/m*3 16.9 C 0 km/h
980 26-05-2007 04:00:12 16.7 C 12.93 g/m*3 16.7 C 0 km/h
981 26-05-2007 04:12:12 16.6 C 12.86 g/m*3 16.6 C 0 km/h
982 26-05-2007 04:24:12 16.5 C 12.78 g/m*3 16.5 C 0 km/h
983 26-05-2007 04:36:12 16.4 C 12.7 g/m*3 16.4 C 0 km/h
984 26-05-2007 04:48:12 16.2 C 12.55 g/m*3 16.2 C 0 km/h
985 26-05-2007 05:00:12 16.1 C 12.47 g/m*3 16.1 C 0 km/h
986 26-05-2007 05:12:12 15.9 C 12.46 g/m*3 15.9 C 0 km/h
987 26-05-2007 05:24:12 15.9 C 12.46 g/m*3 15.9 C 0 km/h
988 26-05-2007 05:36:13 15.8 C 12.38 g/m*3 15.8 C 0 km/h
989 26-05-2007 05:48:13 15.8 C 12.38 g/m*3 15.8 C 0 km/h
990 26-05-2007 06:00:13 15.8 C 12.38 g/m*3 15.8 C 0 km/h
991 26-05-2007 06:12:13 15.9 C 12.46 g/m*3 15.9 C 0 km/h
992 26-05-2007 06:24:13 15.9 C 12.46 g/m*3 15.9 C 0 km/h
993 26-05-2007 06:36:13 16 C 12.53 g/m*3 16 C 0 km/h
994 26-05-2007 06:48:13 15.9 C 12.46 g/m*3 15.9 C 0 km/h
995 26-05-2007 07:00:13 16 C 12.4 g/m*3 16 C 0 km/h
996 26-05-2007 07:12:13 16.1 C 12.61 g/m*3 16.1 C 0 km/h
997 26-05-2007 07:24:13 16.2 C 12.55 g/m*3 16.2 C 0 km/h
998 26-05-2007 07:36:13 16.5 C 12.92 g/m*3 16.5 C 0 km/h
999 26-05-2007 07:48:13 17.1 C 13.25 g/m*3 17.1 C 0 km/h
1000 26-05-2007 08:00:13 17.8 C 13.66 g/m*3 17.8 C 0 km/h
Sensor: Nr:Datum:Temp:Abs-Feuchte:Windchill:Wind:
Aussen-T/F 1001 26-05-2007 08:12:13 18 C 13.21 g/m*3 18 C 0 km/h
1002 26-05-2007 08:24:13 17.7 C 12.67 g/m*3 17.7 C 0 km/h
1003 26-05-2007 08:36:13 17.7 C 12.82 g/m*3 17.7 C 0 km/h
1004 26-05-2007 08:48:13 17.7 C 12.37 g/m*3 17.7 C 0 km/h
1005 26-05-2007 09:00:13 18 C 12.13 g/m*3 18 C 0 km/h
1006 26-05-2007 09:12:13 18.7 C 12.33 g/m*3 18.7 C 0 km/h
1007 26-05-2007 09:24:14 18.8 C 12.24 g/m*3 18.8 C 0 km/h
1008 26-05-2007 09:36:14 19.3 C 12.44 g/m*3 19.3 C 0 km/h
1009 26-05-2007 09:48:14 19.6 C 12.32 g/m*3 19.6 C 0 km/h
1010 26-05-2007 10:00:14 20.3 C 12.49 g/m*3 20.3 C 0 km/h
1011 26-05-2007 10:12:14 21 C 12.46 g/m*3 21 C 0 km/h
1012 26-05-2007 10:24:14 21.7 C 12.02 g/m*3 21.7 C 0 km/h
1013 26-05-2007 10:36:02 22.5 C 12.38 g/m*3 22.5 C 0 km/h
1014 26-05-2007 10:48:02 22.5 C 11.78 g/m*3 22.5 C 0 km/h
1015 26-05-2007 11:00:02 23.5 C 12.48 g/m*3 23.5 C 0 km/h
1016 26-05-2007 11:12:02 22.9 C 12.06 g/m*3 22.9 C 0 km/h
1017 26-05-2007 11:24:02 23.1 C 12.2 g/m*3 23.1 C 0 km/h
1018 26-05-2007 11:36:02 23.9 C 12.33 g/m*3 23.9 C 0 km/h
1019 26-05-2007 11:48:02 24.2 C 11.66 g/m*3 24.2 C 0 km/h
1020 26-05-2007 12:00:03 24.6 C 11.48 g/m*3 24.6 C 0 km/h
1021 26-05-2007 12:12:02 25.6 C 11.67 g/m*3 25.6 C 0 km/h
1022 26-05-2007 12:24:02 25.3 C 11.47 g/m*3 25.3 C 0 km/h
1023 26-05-2007 12:36:02 27.1 C 10.87 g/m*3 27.1 C 0 km/h
1024 26-05-2007 12:48:02 28.2 C 10.72 g/m*3 28.2 C 0 km/h
1025 26-05-2007 13:00:02 28.7 C 10.46 g/m*3 28.7 C 0 km/h
Sensor: Nr:Datum:Temp:Abs-Feuchte:Windchill:Wind:
Aussen-T/F 1026 26-05-2007 13:12:01 29.3 C 10.51 g/m*3 29.3 C 0 km/h
1027 26-05-2007 13:24:01 29.2 C 9.87 g/m*3 29.2 C 0 km/h
1028 26-05-2007 13:36:02 29 C 8.9 g/m*3 29 C 0 km/h
1029 26-05-2007 13:48:02 29.4 C 9.39 g/m*3 29.4 C 0 km/h
1030 26-05-2007 14:00:02 28.6 C 8.43 g/m*3 28.6 C 0 km/h
1031 26-05-2007 14:12:03 27.9 C 8.92 g/m*3 27.9 C 0 km/h
1032 26-05-2007 14:24:02 28.9 C 9.14 g/m*3 28.9 C 0 km/h
1033 26-05-2007 14:36:02 29.3 C 9.05 g/m*3 29.3 C 0 km/h
1034 26-05-2007 14:48:02 29.7 C 9.25 g/m*3 29.7 C 0 km/h
1035 26-05-2007 15:00:03 29.5 C 9.44 g/m*3 29.5 C 0 km/h
1036 26-05-2007 15:12:02 30.1 C 8.84 g/m*3 30.1 C 0 km/h
1037 26-05-2007 15:24:03 30.1 C 8.84 g/m*3 30.1 C 0 km/h
1038 26-05-2007 15:36:03 30.3 C 8.94 g/m*3 30.3 C 0 km/h
1039 26-05-2007 15:48:03 30.4 C 8.37 g/m*3 30.4 C 0 km/h
1040 26-05-2007 16:00:03 30.9 C 7.96 g/m*3 30.9 C 0 km/h
1041 26-05-2007 16:12:02 31.2 C 7.44 g/m*3 31.2 C 0 km/h
1042 26-05-2007 16:24:03 30.7 C 7.56 g/m*3 30.7 C 0 km/h
1043 26-05-2007 16:36:02 30.6 C 7.2 g/m*3 30.6 C 0 km/h
1044 26-05-2007 16:48:02 31 C 8.64 g/m*3 31 C 0 km/h
1045 26-05-2007 17:00:02 30.8 C 8.55 g/m*3 30.8 C 0 km/h
1046 26-05-2007 17:12:02 31.3 C 7.48 g/m*3 31.3 C 0 km/h
1047 26-05-2007 17:24:02 31.3 C 7.15 g/m*3 31.3 C 0 km/h
1048 26-05-2007 17:36:03 31.7 C 6.98 g/m*3 31.7 C 0 km/h
1049 26-05-2007 17:48:02 32.1 C 7.47 g/m*3 32.1 C 0 km/h
1050 26-05-2007 18:00:02 31.8 C 8.35 g/m*3 31.8 C 0 km/h
Sensor: Nr:Datum:Temp:Abs-Feuchte:Windchill:Wind:
Aussen-T/F 1051 26-05-2007 18:12:02 31.7 C 8.31 g/m*3 31.7 C 0 km/h
1052 26-05-2007 18:24:02 31.4 C 8.5 g/m*3 31.4 C 0 km/h
1053 26-05-2007 18:36:01 30.4 C 9.3 g/m*3 30.4 C 0 km/h
1054 26-05-2007 18:48:02 28.6 C 10.12 g/m*3 28.6 C 0 km/h
1055 26-05-2007 19:00:02 27.2 C 10.67 g/m*3 27.2 C 0 km/h
1056 26-05-2007 19:12:02 26.9 C 10.75 g/m*3 26.9 C 0 km/h
1057 26-05-2007 19:24:02 25.9 C 10.89 g/m*3 25.9 C 0 km/h
1058 26-05-2007 19:36:02 25.4 C 10.83 g/m*3 25.4 C 0 km/h
1059 26-05-2007 19:48:02 24.9 C 10.99 g/m*3 24.9 C 0 km/h
1060 26-05-2007 20:00:02 24.6 C 11.03 g/m*3 24.6 C 0 km/h
1061 26-05-2007 20:13:11 24.2 C 11.22 g/m*3 24.2 C 0 km/h
1062 26-05-2007 20:25:11 17.2 C 7.03 g/m*3 17.2 C 0 km/h
1063 26-05-2007 20:37:12 15.7 C 11.64 g/m*3 15.7 C 0 km/h
1064 26-05-2007 20:49:12 15.9 C 12.19 g/m*3 15.9 C 0 km/h
1065 26-05-2007 21:01:12 16 C 12.26 g/m*3 16 C 0 km/h
1066 26-05-2007 21:13:12 16.2 C 12.55 g/m*3 16.2 C 0 km/h
1067 26-05-2007 21:25:12 16.2 C 12.69 g/m*3 16.2 C 0 km/h
1068 26-05-2007 21:37:12 16.2 C 12.69 g/m*3 16.2 C 0 km/h
1069 26-05-2007 21:49:12 15.8 C 12.52 g/m*3 15.8 C 0 km/h
1070 26-05-2007 22:01:12 15.8 C 12.52 g/m*3 15.8 C 0 km/h
1071 26-05-2007 22:13:12 15.5 C 12.29 g/m*3 15.5 C 0 km/h
1072 26-05-2007 22:25:12 15.8 C 12.65 g/m*3 15.8 C 0 km/h
1073 26-05-2007 22:37:12 15.6 C 12.5 g/m*3 15.6 C 0 km/h
1074 26-05-2007 22:49:12 15.8 C 12.65 g/m*3 15.8 C 0 km/h
1075 26-05-2007 23:01:12 15.9 C 12.73 g/m*3 15.9 C 0 km/h
Sensor: Nr:Datum:Temp:Abs-Feuchte:Windchill:Wind:
Aussen-T/F 1076 26-05-2007 23:13:12 15.8 C 12.65 g/m*3 15.8 C 0 km/h
1077 26-05-2007 23:25:12 15.9 C 12.73 g/m*3 15.9 C 0 km/h
1078 26-05-2007 23:37:12 16 C 12.67 g/m*3 16 C 0 km/h
1079 26-05-2007 23:49:12 16 C 12.67 g/m*3 16 C 0 km/h
1080 27-05-2007 00:01:13 15.6 C 12.23 g/m*3 15.6 C 0 km/h
1081 27-05-2007 00:13:13 15.4 C 12.09 g/m*3 15.4 C 0 km/h
1082 27-05-2007 00:25:13 15.4 C 12.09 g/m*3 15.4 C 0 km/h
1083 27-05-2007 00:37:13 15.3 C 11.88 g/m*3 15.3 C 0 km/h
1084 27-05-2007 00:49:13 15.1 C 11.74 g/m*3 15.1 C 0 km/h
1085 27-05-2007 01:01:13 15.1 C 11.74 g/m*3 15.1 C 0 km/h
1086 27-05-2007 01:13:13 15 C 11.67 g/m*3 15 C 0 km/h
1087 27-05-2007 01:25:13 15.1 C 11.74 g/m*3 15.1 C 0 km/h
1088 27-05-2007 01:37:13 15.5 C 12.16 g/m*3 15.5 C 0 km/h
1089 27-05-2007 01:49:13 15.4 C 11.96 g/m*3 15.4 C 0 km/h
1090 27-05-2007 02:01:13 15.4 C 11.96 g/m*3 15.4 C 0 km/h
1091 27-05-2007 02:13:13 15.2 C 11.81 g/m*3 15.2 C 0 km/h
1092 27-05-2007 02:25:13 15.2 C 11.68 g/m*3 15.2 C 0 km/h
1093 27-05-2007 02:37:13 15 C 11.54 g/m*3 15 C 0 km/h
1094 27-05-2007 02:49:13 14.8 C 11.53 g/m*3 14.8 C 0 km/h
1095 27-05-2007 03:01:13 14.7 C 11.46 g/m*3 14.7 C 0 km/h
1096 27-05-2007 03:13:13 14.7 C 11.46 g/m*3 14.7 C 0 km/h
1097 27-05-2007 03:25:14 14.6 C 11.39 g/m*3 14.6 C 0 km/h
1098 27-05-2007 03:37:14 14.5 C 11.32 g/m*3 14.5 C 0 km/h
1099 27-05-2007 03:49:14 14.4 C 11.25 g/m*3 14.4 C 0 km/h
1100 27-05-2007 04:01:14 14.4 C 11.37 g/m*3 14.4 C 0 km/h
Sensor: Nr:Datum:Temp:Abs-Feuchte:Windchill:Wind:
Aussen-T/F 1101 27-05-2007 04:13:14 14.5 C 11.44 g/m*3 14.5 C 0 km/h
1102 27-05-2007 04:25:14 14.5 C 11.44 g/m*3 14.5 C 0 km/h
1103 27-05-2007 04:37:14 14.5 C 11.44 g/m*3 14.5 C 0 km/h
1104 27-05-2007 04:49:14 14.5 C 11.44 g/m*3 14.5 C 0 km/h
1105 27-05-2007 05:01:14 14.6 C 11.51 g/m*3 14.6 C 0 km/h
1106 27-05-2007 05:13:14 14.7 C 11.71 g/m*3 14.7 C 0 km/h
1107 27-05-2007 05:25:14 14.7 C 11.58 g/m*3 14.7 C 0 km/h
1108 27-05-2007 05:37:14 14.8 C 11.65 g/m*3 14.8 C 0 km/h
1109 27-05-2007 05:49:14 14.8 C 11.65 g/m*3 14.8 C 0 km/h
1110 27-05-2007 06:01:14 14.9 C 11.85 g/m*3 14.9 C 0 km/h
1111 27-05-2007 06:13:14 14.9 C 11.73 g/m*3 14.9 C 0 km/h
1112 27-05-2007 06:25:14 15 C 11.8 g/m*3 15 C 0 km/h
1113 27-05-2007 06:37:14 15 C 11.8 g/m*3 15 C 0 km/h
1114 27-05-2007 06:49:15 15.2 C 11.94 g/m*3 15.2 C 0 km/h
1115 27-05-2007 07:01:15 15.2 C 11.94 g/m*3 15.2 C 0 km/h
1116 27-05-2007 07:13:15 15.3 C 12.01 g/m*3 15.3 C 0 km/h
1117 27-05-2007 07:25:15 15.4 C 12.09 g/m*3 15.4 C 0 km/h
1118 27-05-2007 07:37:15 15.6 C 12.23 g/m*3 15.6 C 0 km/h
1119 27-05-2007 07:49:15 15.8 C 12.38 g/m*3 15.8 C 0 km/h
1120 27-05-2007 08:01:15 16.2 C 12.55 g/m*3 16.2 C 0 km/h
1121 27-05-2007 08:13:15 16.5 C 12.78 g/m*3 16.5 C 0 km/h
1122 27-05-2007 08:25:15 16.8 C 12.87 g/m*3 16.8 C 0 km/h
1123 27-05-2007 08:37:01 17 C 12.59 g/m*3 17 C 0 km/h
1124 27-05-2007 08:49:02 17.5 C 12.97 g/m*3 17.5 C 0 km/h
1125 27-05-2007 09:01:01 17.7 C 12.98 g/m*3 17.7 C 0 km/h
Sensor: Nr:Datum:Temp:Abs-Feuchte:Windchill:Wind:
Aussen-T/F 1126 27-05-2007 09:13:01 18 C 12.9 g/m*3 18 C 0 km/h
1127 27-05-2007 09:25:01 18.6 C 13.05 g/m*3 18.6 C 0 km/h
1128 27-05-2007 09:37:02 19.3 C 12.44 g/m*3 19.3 C 0 km/h
1129 27-05-2007 09:49:03 19.5 C 12.08 g/m*3 19.5 C 0 km/h
1130 27-05-2007 10:01:03 19.5 C 11.58 g/m*3 19.5 C 0 km/h
1131 27-05-2007 10:13:03 20.3 C 11.08 g/m*3 20.3 C 0 km/h
1132 27-05-2007 10:25:03 21.6 C 11.19 g/m*3 21.6 C 0 km/h
1133 27-05-2007 10:37:04 21.4 C 10.69 g/m*3 21.4 C 0 km/h
1134 27-05-2007 10:49:02 20.8 C 10.14 g/m*3 20.8 C 0 km/h
1135 27-05-2007 11:01:02 20.4 C 10.26 g/m*3 20.4 C 0 km/h
1136 27-05-2007 11:13:02 19.8 C 10.25 g/m*3 19.8 C 0 km/h
1137 27-05-2007 11:25:02 18.8 C 10.31 g/m*3 18.8 C 0 km/h
1138 27-05-2007 11:37:02 19.7 C 10.87 g/m*3 19.7 C 0 km/h
1139 27-05-2007 11:49:02 19.6 C 10.13 g/m*3 19.6 C 0 km/h
1140 27-05-2007 12:01:02 20.4 C 10.26 g/m*3 20.4 C 0 km/h
1141 27-05-2007 12:13:02 20.3 C 10.02 g/m*3 20.3 C 0 km/h
1142 27-05-2007 12:25:02 20.7 C 10.08 g/m*3 20.7 C 0 km/h
1143 27-05-2007 12:37:02 19.9 C 10.14 g/m*3 19.9 C 0 km/h
1144 27-05-2007 12:49:02 19.6 C 9.96 g/m*3 19.6 C 0 km/h
1145 27-05-2007 13:01:02 18.7 C 9.93 g/m*3 18.7 C 0 km/h
1146 27-05-2007 13:13:02 18.2 C 10.1 g/m*3 18.2 C 0 km/h
1147 27-05-2007 13:25:02 19.9 C 9.62 g/m*3 19.9 C 0 km/h
1148 27-05-2007 13:37:03 19.6 C 9.12 g/m*3 19.6 C 0 km/h
1149 27-05-2007 13:49:02 19.9 C 9.45 g/m*3 19.9 C 0 km/h
1150 27-05-2007 14:01:02 19.4 C 9.18 g/m*3 19.4 C 0 km/h
Sensor: Nr:Datum:Temp:Abs-Feuchte:Windchill:Wind:
Aussen-T/F 1151 27-05-2007 14:13:02 19 C 9.13 g/m*3 19 C 0 km/h
1152 27-05-2007 14:25:02 18.4 C 8.97 g/m*3 18.4 C 0 km/h
1153 27-05-2007 14:37:02 18.4 C 8.65 g/m*3 18.4 C 0 km/h
1154 27-05-2007 14:49:03 19.1 C 8.52 g/m*3 19.1 C 0 km/h
1155 27-05-2007 15:01:02 20 C 8.3 g/m*3 20 C 0 km/h
1156 27-05-2007 15:13:02 19 C 7.66 g/m*3 19 C 0 km/h
1157 27-05-2007 15:25:02 19 C 7.82 g/m*3 19 C 0 km/h
1158 27-05-2007 15:37:03 19 C 7.33 g/m*3 19 C 0 km/h
1159 27-05-2007 15:49:02 18.6 C 7.32 g/m*3 18.6 C 0 km/h
1160 27-05-2007 16:01:03 19.5 C 7.05 g/m*3 19.5 C 0 km/h
1161 27-05-2007 16:13:03 20.5 C 6.76 g/m*3 20.5 C 0 km/h
1162 27-05-2007 16:25:02 21.2 C 6.86 g/m*3 21.2 C 0 km/h
1163 27-05-2007 16:37:02 20.8 C 6.7 g/m*3 20.8 C 0 km/h
1164 27-05-2007 16:49:02 20.8 C 6.52 g/m*3 20.8 C 0 km/h
1165 27-05-2007 17:01:01 20.2 C 6.29 g/m*3 20.2 C 0 km/h
1166 27-05-2007 17:13:01 21.4 C 6.37 g/m*3 21.4 C 0 km/h
1167 27-05-2007 17:25:01 20.8 C 6.34 g/m*3 20.8 C 0 km/h
1168 27-05-2007 17:37:02 20 C 6.57 g/m*3 20 C 0 km/h
1169 27-05-2007 17:49:02 19.7 C 6.45 g/m*3 19.7 C 0 km/h
1170 27-05-2007 18:01:03 19.1 C 6.23 g/m*3 19.1 C 0 km/h
1171 27-05-2007 18:13:03 19.2 C 6.27 g/m*3 19.2 C 0 km/h
1172 27-05-2007 18:25:02 19.8 C 6.15 g/m*3 19.8 C 0 km/h
1173 27-05-2007 18:37:02 20 C 5.7 g/m*3 20 C 0 km/h
1174 27-05-2007 18:49:02 20.4 C 6.01 g/m*3 20.4 C 0 km/h
1175 27-05-2007 19:01:02 20.2 C 5.77 g/m*3 20.2 C 0 km/h
Sensor: Nr:Datum:Temp:Abs-Feuchte:Windchill:Wind:
Aussen-T/F 1176 27-05-2007 19:13:02 20.5 C 6.05 g/m*3 20.5 C 0 km/h
1177 27-05-2007 19:25:01 20.8 C 5.79 g/m*3 20.8 C 0 km/h
1178 27-05-2007 19:37:02 20.8 C 5.79 g/m*3 20.8 C 0 km/h
1179 27-05-2007 19:49:01 21.3 C 5.96 g/m*3 21.3 C 0 km/h
1180 27-05-2007 20:01:02 20.4 C 5.66 g/m*3 20.4 C 0 km/h
1181 27-05-2007 20:13:02 19.8 C 5.81 g/m*3 19.8 C 0 km/h
1182 27-05-2007 20:25:02 20 C 6.05 g/m*3 20 C 0 km/h
1183 27-05-2007 20:37:01 18.9 C 6.48 g/m*3 18.9 C 0 km/h
1184 27-05-2007 20:49:02 18.2 C 6.68 g/m*3 18.2 C 0 km/h
1185 27-05-2007 21:01:01 17.5 C 6.71 g/m*3 17.5 C 0 km/h
1186 27-05-2007 21:13:01 16.8 C 6.72 g/m*3 16.8 C 0 km/h
1187 27-05-2007 21:25:01 16.2 C 6.62 g/m*3 16.2 C 0 km/h
1188 27-05-2007 21:37:02 15.8 C 6.87 g/m*3 15.8 C 0 km/h
1189 27-05-2007 21:49:02 15.5 C 6.74 g/m*3 15.5 C 0 km/h
1190 27-05-2007 22:01:02 15.3 C 6.66 g/m*3 15.3 C 0 km/h
1191 27-05-2007 22:13:02 15.3 C 7.05 g/m*3 15.3 C 0 km/h
1192 27-05-2007 22:25:02 15 C 7.31 g/m*3 15 C 0 km/h
1193 27-05-2007 22:37:02 14.9 C 7.26 g/m*3 14.9 C 0 km/h
1194 27-05-2007 22:49:02 14.7 C 7.3 g/m*3 14.7 C 0 km/h
1195 27-05-2007 23:01:03 14.6 C 7.26 g/m*3 14.6 C 0 km/h
1196 27-05-2007 23:13:03 14.8 C 7.35 g/m*3 14.8 C 0 km/h
1197 27-05-2007 23:25:02 14.9 C 7.65 g/m*3 14.9 C 0 km/h
1198 27-05-2007 23:37:02 15.1 C 7.74 g/m*3 15.1 C 0 km/h
1199 27-05-2007 23:49:02 15 C 7.69 g/m*3 15 C 0 km/h
1200 28-05-2007 00:01:02 15.1 C 7.61 g/m*3 15.1 C 0 km/h
Sensor: Nr:Datum:Temp:Abs-Feuchte:Windchill:Wind:
Aussen-T/F 1201 28-05-2007 00:13:02 14.9 C 7.77 g/m*3 14.9 C 0 km/h
1202 28-05-2007 00:25:02 15 C 7.82 g/m*3 15 C 0 km/h
1203 28-05-2007 00:37:02 14.8 C 7.85 g/m*3 14.8 C 0 km/h
1204 28-05-2007 00:49:03 15 C 7.82 g/m*3 15 C 0 km/h
1205 28-05-2007 01:01:02 14.9 C 8.03 g/m*3 14.9 C 0 km/h
1206 28-05-2007 01:13:02 15 C 7.95 g/m*3 15 C 0 km/h
1207 28-05-2007 01:25:03 14.9 C 7.65 g/m*3 14.9 C 0 km/h
1208 28-05-2007 01:37:03 14.9 C 7.65 g/m*3 14.9 C 0 km/h
1209 28-05-2007 01:49:02 14.9 C 8.16 g/m*3 14.9 C 0 km/h
1210 28-05-2007 02:01:03 14.8 C 8.23 g/m*3 14.8 C 0 km/h
1211 28-05-2007 02:13:03 14.3 C 8.11 g/m*3 14.3 C 0 km/h
1212 28-05-2007 02:25:03 14 C 8.44 g/m*3 14 C 0 km/h
1213 28-05-2007 02:37:02 14 C 8.32 g/m*3 14 C 0 km/h
1214 28-05-2007 02:49:02 14.1 C 8.13 g/m*3 14.1 C 0 km/h
1215 28-05-2007 03:01:02 14.2 C 8.06 g/m*3 14.2 C 0 km/h
1216 28-05-2007 03:13:02 14.2 C 7.94 g/m*3 14.2 C 0 km/h
1217 28-05-2007 03:25:02 14.2 C 7.94 g/m*3 14.2 C 0 km/h
1218 28-05-2007 03:37:02 14.1 C 7.89 g/m*3 14.1 C 0 km/h
1219 28-05-2007 03:49:02 14 C 7.96 g/m*3 14 C 0 km/h
1220 28-05-2007 04:01:02 14 C 8.08 g/m*3 14 C 0 km/h
1221 28-05-2007 04:13:02 13.9 C 8.03 g/m*3 13.9 C 0 km/h
1222 28-05-2007 04:25:02 13.9 C 8.03 g/m*3 13.9 C 0 km/h
1223 28-05-2007 04:37:02 13.9 C 8.15 g/m*3 13.9 C 0 km/h
1224 28-05-2007 04:49:01 13.7 C 7.93 g/m*3 13.7 C 0 km/h
1225 28-05-2007 05:01:01 13.7 C 7.82 g/m*3 13.7 C 0 km/h
Sensor: Nr:Datum:Temp:Abs-Feuchte:Windchill:Wind:
Aussen-T/F 1226 28-05-2007 05:13:01 13.6 C 7.77 g/m*3 13.6 C 0 km/h
1227 28-05-2007 05:25:02 13.5 C 7.72 g/m*3 13.5 C 0 km/h
1228 28-05-2007 05:37:02 13.5 C 7.72 g/m*3 13.5 C 0 km/h
1229 28-05-2007 05:49:01 13.5 C 7.72 g/m*3 13.5 C 0 km/h
1230 28-05-2007 06:01:02 13.5 C 7.84 g/m*3 13.5 C 0 km/h
1231 28-05-2007 06:13:02 13.4 C 7.9 g/m*3 13.4 C 0 km/h
1232 28-05-2007 06:25:02 13.5 C 8.07 g/m*3 13.5 C 0 km/h
1233 28-05-2007 06:37:01 13.5 C 7.95 g/m*3 13.5 C 0 km/h
1234 28-05-2007 06:49:02 13.5 C 8.19 g/m*3 13.5 C 0 km/h
1235 28-05-2007 07:01:01 13.4 C 8.25 g/m*3 13.4 C 0 km/h
1236 28-05-2007 07:13:01 13.4 C 8.25 g/m*3 13.4 C 0 km/h
1237 28-05-2007 07:25:01 13.4 C 8.37 g/m*3 13.4 C 0 km/h
1238 28-05-2007 07:37:02 13.2 C 8.5 g/m*3 13.2 C 0 km/h
1239 28-05-2007 07:49:01 13.2 C 8.5 g/m*3 13.2 C 0 km/h
1240 28-05-2007 08:01:02 13.2 C 8.27 g/m*3 13.2 C 0 km/h
1241 28-05-2007 08:13:02 13.2 C 8.15 g/m*3 13.2 C 0 km/h
1242 28-05-2007 08:25:02 13.1 C 7.99 g/m*3 13.1 C 0 km/h
1243 28-05-2007 08:37:01 12.9 C 8 g/m*3 12.9 C 0 km/h
1244 28-05-2007 08:49:01 12.9 C 8 g/m*3 12.9 C 0 km/h
1245 28-05-2007 09:01:01 12.6 C 8.19 g/m*3 12.6 C 0 km/h
1246 28-05-2007 09:13:01 12.5 C 8.25 g/m*3 12.5 C 0 km/h
1247 28-05-2007 09:25:01 12.6 C 8.19 g/m*3 12.6 C 0 km/h
1248 28-05-2007 09:37:02 12.6 C 7.85 g/m*3 12.6 C 0 km/h
1249 28-05-2007 09:49:02 12.5 C 7.81 g/m*3 12.5 C 0 km/h
1250 28-05-2007 10:01:02 11.5 C 7.75 g/m*3 11.5 C 0 km/h
Sensor: Nr:Datum:Temp:Abs-Feuchte:Windchill:Wind:
Aussen-T/F 1251 28-05-2007 10:13:02 11.2 C 8.11 g/m*3 11.2 C 0 km/h
1252 28-05-2007 10:25:01 11.1 C 8.16 g/m*3 11.1 C 0 km/h
1253 28-05-2007 10:37:02 11 C 8.11 g/m*3 11 C 0 km/h
1254 28-05-2007 10:49:01 11 C 8.11 g/m*3 11 C 0 km/h
1255 28-05-2007 11:01:01 11.1 C 8.26 g/m*3 11.1 C 0 km/h
1256 28-05-2007 11:13:01 11 C 8.31 g/m*3 11 C 0 km/h
1257 28-05-2007 11:25:02 11 C 8.41 g/m*3 11 C 0 km/h
1258 28-05-2007 11:37:01 11 C 8.51 g/m*3 11 C 0 km/h
1259 28-05-2007 11:49:02 10.8 C 8.5 g/m*3 10.8 C 0 km/h
1260 28-05-2007 12:01:01 10.6 C 8.39 g/m*3 10.6 C 0 km/h
1261 28-05-2007 12:13:01 10.7 C 8.45 g/m*3 10.7 C 0 km/h
1262 28-05-2007 12:25:01 10.9 C 8.55 g/m*3 10.9 C 0 km/h
1263 28-05-2007 12:37:02 10.9 C 8.55 g/m*3 10.9 C 0 km/h
1264 28-05-2007 12:49:02 11.4 C 8.72 g/m*3 11.4 C 0 km/h
1265 28-05-2007 13:01:02 11.3 C 8.57 g/m*3 11.3 C 0 km/h
1266 28-05-2007 13:13:02 11.5 C 8.68 g/m*3 11.5 C 0 km/h
1267 28-05-2007 13:25:01 11.7 C 8.79 g/m*3 11.7 C 0 km/h
1268 28-05-2007 13:37:01 11.7 C 8.58 g/m*3 11.7 C 0 km/h
1269 28-05-2007 13:49:02 11.8 C 8.42 g/m*3 11.8 C 0 km/h
1270 28-05-2007 14:01:01 11.8 C 8.42 g/m*3 11.8 C 0 km/h
1271 28-05-2007 14:13:01 11.9 C 8.58 g/m*3 11.9 C 0 km/h
1272 28-05-2007 14:25:01 11.8 C 8.63 g/m*3 11.8 C 0 km/h
1273 28-05-2007 14:37:02 11.7 C 8.68 g/m*3 11.7 C 0 km/h
1274 28-05-2007 14:49:01 11.9 C 9 g/m*3 11.9 C 0 km/h
1275 28-05-2007 15:01:01 11.8 C 9.05 g/m*3 11.8 C 0 km/h
Sensor: Nr:Datum:Temp:Abs-Feuchte:Windchill:Wind:
Aussen-T/F 1276 28-05-2007 15:13:01 11.8 C 9.05 g/m*3 11.8 C 0 km/h
1277 28-05-2007 15:25:02 11.5 C 8.99 g/m*3 11.5 C 0 km/h
1278 28-05-2007 15:37:01 11.3 C 8.98 g/m*3 11.3 C 0 km/h
1279 28-05-2007 15:49:02 11.3 C 8.98 g/m*3 11.3 C 0 km/h
1280 28-05-2007 16:01:01 11.1 C 8.86 g/m*3 11.1 C 0 km/h
1281 28-05-2007 16:13:02 11.1 C 8.86 g/m*3 11.1 C 0 km/h
1282 28-05-2007 16:25:01 11.4 C 9.03 g/m*3 11.4 C 0 km/h
1283 28-05-2007 16:37:02 11.3 C 8.87 g/m*3 11.3 C 0 km/h
1284 28-05-2007 16:49:02 11.4 C 8.93 g/m*3 11.4 C 0 km/h
1285 28-05-2007 17:01:02 11.5 C 8.99 g/m*3 11.5 C 0 km/h
1286 28-05-2007 17:13:02 11.4 C 8.93 g/m*3 11.4 C 0 km/h
1287 28-05-2007 17:25:01 11.4 C 8.83 g/m*3 11.4 C 0 km/h
1288 28-05-2007 17:37:01 11.3 C 8.87 g/m*3 11.3 C 0 km/h
1289 28-05-2007 17:49:01 11.2 C 8.82 g/m*3 11.2 C 0 km/h
1290 28-05-2007 18:01:01 11.3 C 8.98 g/m*3 11.3 C 0 km/h
1291 28-05-2007 18:13:01 11.2 C 8.92 g/m*3 11.2 C 0 km/h
1292 28-05-2007 18:25:02 11.2 C 8.92 g/m*3 11.2 C 0 km/h
1293 28-05-2007 18:37:02 11.4 C 9.14 g/m*3 11.4 C 0 km/h
1294 28-05-2007 18:49:02 11.6 C 9.15 g/m*3 11.6 C 0 km/h
1295 28-05-2007 19:01:01 11.5 C 9.09 g/m*3 11.5 C 0 km/h
1296 28-05-2007 19:13:01 11.5 C 9.09 g/m*3 11.5 C 0 km/h
1297 28-05-2007 19:25:02 11.4 C 9.03 g/m*3 11.4 C 0 km/h
1298 28-05-2007 19:37:02 11.2 C 9.02 g/m*3 11.2 C 0 km/h
1299 28-05-2007 19:49:02 11.2 C 9.02 g/m*3 11.2 C 0 km/h
1300 28-05-2007 20:01:02 11.1 C 8.96 g/m*3 11.1 C 0 km/h
Sensor: Nr:Datum:Temp:Abs-Feuchte:Windchill:Wind:
Aussen-T/F 1301 28-05-2007 20:13:02 11 C 8.91 g/m*3 11 C 0 km/h
1302 28-05-2007 20:25:02 10.9 C 8.95 g/m*3 10.9 C 0 km/h
1303 28-05-2007 20:37:01 10.8 C 8.9 g/m*3 10.8 C 0 km/h
1304 28-05-2007 20:49:02 10.8 C 8.9 g/m*3 10.8 C 0 km/h
1305 28-05-2007 21:01:01 10.7 C 8.84 g/m*3 10.7 C 0 km/h
1306 28-05-2007 21:13:01 10.7 C 8.84 g/m*3 10.7 C 0 km/h
1307 28-05-2007 21:25:01 10.7 C 8.84 g/m*3 10.7 C 0 km/h
1308 28-05-2007 21:37:02 10.6 C 8.78 g/m*3 10.6 C 0 km/h
1309 28-05-2007 21:49:01 10.5 C 8.73 g/m*3 10.5 C 0 km/h
1310 28-05-2007 22:01:02 10.4 C 8.77 g/m*3 10.4 C 0 km/h
1311 28-05-2007 22:13:02 10.3 C 8.71 g/m*3 10.3 C 0 km/h
1312 28-05-2007 22:25:02 10.4 C 8.77 g/m*3 10.4 C 0 km/h
1313 28-05-2007 22:37:01 10.5 C 8.83 g/m*3 10.5 C 0 km/h
1314 28-05-2007 22:49:02 10.6 C 8.88 g/m*3 10.6 C 0 km/h
1315 28-05-2007 23:01:01 10.6 C 8.88 g/m*3 10.6 C 0 km/h
1316 28-05-2007 23:13:01 10.6 C 8.88 g/m*3 10.6 C 0 km/h
1317 28-05-2007 23:25:01 10.5 C 8.83 g/m*3 10.5 C 0 km/h
1318 28-05-2007 23:37:02 10.5 C 8.73 g/m*3 10.5 C 0 km/h
1319 28-05-2007 23:49:01 10.5 C 8.73 g/m*3 10.5 C 0 km/h
1320 29-05-2007 00:01:01 10.5 C 8.63 g/m*3 10.5 C 0 km/h
1321 29-05-2007 00:13:01 10.5 C 8.63 g/m*3 10.5 C 0 km/h
1322 29-05-2007 00:25:02 10.4 C 8.58 g/m*3 10.4 C 0 km/h
1323 29-05-2007 00:37:02 10.3 C 8.62 g/m*3 10.3 C 0 km/h
1324 29-05-2007 00:49:02 10.3 C 8.62 g/m*3 10.3 C 0 km/h
1325 29-05-2007 01:01:02 10.3 C 8.62 g/m*3 10.3 C 0 km/h
Sensor: Nr:Datum:Temp:Abs-Feuchte:Windchill:Wind:
Aussen-T/F 1326 29-05-2007 01:13:02 10.2 C 8.66 g/m*3 10.2 C 0 km/h
1327 29-05-2007 01:25:02 10.2 C 8.66 g/m*3 10.2 C 0 km/h
1328 29-05-2007 01:37:02 10.2 C 8.66 g/m*3 10.2 C 0 km/h
1329 29-05-2007 01:49:02 10.2 C 8.76 g/m*3 10.2 C 0 km/h
1330 29-05-2007 02:01:01 10.1 C 8.7 g/m*3 10.1 C 0 km/h
1331 29-05-2007 02:13:01 10.1 C 8.7 g/m*3 10.1 C 0 km/h
1332 29-05-2007 02:25:01 10.1 C 8.7 g/m*3 10.1 C 0 km/h
1333 29-05-2007 02:37:01 10.2 C 8.85 g/m*3 10.2 C 0 km/h
1334 29-05-2007 02:50:05 10.2 C 8.85 g/m*3 10.2 C 0 km/h
1335 29-05-2007 03:02:05 10.2 C 8.85 g/m*3 10.2 C 0 km/h
1336 29-05-2007 03:14:06 10.1 C 8.79 g/m*3 10.1 C 0 km/h
1337 29-05-2007 03:26:06 10.2 C 8.85 g/m*3 10.2 C 0 km/h
1338 29-05-2007 03:38:03 10.2 C 8.85 g/m*3 10.2 C 0 km/h
1339 29-05-2007 03:50:03 10.2 C 8.85 g/m*3 10.2 C 0 km/h
1340 29-05-2007 04:02:02 10.2 C 8.95 g/m*3 10.2 C 0 km/h
1341 29-05-2007 04:14:02 10.2 C 8.95 g/m*3 10.2 C 0 km/h
1342 29-05-2007 04:26:02 10.2 C 8.95 g/m*3 10.2 C 0 km/h
1343 29-05-2007 04:38:02 10.1 C 8.89 g/m*3 10.1 C 0 km/h
1344 29-05-2007 04:50:02 10.2 C 8.95 g/m*3 10.2 C 0 km/h
1345 29-05-2007 05:02:01 10 C 8.83 g/m*3 10 C 0 km/h
1346 29-05-2007 05:14:01 10 C 8.83 g/m*3 10 C 0 km/h
1347 29-05-2007 05:26:02 10 C 8.83 g/m*3 10 C 0 km/h
1348 29-05-2007 05:38:01 9.9 C 8.87 g/m*3 9.9 C 0 km/h
1349 29-05-2007 05:50:03 9.9 C 8.78 g/m*3 9.9 C 0 km/h
1350 29-05-2007 06:02:02 9.9 C 8.78 g/m*3 9.9 C 0 km/h
Sensor: Nr:Datum:Temp:Abs-Feuchte:Windchill:Wind:
Aussen-T/F 1351 29-05-2007 06:14:02 9.9 C 8.78 g/m*3 9.9 C 0 km/h
1352 29-05-2007 06:26:02 9.8 C 8.72 g/m*3 9.8 C 0 km/h
1353 29-05-2007 06:38:02 9.8 C 8.72 g/m*3 9.8 C 0 km/h
1354 29-05-2007 06:50:02 9.8 C 8.63 g/m*3 9.8 C 0 km/h
1355 29-05-2007 07:02:02 9.8 C 8.63 g/m*3 9.8 C 0 km/h
1356 29-05-2007 07:14:02 10 C 8.64 g/m*3 10 C 0 km/h
1357 29-05-2007 07:26:02 10.2 C 8.76 g/m*3 10.2 C 0 km/h
1358 29-05-2007 07:38:02 10.2 C 8.66 g/m*3 10.2 C 0 km/h
1359 29-05-2007 07:50:03 10.3 C 8.62 g/m*3 10.3 C 0 km/h
1360 29-05-2007 08:02:02 10.3 C 8.62 g/m*3 10.3 C 0 km/h
1361 29-05-2007 08:14:02 10.4 C 8.77 g/m*3 10.4 C 0 km/h
1362 29-05-2007 08:26:02 10.6 C 8.78 g/m*3 10.6 C 0 km/h
1363 29-05-2007 08:38:03 10.6 C 8.88 g/m*3 10.6 C 0 km/h
1364 29-05-2007 08:50:02 10.7 C 8.94 g/m*3 10.7 C 0 km/h
1365 29-05-2007 09:02:02 10.9 C 9.05 g/m*3 10.9 C 0 km/h
1366 29-05-2007 09:14:02 11.1 C 9.07 g/m*3 11.1 C 0 km/h
1367 29-05-2007 09:26:02 11.4 C 9.34 g/m*3 11.4 C 0 km/h
1368 29-05-2007 09:38:02 11.6 C 9.35 g/m*3 11.6 C 0 km/h
1369 29-05-2007 09:50:03 11.8 C 9.47 g/m*3 11.8 C 0 km/h
1370 29-05-2007 10:02:02 11.9 C 9.32 g/m*3 11.9 C 0 km/h
1371 29-05-2007 10:14:02 11.7 C 8.99 g/m*3 11.7 C 0 km/h
1372 29-05-2007 10:26:02 11.6 C 8.94 g/m*3 11.6 C 0 km/h
1373 29-05-2007 10:38:02 11.7 C 8.79 g/m*3 11.7 C 0 km/h
1374 29-05-2007 10:50:02 11.8 C 8.74 g/m*3 11.8 C 0 km/h
1375 29-05-2007 11:02:01 12.1 C 8.79 g/m*3 12.1 C 0 km/h
Sensor: Nr:Datum:Temp:Abs-Feuchte:Windchill:Wind:
Aussen-T/F 1376 29-05-2007 11:14:01 12.2 C 8.63 g/m*3 12.2 C 0 km/h
1377 29-05-2007 11:26:01 12.1 C 8.04 g/m*3 12.1 C 0 km/h
1378 29-05-2007 11:38:02 11.7 C 7.95 g/m*3 11.7 C 0 km/h
1379 29-05-2007 11:50:02 11.7 C 7.95 g/m*3 11.7 C 0 km/h
1380 29-05-2007 12:02:02 11.6 C 7.8 g/m*3 11.6 C 0 km/h
1381 29-05-2007 12:14:02 11.3 C 7.75 g/m*3 11.3 C 0 km/h
1382 29-05-2007 12:26:02 11.4 C 7.9 g/m*3 11.4 C 0 km/h
1383 29-05-2007 12:38:02 11.4 C 8.01 g/m*3 11.4 C 0 km/h
1384 29-05-2007 12:50:02 11.5 C 7.95 g/m*3 11.5 C 0 km/h
1385 29-05-2007 13:02:02 11.4 C 8.01 g/m*3 11.4 C 0 km/h
1386 29-05-2007 13:14:02 11 C 8.21 g/m*3 11 C 0 km/h
1387 29-05-2007 13:26:03 11.2 C 8.41 g/m*3 11.2 C 0 km/h
1388 29-05-2007 13:38:02 11.4 C 8.31 g/m*3 11.4 C 0 km/h
1389 29-05-2007 13:50:02 11.7 C 8.37 g/m*3 11.7 C 0 km/h
1390 29-05-2007 14:11:02 11.4 C 8.11 g/m*3 11.4 C 0 km/h
1391 29-05-2007 14:31:02 11.1 C 8.06 g/m*3 11.1 C 0 km/h
1392 29-05-2007 14:51:02 11.1 C 7.76 g/m*3 11.1 C 0 km/h
1393 29-05-2007 15:11:03 11.3 C 7.75 g/m*3 11.3 C 0 km/h
1394 29-05-2007 15:31:02 11.8 C 7.79 g/m*3 11.8 C 0 km/h
1395 29-05-2007 15:51:02 12.6 C 7.41 g/m*3 12.6 C 0 km/h
1396 29-05-2007 16:11:02 12.1 C 7.08 g/m*3 12.1 C 0 km/h
1397 29-05-2007 16:31:02 12.3 C 6.73 g/m*3 12.3 C 0 km/h
1398 29-05-2007 16:51:02 12.2 C 6.47 g/m*3 12.2 C 0 km/h
1399 29-05-2007 17:11:02 12.5 C 5.94 g/m*3 12.5 C 0 km/h
1400 29-05-2007 17:31:02 12.7 C 6.23 g/m*3 12.7 C 0 km/h
Sensor: Nr:Datum:Temp:Abs-Feuchte:Windchill:Wind:
Aussen-T/F 1401 29-05-2007 17:51:02 12.7 C 5.79 g/m*3 12.7 C 0 km/h
1402 29-05-2007 18:11:03 13 C 5.67 g/m*3 13 C 0 km/h
1403 29-05-2007 18:31:02 13 C 5.44 g/m*3 13 C 0 km/h
1404 29-05-2007 18:51:02 13.5 C 5.38 g/m*3 13.5 C 0 km/h
1405 29-05-2007 19:11:02 13.7 C 5.33 g/m*3 13.7 C 0 km/h
1406 29-05-2007 19:31:02 13.3 C 5.2 g/m*3 13.3 C 0 km/h
1407 29-05-2007 19:51:02 13 C 5.1 g/m*3 13 C 0 km/h
1408 29-05-2007 20:11:02 12.9 C 5.3 g/m*3 12.9 C 0 km/h
1409 29-05-2007 20:31:02 13.4 C 4.88 g/m*3 13.4 C 0 km/h
1410 29-05-2007 20:51:02 13.1 C 4.79 g/m*3 13.1 C 0 km/h
1411 29-05-2007 21:11:03 12.4 C 4.92 g/m*3 12.4 C 0 km/h
1412 29-05-2007 21:31:03 12 C 4.8 g/m*3 12 C 0 km/h
1413 29-05-2007 21:51:02 11.2 C 4.87 g/m*3 11.2 C 0 km/h
1414 29-05-2007 22:11:02 10.7 C 5.11 g/m*3 10.7 C 0 km/h
1415 29-05-2007 22:31:02 10.1 C 5.2 g/m*3 10.1 C 0 km/h
1416 29-05-2007 22:51:02 9.9 C 5.32 g/m*3 9.9 C 0 km/h
1417 29-05-2007 23:11:02 9.7 C 5.35 g/m*3 9.7 C 0 km/h
1418 29-05-2007 23:31:02 9.1 C 5.41 g/m*3 9.1 C 0 km/h
1419 29-05-2007 23:51:02 8.6 C 5.59 g/m*3 8.6 C 0 km/h
1420 30-05-2007 00:11:02 8.5 C 5.46 g/m*3 8.5 C 0 km/h
1421 30-05-2007 00:31:02 8.3 C 5.48 g/m*3 8.3 C 0 km/h
1422 30-05-2007 00:51:02 7.9 C 5.83 g/m*3 7.9 C 0 km/h
1423 30-05-2007 01:11:02 7.7 C 5.92 g/m*3 7.7 C 0 km/h
1424 30-05-2007 01:31:02 7.3 C 6 g/m*3 7.3 C 0 km/h
1425 30-05-2007 01:51:02 7 C 6.04 g/m*3 7 C 0 km/h
Sensor: Nr:Datum:Temp:Abs-Feuchte:Windchill:Wind:
Aussen-T/F 1426 30-05-2007 02:11:02 6.7 C 6.08 g/m*3 6.7 C 0 km/h
1427 30-05-2007 02:31:02 6.4 C 6.11 g/m*3 6.4 C 0 km/h
1428 30-05-2007 02:52:03 6.2 C 6.18 g/m*3 6.2 C 0 km/h
1429 30-05-2007 03:12:04 5.9 C 6.2 g/m*3 5.9 C 0 km/h
1430 30-05-2007 03:32:02 5.5 C 6.04 g/m*3 5.5 C 0 km/h
1431 30-05-2007 03:52:02 5.1 C 5.95 g/m*3 5.1 C 0 km/h
1432 30-05-2007 04:12:01 4.7 C 5.86 g/m*3 4.7 C 0 km/h
1433 30-05-2007 04:32:02 4.5 C 5.78 g/m*3 4.5 C 0 km/h
1434 30-05-2007 04:52:02 4.1 C 5.63 g/m*3 4.1 C 0 km/h
1435 30-05-2007 05:12:02 4 C 5.59 g/m*3 4 C 0 km/h
1436 30-05-2007 05:32:02 3.7 C 5.55 g/m*3 3.7 C 0 km/h
1437 30-05-2007 05:52:02 3.9 C 5.68 g/m*3 3.9 C 0 km/h
1438 30-05-2007 06:12:02 3.8 C 5.65 g/m*3 3.8 C 0 km/h
1439 30-05-2007 06:44:00 4.2 C 5.8 g/m*3 4.2 C 0 km/h
1440 30-05-2007 07:04:00 4.6 C 5.96 g/m*3 4.6 C 0 km/h
1441 30-05-2007 07:24:00 4.9 C 6.01 g/m*3 4.9 C 0 km/h
1442 30-05-2007 07:44:00 5.4 C 6.07 g/m*3 5.4 C 0 km/h
1443 30-05-2007 08:04:00 5.8 C 6.09 g/m*3 5.8 C 0 km/h
1444 30-05-2007 08:24:00 6.1 C 6.14 g/m*3 6.1 C 0 km/h
1445 30-05-2007 08:44:00 6.8 C 6.19 g/m*3 6.8 C 0 km/h
1446 30-05-2007 09:04:00 7.7 C 6.41 g/m*3 7.7 C 0 km/h
1447 30-05-2007 09:24:00 8.8 C 6.79 g/m*3 8.8 C 0 km/h
1448 30-05-2007 09:44:00 10.4 C 6.94 g/m*3 10.4 C 0 km/h
1449 30-05-2007 10:04:00 11.7 C 7.01 g/m*3 11.7 C 0 km/h
1450 30-05-2007 10:24:00 13 C 6.24 g/m*3 13 C 0 km/h
Sensor: Nr:Datum:Temp:Abs-Feuchte:Windchill:Wind:
Aussen-T/F 1451 30-05-2007 10:44:00 13.8 C 5.36 g/m*3 13.8 C 0 km/h
1452 30-05-2007 11:04:00 14.4 C 5.19 g/m*3 14.4 C 0 km/h
1453 30-05-2007 11:24:00 15.2 C 5.06 g/m*3 15.2 C 0 km/h
1454 30-05-2007 11:44:01 16 C 4.77 g/m*3 16 C 0 km/h
1455 30-05-2007 12:04:01 16.8 C 4.58 g/m*3 16.8 C 0 km/h
1456 30-05-2007 12:24:01 17.4 C 4.15 g/m*3 17.4 C 0 km/h
1457 30-05-2007 12:44:01 17.8 C 3.95 g/m*3 17.8 C 0 km/h
1458 30-05-2007 13:04:01 18.3 C 4.07 g/m*3 18.3 C 0 km/h
1459 30-05-2007 13:24:01 20.1 C 4.17 g/m*3 20.1 C 0 km/h
1460 30-05-2007 13:44:01 20.9 C 4.37 g/m*3 20.9 C 0 km/h
1461 30-05-2007 14:04:01 19.9 C 3.61 g/m*3 19.9 C 0 km/h
1462 30-05-2007 14:24:01 19.7 C 4.58 g/m*3 19.7 C 0 km/h
1463 30-05-2007 14:44:01 19.7 C 4.42 g/m*3 19.7 C 0 km/h
1464 30-05-2007 15:04:01 20.5 C 4.45 g/m*3 20.5 C 0 km/h
1465 30-05-2007 15:24:01 20.3 C 4.4 g/m*3 20.3 C 0 km/h
1466 30-05-2007 15:44:01 22.1 C 4.1 g/m*3 22.1 C 0 km/h
1467 30-05-2007 16:04:01 22.2 C 3.93 g/m*3 22.2 C 0 km/h
1468 30-05-2007 16:24:01 23.8 C 4.3 g/m*3 23.8 C 0 km/h
1469 30-05-2007 16:44:01 24.2 C 4.4 g/m*3 24.2 C 0 km/h
1470 30-05-2007 17:04:01 22 C 3.88 g/m*3 22 C 0 km/h
1471 30-05-2007 17:24:01 24.1 C 4.38 g/m*3 24.1 C 0 km/h
1472 30-05-2007 17:44:01 22.9 C 4.29 g/m*3 22.9 C 0 km/h
1473 30-05-2007 18:04:02 22.2 C 4.91 g/m*3 22.2 C 0 km/h
1474 30-05-2007 18:24:02 22.5 C 4.59 g/m*3 22.5 C 0 km/h
1475 30-05-2007 18:44:02 22.3 C 4.74 g/m*3 22.3 C 0 km/h
Sensor: Nr:Datum:Temp:Abs-Feuchte:Windchill:Wind:
Aussen-T/F 1476 30-05-2007 19:04:02 21 C 4.76 g/m*3 21 C 0 km/h
1477 30-05-2007 19:24:02 21 C 4.76 g/m*3 21 C 0 km/h
1478 30-05-2007 19:44:02 21.6 C 5.5 g/m*3 21.6 C 0 km/h
1479 30-05-2007 20:04:02 21.4 C 5.81 g/m*3 21.4 C 0 km/h
1480 30-05-2007 20:24:02 19.9 C 5.84 g/m*3 19.9 C 0 km/h
1481 30-05-2007 20:44:02 19 C 6.68 g/m*3 19 C 0 km/h
1482 30-05-2007 21:04:02 18.1 C 6.64 g/m*3 18.1 C 0 km/h
1483 30-05-2007 21:24:02 17.2 C 6.3 g/m*3 17.2 C 0 km/h
1484 30-05-2007 21:44:02 16.9 C 6.47 g/m*3 16.9 C 0 km/h
1485 30-05-2007 22:04:02 16.6 C 6.5 g/m*3 16.6 C 0 km/h
1486 30-05-2007 22:24:02 16.3 C 6.38 g/m*3 16.3 C 0 km/h
1487 30-05-2007 22:44:02 15.8 C 6.6 g/m*3 15.8 C 0 km/h
1488 30-05-2007 23:04:02 15.6 C 6.65 g/m*3 15.6 C 0 km/h
1489 30-05-2007 23:24:02 15.4 C 6.57 g/m*3 15.4 C 0 km/h
1490 30-05-2007 23:44:02 15.4 C 6.57 g/m*3 15.4 C 0 km/h
1491 31-05-2007 00:04:03 15.3 C 6.53 g/m*3 15.3 C 0 km/h
1492 31-05-2007 00:24:03 15.2 C 6.75 g/m*3 15.2 C 0 km/h
1493 31-05-2007 00:44:03 15.1 C 6.58 g/m*3 15.1 C 0 km/h
1494 31-05-2007 01:04:03 14.9 C 6.5 g/m*3 14.9 C 0 km/h
1495 31-05-2007 01:24:03 14.3 C 7.25 g/m*3 14.3 C 0 km/h
1496 31-05-2007 01:44:03 14.2 C 6.35 g/m*3 14.2 C 0 km/h
1497 31-05-2007 02:04:03 13.9 C 6.47 g/m*3 13.9 C 0 km/h
1498 31-05-2007 02:24:03 13.9 C 6.59 g/m*3 13.9 C 0 km/h
1499 31-05-2007 02:44:03 13.7 C 6.63 g/m*3 13.7 C 0 km/h
1500 31-05-2007 03:04:03 13.6 C 6.71 g/m*3 13.6 C 0 km/h
Sensor: Nr:Datum:Temp:Abs-Feuchte:Windchill:Wind:
Aussen-T/F 1501 31-05-2007 03:24:03 13.6 C 6.83 g/m*3 13.6 C 0 km/h
1502 31-05-2007 03:44:03 13.7 C 7.1 g/m*3 13.7 C 0 km/h
1503 31-05-2007 04:04:03 13.7 C 7.1 g/m*3 13.7 C 0 km/h
1504 31-05-2007 04:24:03 13.7 C 7.34 g/m*3 13.7 C 0 km/h
1505 31-05-2007 04:44:03 13.4 C 7.09 g/m*3 13.4 C 0 km/h
1506 31-05-2007 05:04:03 13.4 C 7.21 g/m*3 13.4 C 0 km/h
1507 31-05-2007 05:24:03 13.2 C 7 g/m*3 13.2 C 0 km/h
1508 31-05-2007 05:44:03 13.1 C 6.85 g/m*3 13.1 C 0 km/h
1509 31-05-2007 06:04:03 13 C 7.26 g/m*3 13 C 0 km/h
1510 31-05-2007 06:24:04 12.8 C 7.5 g/m*3 12.8 C 0 km/h
1511 31-05-2007 06:44:04 12.1 C 7.94 g/m*3 12.1 C 0 km/h
1512 31-05-2007 07:04:04 11.8 C 8.21 g/m*3 11.8 C 0 km/h
1513 31-05-2007 07:24:04 11.5 C 8.37 g/m*3 11.5 C 0 km/h
1514 31-05-2007 07:44:04 11.8 C 8.74 g/m*3 11.8 C 0 km/h
1515 31-05-2007 08:04:04 12.3 C 8.9 g/m*3 12.3 C 0 km/h
1516 31-05-2007 08:24:04 12.6 C 9.07 g/m*3 12.6 C 0 km/h
1517 31-05-2007 08:44:04 13.1 C 8.79 g/m*3 13.1 C 0 km/h
1518 31-05-2007 09:04:04 13 C 9.07 g/m*3 13 C 0 km/h
1519 31-05-2007 09:24:04 13.1 C 9.24 g/m*3 13.1 C 0 km/h
1520 31-05-2007 09:44:04 13 C 9.3 g/m*3 13 C 0 km/h
1521 31-05-2007 10:04:04 13 C 9.19 g/m*3 13 C 0 km/h
1522 31-05-2007 10:24:04 13.4 C 9.18 g/m*3 13.4 C 0 km/h
1523 31-05-2007 10:44:04 14.3 C 9.34 g/m*3 14.3 C 0 km/h
1524 31-05-2007 11:04:04 14.6 C 9.26 g/m*3 14.6 C 0 km/h
1525 31-05-2007 11:24:04 16.1 C 9.46 g/m*3 16.1 C 0 km/h
Sensor: Nr:Datum:Temp:Abs-Feuchte:Windchill:Wind:
Aussen-T/F 1526 31-05-2007 11:44:04 15.9 C 8.67 g/m*3 15.9 C 0 km/h
1527 31-05-2007 12:04:04 15.6 C 9.31 g/m*3 15.6 C 0 km/h
1528 31-05-2007 12:24:04 15.9 C 8.8 g/m*3 15.9 C 0 km/h
1529 31-05-2007 12:44:05 18.1 C 8.96 g/m*3 18.1 C 0 km/h
1530 31-05-2007 13:04:05 18.8 C 9.02 g/m*3 18.8 C 0 km/h
1531 31-05-2007 13:24:05 19.7 C 8.83 g/m*3 19.7 C 0 km/h
1532 31-05-2007 13:44:05 19.6 C 8.61 g/m*3 19.6 C 0 km/h
1533 31-05-2007 14:04:05 19.4 C 8.51 g/m*3 19.4 C 0 km/h
1534 31-05-2007 14:24:05 19.5 C 8.73 g/m*3 19.5 C 0 km/h
1535 31-05-2007 14:44:05 20.6 C 8.95 g/m*3 20.6 C 0 km/h
1536 31-05-2007 15:04:05 20.9 C 8.2 g/m*3 20.9 C 0 km/h
1537 31-05-2007 15:24:05 21.3 C 8.2 g/m*3 21.3 C 0 km/h
1538 31-05-2007 15:44:05 20.2 C 9.27 g/m*3 20.2 C 0 km/h
1539 31-05-2007 16:04:05 22.1 C 8.39 g/m*3 22.1 C 0 km/h
1540 31-05-2007 16:24:05 21.7 C 7.63 g/m*3 21.7 C 0 km/h
1541 31-05-2007 16:44:05 21 C 8.06 g/m*3 21 C 0 km/h
1542 31-05-2007 17:04:05 19.1 C 7.54 g/m*3 19.1 C 0 km/h
1543 31-05-2007 17:24:05 16.7 C 8.24 g/m*3 16.7 C 0 km/h
1544 31-05-2007 17:44:05 17.1 C 8.3 g/m*3 17.1 C 0 km/h
1545 31-05-2007 18:04:05 17.8 C 8.35 g/m*3 17.8 C 0 km/h
1546 31-05-2007 18:24:05 20.5 C 8.19 g/m*3 20.5 C 0 km/h
1547 31-05-2007 18:44:05 19.7 C 7.98 g/m*3 19.7 C 0 km/h
1548 31-05-2007 19:04:06 19.8 C 8.03 g/m*3 19.8 C 0 km/h
1549 31-05-2007 19:24:06 19.6 C 8.78 g/m*3 19.6 C 0 km/h
1550 31-05-2007 19:44:06 20.8 C 8.51 g/m*3 20.8 C 0 km/h
Sensor: Nr:Datum:Temp:Abs-Feuchte:Windchill:Wind:
Aussen-T/F 1551 31-05-2007 20:04:06 21.5 C 8.49 g/m*3 21.5 C 0 km/h
1552 31-05-2007 20:24:06 20.3 C 8.09 g/m*3 20.3 C 0 km/h
1553 31-05-2007 20:44:06 19.7 C 8.32 g/m*3 19.7 C 0 km/h
1554 31-05-2007 21:04:06 19 C 8.15 g/m*3 19 C 0 km/h
1555 31-05-2007 21:24:06 17.8 C 8.8 g/m*3 17.8 C 0 km/h
1556 31-05-2007 21:44:06 16.3 C 8.6 g/m*3 16.3 C 0 km/h
1557 31-05-2007 22:04:06 15.6 C 8.78 g/m*3 15.6 C 0 km/h
1558 31-05-2007 22:24:06 15.1 C 8.64 g/m*3 15.1 C 0 km/h
1559 31-05-2007 22:44:06 14.3 C 8.72 g/m*3 14.3 C 0 km/h
1560 31-05-2007 23:04:06 14.1 C 8.86 g/m*3 14.1 C 0 km/h
1561 31-05-2007 23:24:06 13.7 C 8.88 g/m*3 13.7 C 0 km/h
1562 31-05-2007 23:44:06 13.5 C 8.77 g/m*3 13.5 C 0 km/h
1563 01-06-2007 00:04:06 13.3 C 8.78 g/m*3 13.3 C 0 km/h
1564 01-06-2007 00:24:06 13.3 C 8.9 g/m*3 13.3 C 0 km/h
1565 01-06-2007 00:44:06 12.9 C 8.9 g/m*3 12.9 C 0 km/h
1566 01-06-2007 01:04:06 13 C 8.96 g/m*3 13 C 0 km/h
1567 01-06-2007 01:24:07 12.9 C 9.13 g/m*3 12.9 C 0 km/h
1568 01-06-2007 01:44:07 12.8 C 9.07 g/m*3 12.8 C 0 km/h
1569 01-06-2007 02:04:07 12.5 C 8.91 g/m*3 12.5 C 0 km/h
1570 01-06-2007 02:24:07 12.3 C 8.9 g/m*3 12.3 C 0 km/h
1571 01-06-2007 02:44:07 12.4 C 8.96 g/m*3 12.4 C 0 km/h
1572 01-06-2007 03:04:07 12.2 C 8.85 g/m*3 12.2 C 0 km/h
1573 01-06-2007 03:24:07 11.9 C 8.79 g/m*3 11.9 C 0 km/h
1574 01-06-2007 03:44:07 11.8 C 8.84 g/m*3 11.8 C 0 km/h
1575 01-06-2007 04:04:07 11.6 C 8.73 g/m*3 11.6 C 0 km/h
Sensor: Nr:Datum:Temp:Abs-Feuchte:Windchill:Wind:
Aussen-T/F 1576 01-06-2007 04:24:07 11.3 C 8.67 g/m*3 11.3 C 0 km/h
1577 01-06-2007 04:44:07 11.1 C 8.56 g/m*3 11.1 C 0 km/h
1578 01-06-2007 05:04:07 11.3 C 8.77 g/m*3 11.3 C 0 km/h
1579 01-06-2007 05:24:07 11.3 C 8.77 g/m*3 11.3 C 0 km/h
1580 01-06-2007 05:44:07 11.5 C 8.88 g/m*3 11.5 C 0 km/h
1581 01-06-2007 06:04:07 11.7 C 8.99 g/m*3 11.7 C 0 km/h
1582 01-06-2007 06:24:07 11.7 C 8.99 g/m*3 11.7 C 0 km/h
1583 01-06-2007 06:44:07 11.7 C 9.1 g/m*3 11.7 C 0 km/h
1584 01-06-2007 07:04:07 12.2 C 9.17 g/m*3 12.2 C 0 km/h
1585 01-06-2007 07:24:07 12.8 C 9.41 g/m*3 12.8 C 0 km/h
1586 01-06-2007 07:44:08 13 C 9.3 g/m*3 13 C 0 km/h
1587 01-06-2007 08:04:08 12.9 C 9.24 g/m*3 12.9 C 0 km/h
1588 01-06-2007 08:24:08 12.4 C 9.29 g/m*3 12.4 C 0 km/h
1589 01-06-2007 08:44:08 13.1 C 9.93 g/m*3 13.1 C 0 km/h
1590 01-06-2007 09:04:08 13.5 C 9.71 g/m*3 13.5 C 0 km/h
1591 01-06-2007 09:24:08 14.8 C 10.01 g/m*3 14.8 C 0 km/h
1592 01-06-2007 09:44:08 16 C 9.95 g/m*3 16 C 0 km/h
1593 01-06-2007 10:04:08 16.4 C 9.77 g/m*3 16.4 C 0 km/h
1594 01-06-2007 10:24:08 16.8 C 9.72 g/m*3 16.8 C 0 km/h
1595 01-06-2007 10:44:08 17.1 C 9.32 g/m*3 17.1 C 0 km/h
1596 01-06-2007 11:04:08 17.7 C 9.2 g/m*3 17.7 C 0 km/h
1597 01-06-2007 11:24:08 17.1 C 8.88 g/m*3 17.1 C 0 km/h
1598 01-06-2007 11:44:08 16.7 C 9.52 g/m*3 16.7 C 0 km/h
1599 01-06-2007 12:04:08 16.2 C 9.52 g/m*3 16.2 C 0 km/h
1600 01-06-2007 12:24:08 16 C 9.26 g/m*3 16 C 0 km/h
Sensor: Nr:Datum:Temp:Abs-Feuchte:Windchill:Wind:
Aussen-T/F 1601 01-06-2007 12:44:08 16.9 C 9.49 g/m*3 16.9 C 0 km/h
1602 01-06-2007 13:04:08 17.3 C 9.87 g/m*3 17.3 C 0 km/h
1603 01-06-2007 13:24:08 17.2 C 9.52 g/m*3 17.2 C 0 km/h
1604 01-06-2007 13:44:08 16.2 C 10.2 g/m*3 16.2 C 0 km/h
1605 01-06-2007 14:04:08 16.4 C 10.89 g/m*3 16.4 C 0 km/h
1606 01-06-2007 14:24:09 17.3 C 10.75 g/m*3 17.3 C 0 km/h
1607 01-06-2007 14:44:09 18 C 10.14 g/m*3 18 C 0 km/h
1608 01-06-2007 15:04:09 18.6 C 9.55 g/m*3 18.6 C 0 km/h
1609 01-06-2007 15:24:09 19.4 C 8.18 g/m*3 19.4 C 0 km/h
1610 01-06-2007 15:44:09 20.3 C 8.97 g/m*3 20.3 C 0 km/h
1611 01-06-2007 16:04:09 20.4 C 8.67 g/m*3 20.4 C 0 km/h
1612 01-06-2007 16:24:09 20.2 C 8.57 g/m*3 20.2 C 0 km/h
1613 01-06-2007 16:44:09 20.4 C 8.49 g/m*3 20.4 C 0 km/h
1614 01-06-2007 17:04:09 20.6 C 8.95 g/m*3 20.6 C 0 km/h
1615 01-06-2007 17:24:09 19.5 C 8.89 g/m*3 19.5 C 0 km/h
1616 01-06-2007 17:44:09 19.5 C 9.23 g/m*3 19.5 C 0 km/h
1617 01-06-2007 18:04:09 18.6 C 9.23 g/m*3 18.6 C 0 km/h
1618 01-06-2007 18:24:09 18.5 C 9.33 g/m*3 18.5 C 0 km/h
1619 01-06-2007 18:44:09 18.5 C 9.33 g/m*3 18.5 C 0 km/h
1620 01-06-2007 19:04:09 18.4 C 9.91 g/m*3 18.4 C 0 km/h
1621 01-06-2007 19:24:09 18 C 10.14 g/m*3 18 C 0 km/h
1622 01-06-2007 19:44:09 17.7 C 10.56 g/m*3 17.7 C 0 km/h
1623 01-06-2007 20:04:09 17.7 C 10.71 g/m*3 17.7 C 0 km/h
1624 01-06-2007 20:24:10 17.4 C 10.82 g/m*3 17.4 C 0 km/h
1625 01-06-2007 20:44:10 16.9 C 11.22 g/m*3 16.9 C 0 km/h
Sensor: Nr:Datum:Temp:Abs-Feuchte:Windchill:Wind:
Aussen-T/F 1626 01-06-2007 21:04:10 16.7 C 10.94 g/m*3 16.7 C 0 km/h
1627 01-06-2007 21:24:10 16.6 C 10.74 g/m*3 16.6 C 0 km/h
1628 01-06-2007 21:44:10 16.4 C 10.47 g/m*3 16.4 C 0 km/h
1629 01-06-2007 22:04:10 16.2 C 10.34 g/m*3 16.2 C 0 km/h
1630 01-06-2007 22:24:10 16.1 C 10.01 g/m*3 16.1 C 0 km/h
1631 01-06-2007 22:44:10 15.6 C 9.84 g/m*3 15.6 C 0 km/h
1632 01-06-2007 23:04:10 15 C 9.62 g/m*3 15 C 0 km/h
1633 01-06-2007 23:24:10 14.5 C 9.58 g/m*3 14.5 C 0 km/h
1634 01-06-2007 23:44:10 14.3 C 9.58 g/m*3 14.3 C 0 km/h
1635 02-06-2007 00:04:10 14 C 9.53 g/m*3 14 C 0 km/h
1636 02-06-2007 00:24:10 13.8 C 9.77 g/m*3 13.8 C 0 km/h
1637 02-06-2007 00:44:10 13.5 C 9.59 g/m*3 13.5 C 0 km/h
1638 02-06-2007 01:04:10 13.4 C 9.76 g/m*3 13.4 C 0 km/h
1639 02-06-2007 01:24:10 13.1 C 9.59 g/m*3 13.1 C 0 km/h
1640 02-06-2007 01:44:10 12.8 C 9.63 g/m*3 12.8 C 0 km/h
1641 02-06-2007 02:04:10 12.7 C 9.68 g/m*3 12.7 C 0 km/h
1642 02-06-2007 02:24:11 12.4 C 9.62 g/m*3 12.4 C 0 km/h
1643 02-06-2007 02:44:11 12.1 C 9.44 g/m*3 12.1 C 0 km/h
1644 02-06-2007 03:04:11 12.2 C 9.6 g/m*3 12.2 C 0 km/h
1645 02-06-2007 03:24:11 12 C 9.59 g/m*3 12 C 0 km/h
1646 02-06-2007 03:44:11 11.9 C 9.64 g/m*3 11.9 C 0 km/h
1647 02-06-2007 04:04:11 11.7 C 9.52 g/m*3 11.7 C 0 km/h
1648 02-06-2007 04:24:11 11.5 C 9.4 g/m*3 11.5 C 0 km/h
1649 02-06-2007 04:44:11 11.3 C 9.28 g/m*3 11.3 C 0 km/h
1650 02-06-2007 05:04:11 11.1 C 9.17 g/m*3 11.1 C 0 km/h
Sensor: Nr:Datum:Temp:Abs-Feuchte:Windchill:Wind:
Aussen-T/F 1651 02-06-2007 05:24:11 11 C 9.11 g/m*3 11 C 0 km/h
1652 02-06-2007 05:44:11 11 C 9.21 g/m*3 11 C 0 km/h
1653 02-06-2007 06:04:11 11 C 9.21 g/m*3 11 C 0 km/h
1654 02-06-2007 06:24:11 11.3 C 9.49 g/m*3 11.3 C 0 km/h
1655 02-06-2007 06:44:11 11.8 C 9.79 g/m*3 11.8 C 0 km/h
1656 02-06-2007 07:04:11 12 C 9.8 g/m*3 12 C 0 km/h
1657 02-06-2007 07:24:11 12.3 C 9.99 g/m*3 12.3 C 0 km/h
1658 02-06-2007 07:44:11 12.6 C 10.07 g/m*3 12.6 C 0 km/h
1659 02-06-2007 08:04:12 12.9 C 10.14 g/m*3 12.9 C 0 km/h
1660 02-06-2007 08:24:12 13.5 C 10.29 g/m*3 13.5 C 0 km/h
1661 02-06-2007 08:44:12 14.4 C 10.26 g/m*3 14.4 C 0 km/h
1662 02-06-2007 09:04:12 15.1 C 10.32 g/m*3 15.1 C 0 km/h
1663 02-06-2007 09:24:12 16 C 9.95 g/m*3 16 C 0 km/h
1664 02-06-2007 09:44:12 16.8 C 9.87 g/m*3 16.8 C 0 km/h
1665 02-06-2007 10:04:12 17.1 C 9.75 g/m*3 17.1 C 0 km/h
1666 02-06-2007 10:24:12 17.7 C 10.11 g/m*3 17.7 C 0 km/h
1667 02-06-2007 10:44:12 20.1 C 9.39 g/m*3 20.1 C 0 km/h
1668 02-06-2007 11:04:12 21.7 C 9.35 g/m*3 21.7 C 0 km/h
1669 02-06-2007 11:24:12 21.3 C 9.13 g/m*3 21.3 C 0 km/h
1670 02-06-2007 11:44:12 21.7 C 9.35 g/m*3 21.7 C 0 km/h
1671 02-06-2007 12:04:12 22.1 C 9.37 g/m*3 22.1 C 0 km/h
1672 02-06-2007 12:24:12 24.5 C 8.95 g/m*3 24.5 C 0 km/h
1673 02-06-2007 12:44:12 23.4 C 8.83 g/m*3 23.4 C 0 km/h
1674 02-06-2007 13:04:12 22.9 C 9.2 g/m*3 22.9 C 0 km/h
1675 02-06-2007 13:24:12 22.8 C 9.96 g/m*3 22.8 C 0 km/h
Sensor: Nr:Datum:Temp:Abs-Feuchte:Windchill:Wind:
Aussen-T/F 1676 02-06-2007 13:44:12 23.6 C 9.57 g/m*3 23.6 C 0 km/h
1677 02-06-2007 14:04:12 25.7 C 8.62 g/m*3 25.7 C 0 km/h
1678 02-06-2007 14:24:13 27.5 C 7.94 g/m*3 27.5 C 0 km/h
1679 02-06-2007 14:44:13 26.7 C 8.35 g/m*3 26.7 C 0 km/h
1680 02-06-2007 15:04:13 26 C 7.55 g/m*3 26 C 0 km/h
1681 02-06-2007 15:24:13 27 C 7.21 g/m*3 27 C 0 km/h
1682 02-06-2007 15:44:13 26.1 C 7.1 g/m*3 26.1 C 0 km/h
1683 02-06-2007 16:04:13 23.8 C 8.39 g/m*3 23.8 C 0 km/h
1684 02-06-2007 16:24:13 23.5 C 8.67 g/m*3 23.5 C 0 km/h
1685 02-06-2007 16:44:13 24.4 C 8.46 g/m*3 24.4 C 0 km/h
1686 02-06-2007 17:04:13 25 C 7.14 g/m*3 25 C 0 km/h
1687 02-06-2007 17:24:13 24.3 C 7.08 g/m*3 24.3 C 0 km/h
1688 02-06-2007 17:44:13 24.3 C 8.19 g/m*3 24.3 C 0 km/h
1689 02-06-2007 18:04:13 24.6 C 7.43 g/m*3 24.6 C 0 km/h
1690 02-06-2007 18:24:13 24.8 C 7.74 g/m*3 24.8 C 0 km/h
1691 02-06-2007 18:44:13 25.2 C 7.68 g/m*3 25.2 C 0 km/h
1692 02-06-2007 19:04:13 24.2 C 7.7 g/m*3 24.2 C 0 km/h
1693 02-06-2007 19:24:13 25.8 C 7.94 g/m*3 25.8 C 0 km/h
1694 02-06-2007 19:44:13 24.5 C 8.06 g/m*3 24.5 C 0 km/h
1695 02-06-2007 20:04:14 23.4 C 8.62 g/m*3 23.4 C 0 km/h
1696 02-06-2007 20:24:14 22.4 C 8.54 g/m*3 22.4 C 0 km/h
1697 02-06-2007 20:44:14 21.5 C 8.49 g/m*3 21.5 C 0 km/h
1698 02-06-2007 21:04:14 20.4 C 8.67 g/m*3 20.4 C 0 km/h
1699 02-06-2007 21:24:14 19.9 C 8.93 g/m*3 19.9 C 0 km/h
1700 02-06-2007 21:44:14 19.9 C 9.11 g/m*3 19.9 C 0 km/h
Sensor: Nr:Datum:Temp:Abs-Feuchte:Windchill:Wind:
Aussen-T/F 1701 02-06-2007 22:04:14 19.7 C 9.17 g/m*3 19.7 C 0 km/h
1702 02-06-2007 22:24:14 19.5 C 9.23 g/m*3 19.5 C 0 km/h
1703 02-06-2007 22:44:14 18.9 C 9.4 g/m*3 18.9 C 0 km/h
1704 02-06-2007 23:04:14 18.6 C 9.55 g/m*3 18.6 C 0 km/h
1705 02-06-2007 23:24:14 18.6 C 9.55 g/m*3 18.6 C 0 km/h
1706 02-06-2007 23:44:14 18.3 C 9.54 g/m*3 18.3 C 0 km/h
1707 03-06-2007 00:04:14 18.1 C 9.58 g/m*3 18.1 C 0 km/h
1708 03-06-2007 00:24:14 18.1 C 9.73 g/m*3 18.1 C 0 km/h
1709 03-06-2007 00:44:14 17.9 C 9.92 g/m*3 17.9 C 0 km/h
1710 03-06-2007 01:04:14 17.8 C 10.02 g/m*3 17.8 C 0 km/h
1711 03-06-2007 01:24:14 17.7 C 10.11 g/m*3 17.7 C 0 km/h
1712 03-06-2007 01:44:14 17.6 C 10.05 g/m*3 17.6 C 0 km/h
1713 03-06-2007 02:04:15 17.5 C 10.14 g/m*3 17.5 C 0 km/h
1714 03-06-2007 02:24:15 17.2 C 10.1 g/m*3 17.2 C 0 km/h
1715 03-06-2007 02:44:15 16.9 C 10.21 g/m*3 16.9 C 0 km/h
1716 03-06-2007 03:04:15 16.9 C 10.21 g/m*3 16.9 C 0 km/h
1717 03-06-2007 03:24:15 16.8 C 10.15 g/m*3 16.8 C 0 km/h
1718 03-06-2007 03:44:15 16.4 C 10.05 g/m*3 16.4 C 0 km/h
1719 03-06-2007 04:04:15 16.4 C 10.33 g/m*3 16.4 C 0 km/h
1720 03-06-2007 04:24:15 16.3 C 10.27 g/m*3 16.3 C 0 km/h
1721 03-06-2007 04:44:15 16.3 C 10.27 g/m*3 16.3 C 0 km/h
1722 03-06-2007 05:04:15 16.3 C 10.27 g/m*3 16.3 C 0 km/h
1723 03-06-2007 05:24:15 16.2 C 10.2 g/m*3 16.2 C 0 km/h
1724 03-06-2007 05:44:15 16.2 C 10.34 g/m*3 16.2 C 0 km/h
1725 03-06-2007 06:04:15 16.2 C 10.34 g/m*3 16.2 C 0 km/h
Sensor: Nr:Datum:Temp:Abs-Feuchte:Windchill:Wind:
Aussen-T/F 1726 03-06-2007 06:24:15 16.2 C 10.34 g/m*3 16.2 C 0 km/h
1727 03-06-2007 06:44:15 16 C 10.35 g/m*3 16 C 0 km/h
1728 03-06-2007 07:04:15 15.6 C 10.37 g/m*3 15.6 C 0 km/h
1729 03-06-2007 07:24:15 15.8 C 10.63 g/m*3 15.8 C 0 km/h
1730 03-06-2007 07:44:15 16.7 C 10.8 g/m*3 16.7 C 0 km/h
1731 03-06-2007 08:04:16 17 C 10.56 g/m*3 17 C 0 km/h
1732 03-06-2007 08:24:16 18 C 10.6 g/m*3 18 C 0 km/h
1733 03-06-2007 08:44:16 18 C 9.98 g/m*3 18 C 0 km/h
1734 03-06-2007 09:04:16 18.9 C 10.37 g/m*3 18.9 C 0 km/h
1735 03-06-2007 09:24:16 19.4 C 10.01 g/m*3 19.4 C 0 km/h
1736 03-06-2007 09:44:16 19.7 C 10.02 g/m*3 19.7 C 0 km/h
1737 03-06-2007 10:04:16 20.9 C 10.02 g/m*3 20.9 C 0 km/h
1738 03-06-2007 10:24:16 21.1 C 9.58 g/m*3 21.1 C 0 km/h
1739 03-06-2007 10:44:16 21.8 C 9.78 g/m*3 21.8 C 0 km/h
1740 03-06-2007 11:04:16 22.5 C 9.59 g/m*3 22.5 C 0 km/h
1741 03-06-2007 11:24:16 23.1 C 9.3 g/m*3 23.1 C 0 km/h
1742 03-06-2007 11:44:16 23.4 C 9.04 g/m*3 23.4 C 0 km/h
1743 03-06-2007 12:04:16 23.9 C 9.09 g/m*3 23.9 C 0 km/h
1744 03-06-2007 12:24:16 23.7 C 8.98 g/m*3 23.7 C 0 km/h
1745 03-06-2007 12:44:16 25 C 8.75 g/m*3 25 C 0 km/h
1746 03-06-2007 13:04:16 26.1 C 8.57 g/m*3 26.1 C 0 km/h
1747 03-06-2007 13:24:16 25 C 8.29 g/m*3 25 C 0 km/h
1748 03-06-2007 13:44:16 24.8 C 8.42 g/m*3 24.8 C 0 km/h
1749 03-06-2007 14:04:16 24.8 C 8.19 g/m*3 24.8 C 0 km/h
1750 03-06-2007 14:24:16 26.6 C 8.31 g/m*3 26.6 C 0 km/h
Sensor: Nr:Datum:Temp:Abs-Feuchte:Windchill:Wind:
Aussen-T/F 1751 03-06-2007 14:44:17 25.7 C 8.38 g/m*3 25.7 C 0 km/h
1752 03-06-2007 15:04:17 25.2 C 8.38 g/m*3 25.2 C 0 km/h
1753 03-06-2007 15:24:17 25.2 C 8.15 g/m*3 25.2 C 0 km/h
1754 03-06-2007 15:44:17 25.7 C 8.38 g/m*3 25.7 C 0 km/h
1755 03-06-2007 16:04:17 26.2 C 8.62 g/m*3 26.2 C 0 km/h
1756 03-06-2007 16:24:17 26.4 C 8.21 g/m*3 26.4 C 0 km/h
1757 03-06-2007 16:44:17 25.4 C 8.95 g/m*3 25.4 C 0 km/h
1758 03-06-2007 17:04:17 24.5 C 8.95 g/m*3 24.5 C 0 km/h
1759 03-06-2007 17:24:17 24.7 C 9.05 g/m*3 24.7 C 0 km/h
1760 03-06-2007 17:44:17 24.9 C 8.93 g/m*3 24.9 C 0 km/h
1761 03-06-2007 18:04:17 24.6 C 9 g/m*3 24.6 C 0 km/h
1762 03-06-2007 18:24:17 23.9 C 8.87 g/m*3 23.9 C 0 km/h
1763 03-06-2007 18:44:17 24.3 C 9.07 g/m*3 24.3 C 0 km/h
1764 03-06-2007 19:04:17 25.7 C 9.34 g/m*3 25.7 C 0 km/h
1765 03-06-2007 19:24:17 24.5 C 9.62 g/m*3 24.5 C 0 km/h
1766 03-06-2007 19:44:17 23.9 C 9.95 g/m*3 23.9 C 0 km/h
1767 03-06-2007 20:04:17 23.4 C 9.88 g/m*3 23.4 C 0 km/h
1768 03-06-2007 20:24:17 23.2 C 9.98 g/m*3 23.2 C 0 km/h
1769 03-06-2007 20:44:17 22.6 C 10.25 g/m*3 22.6 C 0 km/h
1770 03-06-2007 21:04:18 22 C 10.29 g/m*3 22 C 0 km/h
1771 03-06-2007 21:24:18 21.7 C 10.68 g/m*3 21.7 C 0 km/h
1772 03-06-2007 21:44:18 21.6 C 10.62 g/m*3 21.6 C 0 km/h
1773 03-06-2007 22:04:18 20.8 C 10.5 g/m*3 20.8 C 0 km/h
1774 03-06-2007 22:24:18 20.5 C 10.85 g/m*3 20.5 C 0 km/h
1775 03-06-2007 22:44:18 20.3 C 10.73 g/m*3 20.3 C 0 km/h
Sensor: Nr:Datum:Temp:Abs-Feuchte:Windchill:Wind:
Aussen-T/F 1776 03-06-2007 23:04:18 20 C 10.71 g/m*3 20 C 0 km/h
1777 03-06-2007 23:24:18 19.7 C 10.87 g/m*3 19.7 C 0 km/h
1778 03-06-2007 23:44:18 19.3 C 10.95 g/m*3 19.3 C 0 km/h
1779 04-06-2007 00:04:18 19.2 C 10.88 g/m*3 19.2 C 0 km/h
1780 04-06-2007 00:24:18 19.1 C 10.98 g/m*3 19.1 C 0 km/h
1781 04-06-2007 00:44:18 18.9 C 11.02 g/m*3 18.9 C 0 km/h
1782 04-06-2007 01:04:18 18.7 C 11.05 g/m*3 18.7 C 0 km/h
1783 04-06-2007 01:24:18 18.3 C 10.94 g/m*3 18.3 C 0 km/h
1784 04-06-2007 01:44:18 18.2 C 11.04 g/m*3 18.2 C 0 km/h
1785 04-06-2007 02:04:18 18.2 C 11.19 g/m*3 18.2 C 0 km/h
1786 04-06-2007 02:24:18 17.9 C 11.3 g/m*3 17.9 C 0 km/h
1787 04-06-2007 02:44:18 17.8 C 11.23 g/m*3 17.8 C 0 km/h
1788 04-06-2007 03:04:18 17.8 C 11.23 g/m*3 17.8 C 0 km/h
1789 04-06-2007 03:24:19 17.7 C 11.16 g/m*3 17.7 C 0 km/h
1790 04-06-2007 03:44:19 17.4 C 10.97 g/m*3 17.4 C 0 km/h
1791 04-06-2007 04:04:19 17.5 C 10.88 g/m*3 17.5 C 0 km/h
1792 04-06-2007 04:24:19 17.5 C 10.88 g/m*3 17.5 C 0 km/h
1793 04-06-2007 04:44:19 17.1 C 10.63 g/m*3 17.1 C 0 km/h
1794 04-06-2007 05:04:19 16.5 C 10.67 g/m*3 16.5 C 0 km/h
1795 04-06-2007 05:24:19 16 C 10.63 g/m*3 16 C 0 km/h
1796 04-06-2007 05:44:19 15.7 C 10.7 g/m*3 15.7 C 0 km/h
1797 04-06-2007 06:04:19 15.6 C 10.64 g/m*3 15.6 C 0 km/h
1798 04-06-2007 06:24:19 15.7 C 10.84 g/m*3 15.7 C 0 km/h
1799 04-06-2007 06:44:19 16 C 11.04 g/m*3 16 C 0 km/h
1800 04-06-2007 07:04:19 16.2 C 11.17 g/m*3 16.2 C 0 km/h
Sensor: Nr:Datum:Temp:Abs-Feuchte:Windchill:Wind:
Aussen-T/F 1801 04-06-2007 07:24:19 16.5 C 11.23 g/m*3 16.5 C 0 km/h
1802 04-06-2007 07:44:19 16.9 C 11.36 g/m*3 16.9 C 0 km/h
1803 04-06-2007 08:04:19 17.5 C 11.33 g/m*3 17.5 C 0 km/h
1804 04-06-2007 08:24:19 18.8 C 11.11 g/m*3 18.8 C 0 km/h
1805 04-06-2007 08:44:19 19.6 C 10.47 g/m*3 19.6 C 0 km/h
1806 04-06-2007 09:04:19 19.9 C 10.48 g/m*3 19.9 C 0 km/h
1807 04-06-2007 09:24:20 20.4 C 10.26 g/m*3 20.4 C 0 km/h
1808 04-06-2007 09:44:20 20.9 C 10.38 g/m*3 20.9 C 0 km/h
1809 04-06-2007 10:04:20 22 C 10.29 g/m*3 22 C 0 km/h
1810 04-06-2007 10:24:20 22.8 C 10.16 g/m*3 22.8 C 0 km/h
1811 04-06-2007 10:44:20 22.6 C 10.04 g/m*3 22.6 C 0 km/h
1812 04-06-2007 11:04:20 23.2 C 9.98 g/m*3 23.2 C 0 km/h
1813 04-06-2007 11:24:20 24.2 C 10.12 g/m*3 24.2 C 0 km/h
1814 04-06-2007 11:44:20 25.6 C 10 g/m*3 25.6 C 0 km/h
1815 04-06-2007 12:04:20 25.7 C 9.58 g/m*3 25.7 C 0 km/h
1816 04-06-2007 12:24:20 27.8 C 9.41 g/m*3 27.8 C 0 km/h
1817 04-06-2007 12:44:20 27.4 C 9.21 g/m*3 27.4 C 0 km/h
1818 04-06-2007 13:04:20 28.3 C 8.85 g/m*3 28.3 C 0 km/h
1819 04-06-2007 13:24:20 28.4 C 8.34 g/m*3 28.4 C 0 km/h
1820 04-06-2007 13:44:20 28.8 C 8.24 g/m*3 28.8 C 0 km/h
1821 04-06-2007 14:04:20 29.6 C 8.31 g/m*3 29.6 C 0 km/h
1822 04-06-2007 14:24:20 28.2 C 8.25 g/m*3 28.2 C 0 km/h
1823 04-06-2007 14:44:20 27.6 C 8.51 g/m*3 27.6 C 0 km/h
1824 04-06-2007 15:04:21 28.1 C 8.48 g/m*3 28.1 C 0 km/h
1825 04-06-2007 15:24:21 29.8 C 7.8 g/m*3 29.8 C 0 km/h
Sensor: Nr:Datum:Temp:Abs-Feuchte:Windchill:Wind:
Aussen-T/F 1826 04-06-2007 15:44:21 26.4 C 8.71 g/m*3 26.4 C 0 km/h
1827 04-06-2007 16:04:21 25.6 C 9.28 g/m*3 25.6 C 0 km/h
1828 04-06-2007 16:24:21 25.7 C 9.1 g/m*3 25.7 C 0 km/h
1829 04-06-2007 16:44:21 26.1 C 9.3 g/m*3 26.1 C 0 km/h
1830 04-06-2007 17:04:21 25.7 C 9.58 g/m*3 25.7 C 0 km/h
1831 04-06-2007 17:24:21 25.5 C 9.47 g/m*3 25.5 C 0 km/h
1832 04-06-2007 17:44:21 26.2 C 9.35 g/m*3 26.2 C 0 km/h
1833 04-06-2007 18:04:21 26.7 C 9.11 g/m*3 26.7 C 0 km/h
1834 04-06-2007 18:24:21 25.1 C 9.49 g/m*3 25.1 C 0 km/h
1835 04-06-2007 18:44:21 25 C 10.13 g/m*3 25 C 0 km/h
1836 04-06-2007 19:04:21 25.5 C 10.18 g/m*3 25.5 C 0 km/h
1837 04-06-2007 19:24:21 26.1 C 10.28 g/m*3 26.1 C 0 km/h
1838 04-06-2007 19:44:21 26.8 C 8.91 g/m*3 26.8 C 0 km/h
1839 04-06-2007 20:04:21 26.1 C 9.06 g/m*3 26.1 C 0 km/h
1840 04-06-2007 20:24:21 25.2 C 8.61 g/m*3 25.2 C 0 km/h
1841 04-06-2007 20:44:21 24.3 C 9.74 g/m*3 24.3 C 0 km/h
1842 04-06-2007 21:04:22 23.2 C 10.81 g/m*3 23.2 C 0 km/h
1843 04-06-2007 21:24:22 20.6 C 11.63 g/m*3 20.6 C 0 km/h
1844 04-06-2007 21:44:22 21.2 C 10.75 g/m*3 21.2 C 0 km/h
1845 04-06-2007 22:04:22 21.4 C 10.12 g/m*3 21.4 C 0 km/h
1846 04-06-2007 22:24:22 21.5 C 9.81 g/m*3 21.5 C 0 km/h
1847 04-06-2007 22:44:22 21.2 C 9.27 g/m*3 21.2 C 0 km/h
1848 04-06-2007 23:04:22 20.8 C 9.05 g/m*3 20.8 C 0 km/h
1849 04-06-2007 23:24:22 20.3 C 9.32 g/m*3 20.3 C 0 km/h
1850 04-06-2007 23:44:22 19.9 C 9.62 g/m*3 19.9 C 0 km/h
Sensor: Nr:Datum:Temp:Abs-Feuchte:Windchill:Wind:
Aussen-T/F 1851 05-06-2007 00:04:22 19.5 C 9.73 g/m*3 19.5 C 0 km/h
1852 05-06-2007 00:24:22 19.4 C 10.01 g/m*3 19.4 C 0 km/h
1853 05-06-2007 00:44:22 19.2 C 10.06 g/m*3 19.2 C 0 km/h
1854 05-06-2007 01:04:22 19 C 10.1 g/m*3 19 C 0 km/h
1855 05-06-2007 01:24:22 18.9 C 10.37 g/m*3 18.9 C 0 km/h
1856 05-06-2007 01:44:22 18.4 C 10.22 g/m*3 18.4 C 0 km/h
1857 05-06-2007 02:04:22 18 C 10.29 g/m*3 18 C 0 km/h
1858 05-06-2007 02:24:22 17.7 C 10.26 g/m*3 17.7 C 0 km/h
1859 05-06-2007 02:44:22 17.2 C 10.25 g/m*3 17.2 C 0 km/h
1860 05-06-2007 03:04:23 16.8 C 10.29 g/m*3 16.8 C 0 km/h
1861 05-06-2007 03:24:23 16.6 C 10.45 g/m*3 16.6 C 0 km/h
1862 05-06-2007 03:44:23 16.4 C 10.47 g/m*3 16.4 C 0 km/h
1863 05-06-2007 04:04:23 16.2 C 10.48 g/m*3 16.2 C 0 km/h
1864 05-06-2007 04:24:23 15.9 C 10.56 g/m*3 15.9 C 0 km/h
1865 05-06-2007 04:44:23 15.8 C 10.63 g/m*3 15.8 C 0 km/h
1866 05-06-2007 05:04:23 15.4 C 10.38 g/m*3 15.4 C 0 km/h
1867 05-06-2007 05:24:23 15.3 C 10.45 g/m*3 15.3 C 0 km/h
1868 05-06-2007 05:44:23 15 C 10.39 g/m*3 15 C 0 km/h
1869 05-06-2007 06:04:23 15.1 C 10.58 g/m*3 15.1 C 0 km/h
1870 05-06-2007 06:24:23 15.2 C 10.64 g/m*3 15.2 C 0 km/h
1871 05-06-2007 06:44:23 15.2 C 10.64 g/m*3 15.2 C 0 km/h
1872 05-06-2007 07:04:23 15.7 C 11.11 g/m*3 15.7 C 0 km/h
1873 05-06-2007 07:24:23 16.1 C 10.97 g/m*3 16.1 C 0 km/h
1874 05-06-2007 07:44:23 16.2 C 11.03 g/m*3 16.2 C 0 km/h
1875 05-06-2007 08:04:23 16.7 C 11.08 g/m*3 16.7 C 0 km/h
Sensor: Nr:Datum:Temp:Abs-Feuchte:Windchill:Wind:
Aussen-T/F 1876 05-06-2007 08:24:23 17.4 C 11.26 g/m*3 17.4 C 0 km/h
1877 05-06-2007 08:44:23 18.2 C 11.19 g/m*3 18.2 C 0 km/h
1878 05-06-2007 09:04:23 19 C 10.76 g/m*3 19 C 0 km/h
1879 05-06-2007 09:24:23 19.9 C 10.65 g/m*3 19.9 C 0 km/h
1880 05-06-2007 09:44:24 20.9 C 10.56 g/m*3 20.9 C 0 km/h
1881 05-06-2007 10:04:24 21.6 C 10.43 g/m*3 21.6 C 0 km/h
1882 05-06-2007 10:24:24 22.5 C 10.19 g/m*3 22.5 C 0 km/h
1883 05-06-2007 10:44:24 23.4 C 9.88 g/m*3 23.4 C 0 km/h
1884 05-06-2007 11:04:24 23.4 C 9.88 g/m*3 23.4 C 0 km/h
1885 05-06-2007 11:24:24 24 C 10.01 g/m*3 24 C 0 km/h
1886 05-06-2007 11:44:24 25.3 C 8.66 g/m*3 25.3 C 0 km/h
1887 05-06-2007 12:04:24 26.3 C 8.91 g/m*3 26.3 C 0 km/h
1888 05-06-2007 12:24:24 26.6 C 8.31 g/m*3 26.6 C 0 km/h
1889 05-06-2007 12:44:24 27.5 C 7.94 g/m*3 27.5 C 0 km/h
1890 05-06-2007 13:04:24 27.1 C 7.76 g/m*3 27.1 C 0 km/h
1891 05-06-2007 13:24:24 26.9 C 8.45 g/m*3 26.9 C 0 km/h
1892 05-06-2007 13:44:24 27.7 C 8.56 g/m*3 27.7 C 0 km/h
1893 05-06-2007 14:04:24 27.3 C 7.85 g/m*3 27.3 C 0 km/h
1894 05-06-2007 14:24:24 27.5 C 8.47 g/m*3 27.5 C 0 km/h
1895 05-06-2007 14:44:24 27 C 7.72 g/m*3 27 C 0 km/h
1896 05-06-2007 15:04:24 28.3 C 7.46 g/m*3 28.3 C 0 km/h
1897 05-06-2007 15:24:25 28.9 C 8.28 g/m*3 28.9 C 0 km/h
1898 05-06-2007 15:44:25 27.4 C 8.16 g/m*3 27.4 C 0 km/h
1899 05-06-2007 16:04:25 27.4 C 8.42 g/m*3 27.4 C 0 km/h
1900 05-06-2007 16:24:25 28.1 C 8.75 g/m*3 28.1 C 0 km/h
Sensor: Nr:Datum:Temp:Abs-Feuchte:Windchill:Wind:
Aussen-T/F 1901 05-06-2007 16:44:25 28.3 C 8.29 g/m*3 28.3 C 0 km/h
1902 05-06-2007 17:04:25 26.9 C 8.96 g/m*3 26.9 C 0 km/h
1903 05-06-2007 17:24:25 30 C 7.88 g/m*3 30 C 0 km/h
1904 05-06-2007 17:44:25 28.1 C 9.02 g/m*3 28.1 C 0 km/h
1905 05-06-2007 18:04:25 26.8 C 9.67 g/m*3 26.8 C 0 km/h
1906 05-06-2007 18:24:25 26 C 9.49 g/m*3 26 C 0 km/h
1907 05-06-2007 18:44:25 24.6 C 9.45 g/m*3 24.6 C 0 km/h
1908 05-06-2007 19:04:25 25 C 9.21 g/m*3 25 C 0 km/h
1909 05-06-2007 19:24:25 24.6 C 9.23 g/m*3 24.6 C 0 km/h
1910 05-06-2007 19:44:25 26 C 9.25 g/m*3 26 C 0 km/h
1911 05-06-2007 20:04:25 24.9 C 9.61 g/m*3 24.9 C 0 km/h
1912 05-06-2007 20:24:25 24.1 C 9.41 g/m*3 24.1 C 0 km/h
1913 05-06-2007 20:44:25 23 C 9.45 g/m*3 23 C 0 km/h
1914 05-06-2007 21:04:25 22 C 9.51 g/m*3 22 C 0 km/h
1915 05-06-2007 21:24:26 21.3 C 9.32 g/m*3 21.3 C 0 km/h
1916 05-06-2007 21:44:26 20.8 C 9.42 g/m*3 20.8 C 0 km/h
1917 05-06-2007 22:04:26 20.4 C 9.2 g/m*3 20.4 C 0 km/h
1918 05-06-2007 22:24:26 20 C 9.16 g/m*3 20 C 0 km/h
1919 05-06-2007 22:44:26 19.7 C 9.51 g/m*3 19.7 C 0 km/h
1920 05-06-2007 23:04:26 19.3 C 9.45 g/m*3 19.3 C 0 km/h
1921 05-06-2007 23:24:26 18.9 C 9.56 g/m*3 18.9 C 0 km/h
1922 05-06-2007 23:44:26 18.6 C 9.55 g/m*3 18.6 C 0 km/h
1923 06-06-2007 00:04:26 18.3 C 9.54 g/m*3 18.3 C 0 km/h
1924 06-06-2007 00:24:26 18 C 9.52 g/m*3 18 C 0 km/h
1925 06-06-2007 00:44:26 17.7 C 9.81 g/m*3 17.7 C 0 km/h
Sensor: Nr:Datum:Temp:Abs-Feuchte:Windchill:Wind:
Aussen-T/F 1926 06-06-2007 01:04:26 17.4 C 9.78 g/m*3 17.4 C 0 km/h
1927 06-06-2007 01:24:26 17.2 C 9.81 g/m*3 17.2 C 0 km/h
1928 06-06-2007 01:44:26 16.8 C 10.01 g/m*3 16.8 C 0 km/h
1929 06-06-2007 02:04:26 16.6 C 10.03 g/m*3 16.6 C 0 km/h
1930 06-06-2007 02:24:26 16.3 C 10.27 g/m*3 16.3 C 0 km/h
1931 06-06-2007 02:44:26 15.9 C 10.16 g/m*3 15.9 C 0 km/h
1932 06-06-2007 03:04:27 15.7 C 10.17 g/m*3 15.7 C 0 km/h
1933 06-06-2007 03:24:27 15.6 C 10.24 g/m*3 15.6 C 0 km/h
1934 06-06-2007 03:44:27 15.3 C 10.06 g/m*3 15.3 C 0 km/h
1935 06-06-2007 04:04:27 14.9 C 10.07 g/m*3 14.9 C 0 km/h
1936 06-06-2007 04:24:27 14.8 C 10.13 g/m*3 14.8 C 0 km/h
1937 06-06-2007 04:44:27 14.5 C 10.07 g/m*3 14.5 C 0 km/h
1938 06-06-2007 05:04:27 14.3 C 9.95 g/m*3 14.3 C 0 km/h
1939 06-06-2007 05:24:27 14.2 C 10.01 g/m*3 14.2 C 0 km/h
1940 06-06-2007 05:44:27 14 C 9.89 g/m*3 14 C 0 km/h
1941 06-06-2007 06:04:27 14.1 C 10.07 g/m*3 14.1 C 0 km/h
1942 06-06-2007 06:24:27 14.1 C 10.07 g/m*3 14.1 C 0 km/h
1943 06-06-2007 06:44:27 14.3 C 10.2 g/m*3 14.3 C 0 km/h
1944 06-06-2007 07:04:27 14.5 C 10.32 g/m*3 14.5 C 0 km/h
1945 06-06-2007 07:24:27 14.8 C 10.51 g/m*3 14.8 C 0 km/h
1946 06-06-2007 07:44:27 15.2 C 10.51 g/m*3 15.2 C 0 km/h
1947 06-06-2007 08:04:27 15.9 C 10.97 g/m*3 15.9 C 0 km/h
1948 06-06-2007 08:24:27 16.4 C 11.03 g/m*3 16.4 C 0 km/h
1949 06-06-2007 08:44:28 16.9 C 11.08 g/m*3 16.9 C 0 km/h
1950 06-06-2007 09:04:28 17.7 C 11.16 g/m*3 17.7 C 0 km/h
Sensor: Nr:Datum:Temp:Abs-Feuchte:Windchill:Wind:
Aussen-T/F 1951 06-06-2007 09:24:28 18.7 C 11.05 g/m*3 18.7 C 0 km/h
1952 06-06-2007 09:44:28 19.6 C 10.8 g/m*3 19.6 C 0 km/h
1953 06-06-2007 10:04:28 20.4 C 10.61 g/m*3 20.4 C 0 km/h
1954 06-06-2007 10:24:28 21.6 C 10.62 g/m*3 21.6 C 0 km/h
1955 06-06-2007 10:44:28 22.4 C 10.53 g/m*3 22.4 C 0 km/h
1956 06-06-2007 11:04:28 23.7 C 10.48 g/m*3 23.7 C 0 km/h
1957 06-06-2007 11:24:28 24.5 C 10.52 g/m*3 24.5 C 0 km/h
1958 06-06-2007 11:44:28 25.5 C 9.94 g/m*3 25.5 C 0 km/h
1959 06-06-2007 12:04:28 26.2 C 10.09 g/m*3 26.2 C 0 km/h
1960 06-06-2007 12:24:28 27.4 C 9.47 g/m*3 27.4 C 0 km/h
1961 06-06-2007 12:44:28 28.4 C 8.9 g/m*3 28.4 C 0 km/h
1962 06-06-2007 13:04:28 28.9 C 9.14 g/m*3 28.9 C 0 km/h
1963 06-06-2007 13:24:28 30.3 C 8.32 g/m*3 30.3 C 0 km/h
1964 06-06-2007 13:44:28 31 C 8 g/m*3 31 C 0 km/h
1965 06-06-2007 14:04:28 29.5 C 8.85 g/m*3 29.5 C 0 km/h
1966 06-06-2007 14:24:29 28.7 C 9.04 g/m*3 28.7 C 0 km/h
1967 06-06-2007 14:44:29 28.1 C 8.75 g/m*3 28.1 C 0 km/h
1968 06-06-2007 15:04:29 29.7 C 8.65 g/m*3 29.7 C 0 km/h
1969 06-06-2007 15:24:29 28.1 C 8.75 g/m*3 28.1 C 0 km/h
1970 06-06-2007 15:44:29 29.6 C 8.9 g/m*3 29.6 C 0 km/h
1971 06-06-2007 16:04:29 30.1 C 8.54 g/m*3 30.1 C 0 km/h
1972 06-06-2007 16:24:29 31.2 C 7.76 g/m*3 31.2 C 0 km/h
1973 06-06-2007 16:44:29 31 C 8.32 g/m*3 31 C 0 km/h
1974 06-06-2007 17:04:29 31.9 C 7.05 g/m*3 31.9 C 0 km/h
1975 06-06-2007 17:24:29 31.7 C 6.98 g/m*3 31.7 C 0 km/h
Sensor: Nr:Datum:Temp:Abs-Feuchte:Windchill:Wind:
Aussen-T/F 1976 06-06-2007 17:44:29 30.5 C 8.1 g/m*3 30.5 C 0 km/h
1977 06-06-2007 18:04:29 30.4 C 8.68 g/m*3 30.4 C 0 km/h
1978 06-06-2007 18:24:29 30.9 C 8.28 g/m*3 30.9 C 0 km/h
1979 06-06-2007 18:44:29 31.1 C 8.37 g/m*3 31.1 C 0 km/h
1980 06-06-2007 19:04:29 31.2 C 8.09 g/m*3 31.2 C 0 km/h
1981 06-06-2007 19:24:29 29.8 C 9 g/m*3 29.8 C 0 km/h
1982 06-06-2007 19:44:29 28.4 C 8.9 g/m*3 28.4 C 0 km/h
1983 06-06-2007 20:04:30 28 C 9.25 g/m*3 28 C 0 km/h
1984 06-06-2007 20:24:30 27.5 C 9.52 g/m*3 27.5 C 0 km/h
1985 06-06-2007 20:44:30 26.5 C 9.76 g/m*3 26.5 C 0 km/h
1986 06-06-2007 21:04:30 25.6 C 9.76 g/m*3 25.6 C 0 km/h
1987 06-06-2007 21:24:30 24.6 C 9.68 g/m*3 24.6 C 0 km/h
1988 06-06-2007 21:44:30 24.1 C 9.85 g/m*3 24.1 C 0 km/h
1989 06-06-2007 22:04:30 23.7 C 10.05 g/m*3 23.7 C 0 km/h
1990 06-06-2007 22:24:30 23.1 C 10.13 g/m*3 23.1 C 0 km/h
1991 06-06-2007 22:44:30 22.5 C 10.19 g/m*3 22.5 C 0 km/h
1992 06-06-2007 23:04:30 22 C 10.09 g/m*3 22 C 0 km/h
1993 06-06-2007 23:24:30 21.8 C 10.36 g/m*3 21.8 C 0 km/h
1994 06-06-2007 23:44:30 21.5 C 10.37 g/m*3 21.5 C 0 km/h
1995 07-06-2007 00:04:30 21.3 C 10.44 g/m*3 21.3 C 0 km/h
1996 07-06-2007 00:24:30 21.1 C 10.5 g/m*3 21.1 C 0 km/h
1997 07-06-2007 00:44:30 21 C 10.81 g/m*3 21 C 0 km/h
1998 07-06-2007 01:04:30 21 C 10.81 g/m*3 21 C 0 km/h
1999 07-06-2007 01:24:30 20.7 C 11.16 g/m*3 20.7 C 0 km/h
2000 07-06-2007 01:44:31 20.4 C 11.14 g/m*3 20.4 C 0 km/h
Sensor: Nr:Datum:Temp:Abs-Feuchte:Windchill:Wind:
Aussen-T/F 2001 07-06-2007 02:04:31 20.1 C 11.13 g/m*3 20.1 C 0 km/h
2002 07-06-2007 02:24:31 20.1 C 11.47 g/m*3 20.1 C 0 km/h
2003 07-06-2007 02:44:31 19.7 C 11.21 g/m*3 19.7 C 0 km/h
2004 07-06-2007 03:04:31 19.5 C 11.41 g/m*3 19.5 C 0 km/h
2005 07-06-2007 03:24:31 19.2 C 11.38 g/m*3 19.2 C 0 km/h
2006 07-06-2007 03:44:31 19 C 11.41 g/m*3 19 C 0 km/h
2007 07-06-2007 04:04:31 18.8 C 11.6 g/m*3 18.8 C 0 km/h
2008 07-06-2007 04:24:31 18.4 C 11.64 g/m*3 18.4 C 0 km/h
2009 07-06-2007 04:44:31 18.3 C 11.41 g/m*3 18.3 C 0 km/h
2010 07-06-2007 05:04:31 18.1 C 11.43 g/m*3 18.1 C 0 km/h
2011 07-06-2007 05:24:31 18.1 C 11.59 g/m*3 18.1 C 0 km/h
2012 07-06-2007 05:44:31 17.9 C 11.76 g/m*3 17.9 C 0 km/h
2013 07-06-2007 06:04:31 17.9 C 11.76 g/m*3 17.9 C 0 km/h
2014 07-06-2007 06:24:31 17.8 C 11.69 g/m*3 17.8 C 0 km/h
2015 07-06-2007 06:44:31 17.9 C 11.76 g/m*3 17.9 C 0 km/h
2016 07-06-2007 07:04:31 18.1 C 11.74 g/m*3 18.1 C 0 km/h
2017 07-06-2007 07:24:31 18.6 C 12.1 g/m*3 18.6 C 0 km/h
2018 07-06-2007 07:44:32 18.9 C 12.31 g/m*3 18.9 C 0 km/h
2019 07-06-2007 08:04:32 19.4 C 12.01 g/m*3 19.4 C 0 km/h
2020 07-06-2007 08:24:32 19.8 C 12.13 g/m*3 19.8 C 0 km/h
2021 07-06-2007 08:44:32 20.3 C 12.14 g/m*3 20.3 C 0 km/h
2022 07-06-2007 09:04:32 21 C 12.09 g/m*3 21 C 0 km/h
2023 07-06-2007 09:24:32 22.1 C 12.3 g/m*3 22.1 C 0 km/h
2024 07-06-2007 09:44:32 23.2 C 12.06 g/m*3 23.2 C 0 km/h
2025 07-06-2007 10:04:32 24 C 11.97 g/m*3 24 C 0 km/h
Sensor: Nr:Datum:Temp:Abs-Feuchte:Windchill:Wind:
Aussen-T/F 2026 07-06-2007 10:24:32 25.1 C 12.04 g/m*3 25.1 C 0 km/h
2027 07-06-2007 10:44:32 26.4 C 12.2 g/m*3 26.4 C 0 km/h
2028 07-06-2007 11:04:32 27.1 C 11.39 g/m*3 27.1 C 0 km/h
2029 07-06-2007 11:24:32 28.3 C 11.33 g/m*3 28.3 C 0 km/h
2030 07-06-2007 11:44:32 29 C 10.91 g/m*3 29 C 0 km/h
2031 07-06-2007 12:04:32 29.7 C 10.14 g/m*3 29.7 C 0 km/h
2032 07-06-2007 12:24:32 29.4 C 9.98 g/m*3 29.4 C 0 km/h
2033 07-06-2007 12:44:32 30.6 C 9.4 g/m*3 30.6 C 0 km/h
2034 07-06-2007 13:04:32 30.6 C 9.4 g/m*3 30.6 C 0 km/h
2035 07-06-2007 13:24:33 31.7 C 8.31 g/m*3 31.7 C 0 km/h
2036 07-06-2007 13:44:33 32 C 8.1 g/m*3 32 C 0 km/h
2037 07-06-2007 14:04:33 31.9 C 8.06 g/m*3 31.9 C 0 km/h
2038 07-06-2007 14:24:33 31.7 C 8.31 g/m*3 31.7 C 0 km/h
2039 07-06-2007 14:44:33 32.3 C 8.58 g/m*3 32.3 C 0 km/h
2040 07-06-2007 15:04:33 32.4 C 8.28 g/m*3 32.4 C 0 km/h
2041 07-06-2007 15:24:33 32.6 C 8.02 g/m*3 32.6 C 0 km/h
2042 07-06-2007 15:44:33 32.3 C 7.89 g/m*3 32.3 C 0 km/h
2043 07-06-2007 16:04:33 32.2 C 8.19 g/m*3 32.2 C 0 km/h
2044 07-06-2007 16:24:33 31.9 C 8.73 g/m*3 31.9 C 0 km/h
2045 07-06-2007 16:44:33 32.7 C 7.71 g/m*3 32.7 C 0 km/h
2046 07-06-2007 17:04:33 32.9 C 7.44 g/m*3 32.9 C 0 km/h
2047 07-06-2007 17:24:33 31.5 C 8.22 g/m*3 31.5 C 0 km/h
2048 07-06-2007 17:44:33 32.3 C 8.23 g/m*3 32.3 C 0 km/h
2049 07-06-2007 18:04:33 33.3 C 7.23 g/m*3 33.3 C 0 km/h
2050 07-06-2007 18:24:33 32.9 C 7.44 g/m*3 32.9 C 0 km/h
Sensor: Nr:Datum:Temp:Abs-Feuchte:Windchill:Wind:
Aussen-T/F 2051 07-06-2007 18:44:33 33.3 C 7.23 g/m*3 33.3 C 0 km/h
2052 07-06-2007 19:04:34 32.7 C 7.36 g/m*3 32.7 C 0 km/h
2053 07-06-2007 19:24:34 32.2 C 8.19 g/m*3 32.2 C 0 km/h
2054 07-06-2007 19:44:34 31.3 C 8.78 g/m*3 31.3 C 0 km/h
2055 07-06-2007 20:04:34 30.2 C 10.12 g/m*3 30.2 C 0 km/h
2056 07-06-2007 20:24:34 29 C 10.05 g/m*3 29 C 0 km/h
2057 07-06-2007 20:44:34 28.3 C 10.51 g/m*3 28.3 C 0 km/h
2058 07-06-2007 21:04:34 27.6 C 10.64 g/m*3 27.6 C 0 km/h
2059 07-06-2007 21:24:34 26.9 C 10.75 g/m*3 26.9 C 0 km/h
2060 07-06-2007 21:44:34 26.1 C 10.77 g/m*3 26.1 C 0 km/h
2061 07-06-2007 22:04:34 25.7 C 11.25 g/m*3 25.7 C 0 km/h
2062 07-06-2007 22:24:34 25 C 11.05 g/m*3 25 C 0 km/h
2063 07-06-2007 22:44:34 24.9 C 11.45 g/m*3 24.9 C 0 km/h
2064 07-06-2007 23:04:34 24.5 C 11.41 g/m*3 24.5 C 0 km/h
2065 07-06-2007 23:24:34 24.1 C 11.6 g/m*3 24.1 C 0 km/h
2066 07-06-2007 23:44:34 24.1 C 11.6 g/m*3 24.1 C 0 km/h
2067 08-06-2007 00:04:34 23.8 C 11.62 g/m*3 23.8 C 0 km/h
2068 08-06-2007 00:24:34 23.9 C 11.68 g/m*3 23.9 C 0 km/h
2069 08-06-2007 00:44:35 23.7 C 11.76 g/m*3 23.7 C 0 km/h
2070 08-06-2007 01:04:35 23.4 C 11.57 g/m*3 23.4 C 0 km/h
2071 08-06-2007 01:24:35 23 C 11.51 g/m*3 23 C 0 km/h
2072 08-06-2007 01:44:35 22.7 C 11.72 g/m*3 22.7 C 0 km/h
2073 08-06-2007 02:04:35 22.2 C 11.78 g/m*3 22.2 C 0 km/h
2074 08-06-2007 02:24:35 21.8 C 11.9 g/m*3 21.8 C 0 km/h
2075 08-06-2007 02:44:35 21.5 C 12.07 g/m*3 21.5 C 0 km/h
Sensor: Nr:Datum:Temp:Abs-Feuchte:Windchill:Wind:
Aussen-T/F 2076 08-06-2007 03:04:35 21.1 C 11.98 g/m*3 21.1 C 0 km/h
2077 08-06-2007 03:24:35 20.8 C 12.13 g/m*3 20.8 C 0 km/h
2078 08-06-2007 03:44:35 20.5 C 12.28 g/m*3 20.5 C 0 km/h
2079 08-06-2007 04:04:35 20.1 C 12.17 g/m*3 20.1 C 0 km/h
2080 08-06-2007 04:24:35 19.7 C 12.4 g/m*3 19.7 C 0 km/h
2081 08-06-2007 04:44:35 19.6 C 12.49 g/m*3 19.6 C 0 km/h
2082 08-06-2007 05:04:35 19.6 C 12.49 g/m*3 19.6 C 0 km/h
2083 08-06-2007 05:24:35 19.4 C 12.35 g/m*3 19.4 C 0 km/h
2084 08-06-2007 05:44:35 19.3 C 12.27 g/m*3 19.3 C 0 km/h
2085 08-06-2007 06:04:35 19.2 C 12.37 g/m*3 19.2 C 0 km/h
2086 08-06-2007 06:24:36 19.5 C 12.59 g/m*3 19.5 C 0 km/h
2087 08-06-2007 06:44:36 19.7 C 12.57 g/m*3 19.7 C 0 km/h
2088 08-06-2007 07:04:36 19.9 C 12.71 g/m*3 19.9 C 0 km/h
2089 08-06-2007 07:24:36 20.2 C 12.59 g/m*3 20.2 C 0 km/h
2090 08-06-2007 07:44:36 20.4 C 12.74 g/m*3 20.4 C 0 km/h
2091 08-06-2007 08:04:36 21 C 13.01 g/m*3 21 C 0 km/h
2092 08-06-2007 08:24:36 21.7 C 12.97 g/m*3 21.7 C 0 km/h
2093 08-06-2007 08:44:36 22.6 C 12.46 g/m*3 22.6 C 0 km/h
2094 08-06-2007 09:04:36 23.4 C 12.41 g/m*3 23.4 C 0 km/h
2095 08-06-2007 09:24:36 24.4 C 12.24 g/m*3 24.4 C 0 km/h
2096 08-06-2007 09:44:36 24.8 C 11.38 g/m*3 24.8 C 0 km/h
2097 08-06-2007 10:04:36 25.7 C 11.49 g/m*3 25.7 C 0 km/h
2098 08-06-2007 10:24:36 26.5 C 11.01 g/m*3 26.5 C 0 km/h
2099 08-06-2007 10:44:36 27.5 C 11.11 g/m*3 27.5 C 0 km/h
2100 08-06-2007 11:04:36 28.3 C 11.33 g/m*3 28.3 C 0 km/h
Sensor: Nr:Datum:Temp:Abs-Feuchte:Windchill:Wind:
Aussen-T/F 2101 08-06-2007 11:24:36 29.2 C 11.03 g/m*3 29.2 C 0 km/h
2102 08-06-2007 11:44:36 30.3 C 10.79 g/m*3 30.3 C 0 km/h
2103 08-06-2007 12:04:37 30.8 C 9.81 g/m*3 30.8 C 0 km/h
2104 08-06-2007 12:24:37 31.3 C 9.43 g/m*3 31.3 C 0 km/h
2105 08-06-2007 12:44:37 31.7 C 8.97 g/m*3 31.7 C 0 km/h
2106 08-06-2007 13:04:37 32 C 7.43 g/m*3 32 C 0 km/h
2107 08-06-2007 13:24:37 32.7 C 7.01 g/m*3 32.7 C 0 km/h
2108 08-06-2007 13:44:37 32.8 C 7.04 g/m*3 32.8 C 0 km/h
2109 08-06-2007 14:04:37 32.2 C 7.17 g/m*3 32.2 C 0 km/h
2110 08-06-2007 14:24:37 32.7 C 7.36 g/m*3 32.7 C 0 km/h
2111 08-06-2007 14:44:37 32.5 C 6.93 g/m*3 32.5 C 0 km/h
2112 08-06-2007 15:04:37 32.7 C 7.01 g/m*3 32.7 C 0 km/h
2113 08-06-2007 15:24:37 32.7 C 7.01 g/m*3 32.7 C 0 km/h
2114 08-06-2007 15:44:37 32.7 C 7.01 g/m*3 32.7 C 0 km/h
2115 08-06-2007 16:04:37 32.5 C 7.63 g/m*3 32.5 C 0 km/h
2116 08-06-2007 16:24:37 33.8 C 7.43 g/m*3 33.8 C 0 km/h
2117 08-06-2007 16:44:37 33.6 C 7.35 g/m*3 33.6 C 0 km/h
2118 08-06-2007 17:04:37 34.5 C 7.7 g/m*3 34.5 C 0 km/h
2119 08-06-2007 17:24:37 34.2 C 7.58 g/m*3 34.2 C 0 km/h
2120 08-06-2007 17:44:38 33.8 C 7.43 g/m*3 33.8 C 0 km/h
2121 08-06-2007 18:04:38 33.3 C 7.23 g/m*3 33.3 C 0 km/h
2122 08-06-2007 18:24:38 32.6 C 8.36 g/m*3 32.6 C 0 km/h
2123 08-06-2007 18:44:38 31.7 C 8.97 g/m*3 31.7 C 0 km/h
2124 08-06-2007 19:04:38 30.9 C 9.87 g/m*3 30.9 C 0 km/h
2125 08-06-2007 19:24:38 30.4 C 9.92 g/m*3 30.4 C 0 km/h
Sensor: Nr:Datum:Temp:Abs-Feuchte:Windchill:Wind:
Aussen-T/F 2126 08-06-2007 19:44:38 30.1 C 10.06 g/m*3 30.1 C 0 km/h
2127 08-06-2007 20:04:38 28.7 C 9.89 g/m*3 28.7 C 0 km/h
2128 08-06-2007 20:24:38 28.2 C 9.62 g/m*3 28.2 C 0 km/h
2129 08-06-2007 20:44:38 27.8 C 9.68 g/m*3 27.8 C 0 km/h
2130 08-06-2007 21:04:38 27.7 C 9.63 g/m*3 27.7 C 0 km/h
2131 08-06-2007 21:24:38 27.3 C 10.47 g/m*3 27.3 C 0 km/h
2132 08-06-2007 21:44:38 26.6 C 11.08 g/m*3 26.6 C 0 km/h
2133 08-06-2007 22:04:38 26.1 C 11.51 g/m*3 26.1 C 0 km/h
2134 08-06-2007 22:24:38 25.9 C 12.1 g/m*3 25.9 C 0 km/h
2135 08-06-2007 22:44:38 25.3 C 10.3 g/m*3 25.3 C 0 km/h
2136 08-06-2007 23:04:38 25.1 C 10.65 g/m*3 25.1 C 0 km/h
2137 08-06-2007 23:24:39 24.6 C 11.25 g/m*3 24.6 C 0 km/h
2138 08-06-2007 23:44:39 24.4 C 11.79 g/m*3 24.4 C 0 km/h
2139 09-06-2007 00:04:39 23.7 C 12.19 g/m*3 23.7 C 0 km/h
2140 09-06-2007 00:24:39 23.4 C 12.2 g/m*3 23.4 C 0 km/h
2141 09-06-2007 00:44:39 23 C 12.13 g/m*3 23 C 0 km/h
2142 09-06-2007 01:04:39 22.4 C 12.31 g/m*3 22.4 C 0 km/h
2143 09-06-2007 01:24:39 22.1 C 12.49 g/m*3 22.1 C 0 km/h
2144 09-06-2007 01:44:39 21.8 C 12.66 g/m*3 21.8 C 0 km/h
2145 09-06-2007 02:04:39 21.5 C 12.63 g/m*3 21.5 C 0 km/h
2146 09-06-2007 02:24:39 21.2 C 12.6 g/m*3 21.2 C 0 km/h
2147 09-06-2007 02:44:39 20.8 C 12.67 g/m*3 20.8 C 0 km/h
2148 09-06-2007 03:04:39 20.7 C 12.78 g/m*3 20.7 C 0 km/h
2149 09-06-2007 03:24:39 20.3 C 12.84 g/m*3 20.3 C 0 km/h
2150 09-06-2007 03:44:39 20.1 C 12.69 g/m*3 20.1 C 0 km/h
Sensor: Nr:Datum:Temp:Abs-Feuchte:Windchill:Wind:
Aussen-T/F 2151 09-06-2007 04:04:39 20.1 C 12.86 g/m*3 20.1 C 0 km/h
2152 09-06-2007 04:24:39 19.9 C 12.89 g/m*3 19.9 C 0 km/h
2153 09-06-2007 04:44:39 19.7 C 12.91 g/m*3 19.7 C 0 km/h
2154 09-06-2007 05:04:39 19.5 C 12.92 g/m*3 19.5 C 0 km/h
2155 09-06-2007 05:24:40 19.8 C 13.32 g/m*3 19.8 C 0 km/h
2156 09-06-2007 05:44:40 20.1 C 13.04 g/m*3 20.1 C 0 km/h
2157 09-06-2007 06:04:40 20.2 C 12.94 g/m*3 20.2 C 0 km/h
2158 09-06-2007 06:24:40 20.4 C 12.91 g/m*3 20.4 C 0 km/h
2159 09-06-2007 06:44:40 20.6 C 13.07 g/m*3 20.6 C 0 km/h
2160 09-06-2007 07:04:40 21 C 13.01 g/m*3 21 C 0 km/h
2161 09-06-2007 07:24:40 20.7 C 13.14 g/m*3 20.7 C 0 km/h
2162 09-06-2007 07:44:40 20.5 C 13.17 g/m*3 20.5 C 0 km/h
2163 09-06-2007 08:04:40 20.6 C 13.07 g/m*3 20.6 C 0 km/h
2164 09-06-2007 08:24:40 21.1 C 13.08 g/m*3 21.1 C 0 km/h
2165 09-06-2007 08:44:40 21.2 C 12.79 g/m*3 21.2 C 0 km/h
2166 09-06-2007 09:04:40 21.2 C 12.97 g/m*3 21.2 C 0 km/h
2167 09-06-2007 09:24:40 21.5 C 12.82 g/m*3 21.5 C 0 km/h
2168 09-06-2007 09:44:40 21.9 C 12.74 g/m*3 21.9 C 0 km/h
2169 09-06-2007 10:04:40 22.1 C 12.49 g/m*3 22.1 C 0 km/h
2170 09-06-2007 10:24:40 23 C 12.33 g/m*3 23 C 0 km/h
2171 09-06-2007 10:44:40 23.5 C 12.27 g/m*3 23.5 C 0 km/h
2172 09-06-2007 11:04:41 22.9 C 12.67 g/m*3 22.9 C 0 km/h
2173 09-06-2007 11:24:41 23.4 C 12.2 g/m*3 23.4 C 0 km/h
2174 09-06-2007 11:44:41 23.7 C 12.41 g/m*3 23.7 C 0 km/h
2175 09-06-2007 12:04:41 24.7 C 12.22 g/m*3 24.7 C 0 km/h
Sensor: Nr:Datum:Temp:Abs-Feuchte:Windchill:Wind:
Aussen-T/F 2176 09-06-2007 12:24:41 25.4 C 12.01 g/m*3 25.4 C 0 km/h
2177 09-06-2007 12:44:41 25.9 C 11.62 g/m*3 25.9 C 0 km/h
2178 09-06-2007 13:04:41 27 C 11.32 g/m*3 27 C 0 km/h
2179 09-06-2007 13:24:41 28.8 C 11.08 g/m*3 28.8 C 0 km/h
2180 09-06-2007 13:44:41 28.4 C 11.12 g/m*3 28.4 C 0 km/h
2181 09-06-2007 14:04:41 27.2 C 11.19 g/m*3 27.2 C 0 km/h
2182 09-06-2007 14:24:41 26.9 C 11.77 g/m*3 26.9 C 0 km/h
2183 09-06-2007 14:44:41 25.2 C 11.64 g/m*3 25.2 C 0 km/h
2184 09-06-2007 15:04:41 24.5 C 11.86 g/m*3 24.5 C 0 km/h
2185 09-06-2007 15:24:41 23.6 C 12.12 g/m*3 23.6 C 0 km/h
2186 09-06-2007 15:44:41 23.2 C 11.85 g/m*3 23.2 C 0 km/h
2187 09-06-2007 16:04:41 23.3 C 11.71 g/m*3 23.3 C 0 km/h
2188 09-06-2007 16:24:41 23.8 C 11.62 g/m*3 23.8 C 0 km/h
2189 09-06-2007 16:44:42 24.5 C 11.64 g/m*3 24.5 C 0 km/h
2190 09-06-2007 17:04:42 24.5 C 11.19 g/m*3 24.5 C 0 km/h
2191 09-06-2007 17:24:42 24.9 C 11.45 g/m*3 24.9 C 0 km/h
2192 09-06-2007 17:44:42 26.8 C 11.2 g/m*3 26.8 C 0 km/h
2193 09-06-2007 18:04:42 26.2 C 11.08 g/m*3 26.2 C 0 km/h
2194 09-06-2007 18:24:42 28 C 10.88 g/m*3 28 C 0 km/h
2195 09-06-2007 18:44:42 27.8 C 10.76 g/m*3 27.8 C 0 km/h
2196 09-06-2007 19:04:42 29.9 C 10.56 g/m*3 29.9 C 0 km/h
2197 09-06-2007 19:24:42 30.2 C 9.81 g/m*3 30.2 C 0 km/h
2198 09-06-2007 19:44:42 29.7 C 10.44 g/m*3 29.7 C 0 km/h
2199 09-06-2007 20:04:42 27.6 C 10.64 g/m*3 27.6 C 0 km/h
2200 09-06-2007 20:24:42 25.6 C 11.19 g/m*3 25.6 C 0 km/h
Sensor: Nr:Datum:Temp:Abs-Feuchte:Windchill:Wind:
Aussen-T/F 2201 09-06-2007 20:44:42 24.1 C 11.38 g/m*3 24.1 C 0 km/h
2202 09-06-2007 21:04:42 22.3 C 11.26 g/m*3 22.3 C 0 km/h
2203 09-06-2007 21:24:42 21.8 C 11.32 g/m*3 21.8 C 0 km/h
2204 09-06-2007 21:44:42 21.6 C 11.19 g/m*3 21.6 C 0 km/h
2205 09-06-2007 22:04:42 21.2 C 11.12 g/m*3 21.2 C 0 km/h
2206 09-06-2007 22:24:43 20.8 C 11.23 g/m*3 20.8 C 0 km/h
2207 09-06-2007 22:44:43 20.5 C 11.21 g/m*3 20.5 C 0 km/h
2208 09-06-2007 23:04:43 20.3 C 11.26 g/m*3 20.3 C 0 km/h
2209 09-06-2007 23:24:43 20.1 C 11.3 g/m*3 20.1 C 0 km/h
2210 09-06-2007 23:44:43 19.4 C 11.35 g/m*3 19.4 C 0 km/h
2211 10-06-2007 00:04:43 19.3 C 11.44 g/m*3 19.3 C 0 km/h
2212 10-06-2007 00:24:43 18.9 C 11.5 g/m*3 18.9 C 0 km/h
2213 10-06-2007 00:44:43 18.6 C 11.3 g/m*3 18.6 C 0 km/h
2214 10-06-2007 01:04:43 18.3 C 11.41 g/m*3 18.3 C 0 km/h
2215 10-06-2007 01:24:43 18.1 C 11.43 g/m*3 18.1 C 0 km/h
2216 10-06-2007 01:44:43 17.8 C 11.69 g/m*3 17.8 C 0 km/h
2217 10-06-2007 02:04:43 17.5 C 11.48 g/m*3 17.5 C 0 km/h
2218 10-06-2007 02:24:43 17.5 C 11.48 g/m*3 17.5 C 0 km/h
2219 10-06-2007 02:44:43 16.9 C 11.51 g/m*3 16.9 C 0 km/h
2220 10-06-2007 03:04:43 16.8 C 11.44 g/m*3 16.8 C 0 km/h
2221 10-06-2007 03:24:43 16.6 C 11.3 g/m*3 16.6 C 0 km/h
2222 10-06-2007 03:44:43 16.4 C 11.31 g/m*3 16.4 C 0 km/h
2223 10-06-2007 04:04:43 16.3 C 11.38 g/m*3 16.3 C 0 km/h
2224 10-06-2007 04:24:44 16.1 C 11.38 g/m*3 16.1 C 0 km/h
2225 10-06-2007 04:44:44 15.9 C 11.24 g/m*3 15.9 C 0 km/h
Sensor: Nr:Datum:Temp:Abs-Feuchte:Windchill:Wind:
Aussen-T/F 2226 10-06-2007 05:04:44 15.8 C 11.17 g/m*3 15.8 C 0 km/h
2227 10-06-2007 05:24:44 15.6 C 11.04 g/m*3 15.6 C 0 km/h
2228 10-06-2007 05:44:44 15.6 C 11.04 g/m*3 15.6 C 0 km/h
2229 10-06-2007 06:04:44 15.6 C 11.17 g/m*3 15.6 C 0 km/h
2230 10-06-2007 06:24:44 16 C 11.31 g/m*3 16 C 0 km/h
2231 10-06-2007 06:44:44 16.5 C 11.37 g/m*3 16.5 C 0 km/h
2232 10-06-2007 07:04:44 17.1 C 11.5 g/m*3 17.1 C 0 km/h
2233 10-06-2007 07:24:44 17.5 C 11.63 g/m*3 17.5 C 0 km/h
2234 10-06-2007 07:44:44 17.9 C 11.76 g/m*3 17.9 C 0 km/h
2235 10-06-2007 08:04:44 18 C 11.52 g/m*3 18 C 0 km/h
2236 10-06-2007 08:24:44 18.4 C 11.64 g/m*3 18.4 C 0 km/h
2237 10-06-2007 08:44:44 18.5 C 11.87 g/m*3 18.5 C 0 km/h
2238 10-06-2007 09:04:44 18.9 C 11.83 g/m*3 18.9 C 0 km/h
2239 10-06-2007 09:24:44 19.3 C 11.78 g/m*3 19.3 C 0 km/h
2240 10-06-2007 09:44:44 19.8 C 11.61 g/m*3 19.8 C 0 km/h
2241 10-06-2007 10:04:45 20.8 C 11.41 g/m*3 20.8 C 0 km/h
2242 10-06-2007 10:24:45 22.5 C 11.58 g/m*3 22.5 C 0 km/h
2243 10-06-2007 10:44:45 23.1 C 11.37 g/m*3 23.1 C 0 km/h
2244 10-06-2007 11:04:45 23.6 C 11.27 g/m*3 23.6 C 0 km/h
2245 10-06-2007 11:24:45 24 C 11.53 g/m*3 24 C 0 km/h
2246 10-06-2007 11:44:45 25 C 11.05 g/m*3 25 C 0 km/h
2247 10-06-2007 12:04:45 24.8 C 11.15 g/m*3 24.8 C 0 km/h
2248 10-06-2007 12:24:45 27.2 C 10.67 g/m*3 27.2 C 0 km/h
2249 10-06-2007 12:44:45 28.9 C 10.57 g/m*3 28.9 C 0 km/h
2250 10-06-2007 13:04:45 30.3 C 10.48 g/m*3 30.3 C 0 km/h
Sensor: Nr:Datum:Temp:Abs-Feuchte:Windchill:Wind:
Aussen-T/F 2251 10-06-2007 13:24:45 31.3 C 9.11 g/m*3 31.3 C 0 km/h
2252 10-06-2007 13:44:45 29.2 C 9.87 g/m*3 29.2 C 0 km/h
2253 10-06-2007 14:04:45 30 C 9.7 g/m*3 30 C 0 km/h
2254 10-06-2007 14:24:45 28.5 C 10.62 g/m*3 28.5 C 0 km/h
2255 10-06-2007 14:44:45 28 C 10.33 g/m*3 28 C 0 km/h
2256 10-06-2007 15:04:45 27.6 C 10.64 g/m*3 27.6 C 0 km/h
2257 10-06-2007 15:24:45 28.3 C 11.33 g/m*3 28.3 C 0 km/h
2258 10-06-2007 15:44:46 28.2 C 11 g/m*3 28.2 C 0 km/h
2259 10-06-2007 16:04:46 28.2 C 10.17 g/m*3 28.2 C 0 km/h
2260 10-06-2007 16:24:46 30.5 C 10.28 g/m*3 30.5 C 0 km/h
2261 10-06-2007 16:44:46 30.3 C 10.17 g/m*3 30.3 C 0 km/h
2262 10-06-2007 17:04:46 30.6 C 10.34 g/m*3 30.6 C 0 km/h
2263 10-06-2007 17:24:46 29.2 C 10.45 g/m*3 29.2 C 0 km/h
2264 10-06-2007 17:44:46 28 C 10.61 g/m*3 28 C 0 km/h
2265 10-06-2007 18:04:46 20.2 C 13.99 g/m*3 20.2 C 0 km/h
2266 10-06-2007 18:24:46 20.4 C 15.39 g/m*3 20.4 C 0 km/h
2267 10-06-2007 18:44:46 20.7 C 15.84 g/m*3 20.7 C 0 km/h
2268 10-06-2007 19:04:46 21.3 C 16.4 g/m*3 21.3 C 0 km/h
2269 10-06-2007 19:24:46 20.7 C 15.48 g/m*3 20.7 C 0 km/h
2270 10-06-2007 19:44:46 20.1 C 14.78 g/m*3 20.1 C 0 km/h
2271 10-06-2007 20:04:46 20.3 C 14.77 g/m*3 20.3 C 0 km/h
2272 10-06-2007 20:24:46 20.2 C 14.69 g/m*3 20.2 C 0 km/h
2273 10-06-2007 20:44:46 20.1 C 14.43 g/m*3 20.1 C 0 km/h
2274 10-06-2007 21:04:46 19.7 C 13.75 g/m*3 19.7 C 0 km/h
2275 10-06-2007 21:24:46 19.3 C 13.93 g/m*3 19.3 C 0 km/h
Sensor: Nr:Datum:Temp:Abs-Feuchte:Windchill:Wind:
Aussen-T/F 2276 10-06-2007 21:44:47 19.2 C 13.85 g/m*3 19.2 C 0 km/h
2277 10-06-2007 22:04:47 19 C 13.85 g/m*3 19 C 0 km/h
2278 10-06-2007 22:24:47 18.8 C 14.01 g/m*3 18.8 C 0 km/h
2279 10-06-2007 22:44:47 18.7 C 13.93 g/m*3 18.7 C 0 km/h
2280 10-06-2007 23:04:47 18.5 C 13.77 g/m*3 18.5 C 0 km/h
2281 10-06-2007 23:24:47 18.2 C 13.52 g/m*3 18.2 C 0 km/h
2282 10-06-2007 23:44:47 17.8 C 13.2 g/m*3 17.8 C 0 km/h
2283 11-06-2007 00:04:47 17.6 C 12.75 g/m*3 17.6 C 0 km/h
2284 11-06-2007 00:24:47 17.5 C 12.37 g/m*3 17.5 C 0 km/h
2285 11-06-2007 00:44:47 17.4 C 12.3 g/m*3 17.4 C 0 km/h
2286 11-06-2007 01:04:47 17.5 C 12.37 g/m*3 17.5 C 0 km/h
2287 11-06-2007 01:24:47 17.3 C 12.23 g/m*3 17.3 C 0 km/h
2288 11-06-2007 01:44:47 16.8 C 12.01 g/m*3 16.8 C 0 km/h
2289 11-06-2007 02:04:47 16.9 C 12.08 g/m*3 16.9 C 0 km/h
2290 11-06-2007 02:24:47 16.8 C 12.01 g/m*3 16.8 C 0 km/h
2291 11-06-2007 02:44:47 17 C 12.01 g/m*3 17 C 0 km/h
2292 11-06-2007 03:04:47 16.7 C 11.8 g/m*3 16.7 C 0 km/h
2293 11-06-2007 03:24:48 16.2 C 11.58 g/m*3 16.2 C 0 km/h
2294 11-06-2007 03:44:48 16.1 C 11.51 g/m*3 16.1 C 0 km/h
2295 11-06-2007 04:04:48 16 C 11.44 g/m*3 16 C 0 km/h
2296 11-06-2007 04:24:48 15.8 C 11.58 g/m*3 15.8 C 0 km/h
2297 11-06-2007 04:44:48 15.6 C 11.44 g/m*3 15.6 C 0 km/h
2298 11-06-2007 05:04:48 15.3 C 11.23 g/m*3 15.3 C 0 km/h
2299 11-06-2007 05:24:48 15.2 C 11.29 g/m*3 15.2 C 0 km/h
2300 11-06-2007 05:44:48 15 C 11.16 g/m*3 15 C 0 km/h
Sensor: Nr:Datum:Temp:Abs-Feuchte:Windchill:Wind:
Aussen-T/F 2301 11-06-2007 06:04:48 15.2 C 11.29 g/m*3 15.2 C 0 km/h
2302 11-06-2007 06:24:48 15.4 C 11.43 g/m*3 15.4 C 0 km/h
2303 11-06-2007 06:44:48 15.6 C 11.57 g/m*3 15.6 C 0 km/h
2304 11-06-2007 07:04:48 15.2 C 11.42 g/m*3 15.2 C 0 km/h
2305 11-06-2007 07:24:48 15.9 C 11.92 g/m*3 15.9 C 0 km/h
2306 11-06-2007 07:44:48 16.5 C 12.08 g/m*3 16.5 C 0 km/h
2307 11-06-2007 08:04:48 17.6 C 12.3 g/m*3 17.6 C 0 km/h
2308 11-06-2007 08:24:48 18.1 C 11.43 g/m*3 18.1 C 0 km/h
2309 11-06-2007 08:44:48 18.1 C 11.74 g/m*3 18.1 C 0 km/h
2310 11-06-2007 09:04:49 18.7 C 11.85 g/m*3 18.7 C 0 km/h
2311 11-06-2007 09:24:49 18.4 C 11.64 g/m*3 18.4 C 0 km/h
2312 11-06-2007 09:44:49 19.4 C 12.18 g/m*3 19.4 C 0 km/h
2313 11-06-2007 10:04:49 20.3 C 12.14 g/m*3 20.3 C 0 km/h
2314 11-06-2007 10:24:49 20.4 C 12.21 g/m*3 20.4 C 0 km/h
2315 11-06-2007 10:44:49 19.8 C 12.64 g/m*3 19.8 C 0 km/h
2316 11-06-2007 11:04:57 19.3 C 13.1 g/m*3 19.3 C 0 km/h
2317 11-06-2007 11:24:57 20 C 13.65 g/m*3 20 C 0 km/h
2318 11-06-2007 11:44:02 21 C 13.37 g/m*3 21 C 0 km/h
2319 11-06-2007 12:04:02 23.3 C 11.92 g/m*3 23.3 C 0 km/h
2320 11-06-2007 12:24:02 24.5 C 11.86 g/m*3 24.5 C 0 km/h
2321 11-06-2007 12:44:02 24.2 C 12.54 g/m*3 24.2 C 0 km/h
2322 11-06-2007 13:04:02 22.9 C 12.47 g/m*3 22.9 C 0 km/h
2323 11-06-2007 13:24:01 22.6 C 12.86 g/m*3 22.6 C 0 km/h
2324 11-06-2007 13:44:02 22.1 C 12.88 g/m*3 22.1 C 0 km/h
2325 11-06-2007 14:04:02 22 C 13.39 g/m*3 22 C 0 km/h
Sensor: Nr:Datum:Temp:Abs-Feuchte:Windchill:Wind:
Aussen-T/F 2326 11-06-2007 14:24:02 22.1 C 13.27 g/m*3 22.1 C 0 km/h
2327 11-06-2007 14:44:03 22.7 C 12.53 g/m*3 22.7 C 0 km/h
2328 11-06-2007 15:04:02 25 C 11.28 g/m*3 25 C 0 km/h
2329 11-06-2007 15:24:02 26.9 C 11.52 g/m*3 26.9 C 0 km/h
2330 11-06-2007 15:44:02 29.4 C 9.1 g/m*3 29.4 C 0 km/h
2331 11-06-2007 16:10:02 28.8 C 9.66 g/m*3 28.8 C 0 km/h
2332 11-06-2007 16:22:02 28.6 C 9.55 g/m*3 28.6 C 0 km/h
2333 11-06-2007 16:34:03 28.5 C 9.5 g/m*3 28.5 C 0 km/h
2334 11-06-2007 16:46:02 28.4 C 9.17 g/m*3 28.4 C 0 km/h
2335 11-06-2007 16:58:02 27.7 C 9.9 g/m*3 27.7 C 0 km/h
2336 11-06-2007 17:10:02 27.3 C 10.47 g/m*3 27.3 C 0 km/h
2337 11-06-2007 17:22:02 27 C 11.07 g/m*3 27 C 0 km/h
2338 11-06-2007 17:34:02 26.6 C 11.33 g/m*3 26.6 C 0 km/h
2339 11-06-2007 17:46:02 27 C 11.07 g/m*3 27 C 0 km/h
2340 11-06-2007 17:58:02 28.5 C 9.78 g/m*3 28.5 C 0 km/h
2341 11-06-2007 18:10:02 29.3 C 9.63 g/m*3 29.3 C 0 km/h
2342 11-06-2007 18:22:01 30.1 C 9.45 g/m*3 30.1 C 0 km/h
2343 11-06-2007 18:34:02 30.4 C 8.99 g/m*3 30.4 C 0 km/h
2344 11-06-2007 18:46:02 30.1 C 9.15 g/m*3 30.1 C 0 km/h
2345 11-06-2007 18:58:02 29.9 C 9.05 g/m*3 29.9 C 0 km/h
2346 11-06-2007 19:10:02 29.8 C 9 g/m*3 29.8 C 0 km/h
2347 11-06-2007 19:22:01 29.3 C 9.34 g/m*3 29.3 C 0 km/h
2348 11-06-2007 19:34:03 28 C 10.61 g/m*3 28 C 0 km/h
2349 11-06-2007 19:46:02 27.1 C 10.87 g/m*3 27.1 C 0 km/h
2350 11-06-2007 19:58:02 25.7 C 11.25 g/m*3 25.7 C 0 km/h
Sensor: Nr:Datum:Temp:Abs-Feuchte:Windchill:Wind:
Aussen-T/F 2351 11-06-2007 20:10:03 26.3 C 11.14 g/m*3 26.3 C 0 km/h
2352 11-06-2007 20:22:02 26.9 C 11.26 g/m*3 26.9 C 0 km/h
2353 11-06-2007 20:34:03 25.6 C 11.43 g/m*3 25.6 C 0 km/h
2354 11-06-2007 20:46:02 24.3 C 11.06 g/m*3 24.3 C 0 km/h
2355 11-06-2007 20:58:02 24.2 C 11 g/m*3 24.2 C 0 km/h
2356 11-06-2007 21:10:02 23.7 C 10.69 g/m*3 23.7 C 0 km/h
2357 11-06-2007 21:22:02 23.3 C 10.45 g/m*3 23.3 C 0 km/h
2358 11-06-2007 21:34:02 23 C 10.48 g/m*3 23 C 0 km/h
2359 11-06-2007 21:46:02 22.5 C 10.59 g/m*3 22.5 C 0 km/h
2360 11-06-2007 21:58:02 21.8 C 10.55 g/m*3 21.8 C 0 km/h
2361 11-06-2007 22:10:02 21.5 C 10.18 g/m*3 21.5 C 0 km/h
2362 11-06-2007 22:22:03 21.3 C 10.44 g/m*3 21.3 C 0 km/h
2363 11-06-2007 22:34:02 21.2 C 10.38 g/m*3 21.2 C 0 km/h
2364 11-06-2007 22:46:02 20.9 C 10.56 g/m*3 20.9 C 0 km/h
2365 11-06-2007 22:58:02 20.7 C 10.8 g/m*3 20.7 C 0 km/h
2366 11-06-2007 23:10:02 20.4 C 10.61 g/m*3 20.4 C 0 km/h
2367 11-06-2007 23:22:02 20.2 C 10.84 g/m*3 20.2 C 0 km/h
2368 11-06-2007 23:34:02 20.1 C 11.13 g/m*3 20.1 C 0 km/h
2369 11-06-2007 23:46:01 20 C 11.06 g/m*3 20 C 0 km/h
2370 11-06-2007 23:58:01 20.2 C 11.02 g/m*3 20.2 C 0 km/h
2371 12-06-2007 00:10:03 20.1 C 10.95 g/m*3 20.1 C 0 km/h
2372 12-06-2007 00:22:02 20 C 10.89 g/m*3 20 C 0 km/h
2373 12-06-2007 00:34:02 19.8 C 11.1 g/m*3 19.8 C 0 km/h
2374 12-06-2007 00:46:03 19.8 C 11.27 g/m*3 19.8 C 0 km/h
2375 12-06-2007 00:58:03 19.5 C 11.24 g/m*3 19.5 C 0 km/h
Sensor: Nr:Datum:Temp:Abs-Feuchte:Windchill:Wind:
Aussen-T/F 2376 12-06-2007 01:10:03 19.3 C 11.28 g/m*3 19.3 C 0 km/h
2377 12-06-2007 01:22:03 19.2 C 11.38 g/m*3 19.2 C 0 km/h
2378 12-06-2007 01:34:03 18.9 C 11.34 g/m*3 18.9 C 0 km/h
2379 12-06-2007 01:46:02 18.7 C 11.37 g/m*3 18.7 C 0 km/h
2380 12-06-2007 01:58:02 18.5 C 11.39 g/m*3 18.5 C 0 km/h
2381 12-06-2007 02:10:02 18.2 C 11.35 g/m*3 18.2 C 0 km/h
2382 12-06-2007 02:22:03 18.1 C 11.28 g/m*3 18.1 C 0 km/h
2383 12-06-2007 02:34:02 18 C 11.37 g/m*3 18 C 0 km/h
2384 12-06-2007 02:47:04 17.8 C 11.54 g/m*3 17.8 C 0 km/h
2385 12-06-2007 02:59:04 17.8 C 11.38 g/m*3 17.8 C 0 km/h
2386 12-06-2007 03:11:04 17.7 C 11.47 g/m*3 17.7 C 0 km/h
2387 12-06-2007 03:23:04 17.7 C 11.47 g/m*3 17.7 C 0 km/h
2388 12-06-2007 03:35:03 17.6 C 11.55 g/m*3 17.6 C 0 km/h
2389 12-06-2007 03:47:03 17.2 C 11.42 g/m*3 17.2 C 0 km/h
2390 12-06-2007 03:59:03 17 C 11.29 g/m*3 17 C 0 km/h
2391 12-06-2007 04:11:02 16.9 C 11.51 g/m*3 16.9 C 0 km/h
2392 12-06-2007 04:23:02 16.7 C 11.37 g/m*3 16.7 C 0 km/h
2393 12-06-2007 04:35:02 16.6 C 11.44 g/m*3 16.6 C 0 km/h
2394 12-06-2007 04:47:02 16.6 C 11.44 g/m*3 16.6 C 0 km/h
2395 12-06-2007 04:59:03 16.4 C 11.45 g/m*3 16.4 C 0 km/h
2396 12-06-2007 05:11:02 16.2 C 11.31 g/m*3 16.2 C 0 km/h
2397 12-06-2007 05:23:03 16.1 C 11.38 g/m*3 16.1 C 0 km/h
2398 12-06-2007 05:35:02 16.1 C 11.38 g/m*3 16.1 C 0 km/h
2399 12-06-2007 05:47:01 16.1 C 11.38 g/m*3 16.1 C 0 km/h
2400 12-06-2007 05:59:01 16.2 C 11.31 g/m*3 16.2 C 0 km/h
Sensor: Nr:Datum:Temp:Abs-Feuchte:Windchill:Wind:
Aussen-T/F 2401 12-06-2007 06:11:02 16.2 C 11.17 g/m*3 16.2 C 0 km/h
2402 12-06-2007 06:23:02 16.4 C 11.31 g/m*3 16.4 C 0 km/h
2403 12-06-2007 06:35:01 16.6 C 11.3 g/m*3 16.6 C 0 km/h
2404 12-06-2007 06:47:02 16.7 C 11.23 g/m*3 16.7 C 0 km/h
2405 12-06-2007 06:59:02 17.2 C 11.28 g/m*3 17.2 C 0 km/h
2406 12-06-2007 07:11:02 18 C 11.37 g/m*3 18 C 0 km/h
2407 12-06-2007 07:23:01 18 C 11.21 g/m*3 18 C 0 km/h
2408 12-06-2007 07:35:02 18.2 C 11.19 g/m*3 18.2 C 0 km/h
2409 12-06-2007 07:47:01 18 C 11.21 g/m*3 18 C 0 km/h
2410 12-06-2007 07:59:01 18.2 C 11.5 g/m*3 18.2 C 0 km/h
2411 12-06-2007 08:11:02 18.4 C 11.64 g/m*3 18.4 C 0 km/h
2412 12-06-2007 08:23:01 18.7 C 11.69 g/m*3 18.7 C 0 km/h
2413 12-06-2007 08:35:01 18.7 C 11.53 g/m*3 18.7 C 0 km/h
2414 12-06-2007 08:47:03 19.3 C 11.44 g/m*3 19.3 C 0 km/h
2415 12-06-2007 08:59:03 19.5 C 11.58 g/m*3 19.5 C 0 km/h
2416 12-06-2007 09:11:02 19.9 C 11.68 g/m*3 19.9 C 0 km/h
2417 12-06-2007 09:23:02 19.8 C 11.61 g/m*3 19.8 C 0 km/h
2418 12-06-2007 09:35:02 19.7 C 11.72 g/m*3 19.7 C 0 km/h
2419 12-06-2007 09:47:02 20 C 11.58 g/m*3 20 C 0 km/h
2420 12-06-2007 09:59:03 20.7 C 11.7 g/m*3 20.7 C 0 km/h
2421 12-06-2007 10:11:02 20.9 C 11.84 g/m*3 20.9 C 0 km/h
2422 12-06-2007 10:23:02 20.9 C 12.02 g/m*3 20.9 C 0 km/h
2423 12-06-2007 10:35:02 20.7 C 11.88 g/m*3 20.7 C 0 km/h
2424 12-06-2007 10:47:01 20.9 C 12.2 g/m*3 20.9 C 0 km/h
2425 12-06-2007 10:59:01 21.3 C 11.93 g/m*3 21.3 C 0 km/h
Sensor: Nr:Datum:Temp:Abs-Feuchte:Windchill:Wind:
Aussen-T/F 2426 12-06-2007 11:11:02 21.7 C 12.02 g/m*3 21.7 C 0 km/h
2427 12-06-2007 11:23:01 21.8 C 12.09 g/m*3 21.8 C 0 km/h
2428 12-06-2007 11:35:02 21.8 C 12.09 g/m*3 21.8 C 0 km/h
2429 12-06-2007 11:47:02 22.6 C 12.05 g/m*3 22.6 C 0 km/h
2430 12-06-2007 11:59:02 22.8 C 11.79 g/m*3 22.8 C 0 km/h
2431 12-06-2007 12:11:02 22.5 C 11.98 g/m*3 22.5 C 0 km/h
2432 12-06-2007 12:23:01 22.3 C 11.85 g/m*3 22.3 C 0 km/h
2433 12-06-2007 12:35:02 22.6 C 11.85 g/m*3 22.6 C 0 km/h
2434 12-06-2007 12:47:01 23.4 C 11.78 g/m*3 23.4 C 0 km/h
2435 12-06-2007 12:59:01 24.1 C 11.6 g/m*3 24.1 C 0 km/h
2436 12-06-2007 13:11:02 25.9 C 11.62 g/m*3 25.9 C 0 km/h
2437 12-06-2007 13:23:02 27.5 C 10.85 g/m*3 27.5 C 0 km/h
2438 12-06-2007 13:35:01 26.3 C 10.64 g/m*3 26.3 C 0 km/h
2439 12-06-2007 13:47:02 26.9 C 11.01 g/m*3 26.9 C 0 km/h
2440 12-06-2007 13:59:02 25.1 C 11.11 g/m*3 25.1 C 0 km/h
2441 12-06-2007 14:11:02 25.1 C 10.88 g/m*3 25.1 C 0 km/h
2442 12-06-2007 14:23:03 24.6 C 11.48 g/m*3 24.6 C 0 km/h
2443 12-06-2007 14:35:02 26.5 C 11.51 g/m*3 26.5 C 0 km/h
2444 12-06-2007 14:47:03 27.5 C 10.58 g/m*3 27.5 C 0 km/h
2445 12-06-2007 14:59:03 27.4 C 10.79 g/m*3 27.4 C 0 km/h
2446 12-06-2007 15:11:03 28.2 C 11 g/m*3 28.2 C 0 km/h
2447 12-06-2007 15:23:02 27.1 C 11.13 g/m*3 27.1 C 0 km/h
2448 12-06-2007 15:35:02 25.1 C 11.11 g/m*3 25.1 C 0 km/h
2449 12-06-2007 15:47:02 22 C 12.62 g/m*3 22 C 0 km/h
2450 12-06-2007 15:59:02 20.2 C 13.46 g/m*3 20.2 C 0 km/h
Sensor: Nr:Datum:Temp:Abs-Feuchte:Windchill:Wind:
Aussen-T/F 2451 12-06-2007 16:11:03 20.4 C 14.51 g/m*3 20.4 C 0 km/h
2452 12-06-2007 16:23:03 20 C 14 g/m*3 20 C 0 km/h
2453 12-06-2007 16:35:03 20.2 C 13.46 g/m*3 20.2 C 0 km/h
2454 12-06-2007 16:47:02 20.4 C 13.98 g/m*3 20.4 C 0 km/h
2455 12-06-2007 16:59:02 19.8 C 14.01 g/m*3 19.8 C 0 km/h
2456 12-06-2007 17:11:02 20.4 C 14.86 g/m*3 20.4 C 0 km/h
2457 12-06-2007 17:23:03 21.1 C 15.48 g/m*3 21.1 C 0 km/h
2458 12-06-2007 17:35:02 21 C 14.84 g/m*3 21 C 0 km/h
2459 12-06-2007 17:47:01 21.1 C 14.74 g/m*3 21.1 C 0 km/h
2460 12-06-2007 17:59:01 22 C 14.17 g/m*3 22 C 0 km/h
2461 12-06-2007 18:11:02 21.6 C 12.33 g/m*3 21.6 C 0 km/h
2462 12-06-2007 18:23:02 21.1 C 11.61 g/m*3 21.1 C 0 km/h
2463 12-06-2007 18:35:02 21.3 C 12.12 g/m*3 21.3 C 0 km/h
2464 12-06-2007 18:47:02 21.6 C 12.33 g/m*3 21.6 C 0 km/h
2465 12-06-2007 18:59:03 21.9 C 11.77 g/m*3 21.9 C 0 km/h
2466 12-06-2007 19:11:02 21.5 C 11.5 g/m*3 21.5 C 0 km/h
2467 12-06-2007 19:23:02 21.5 C 11.31 g/m*3 21.5 C 0 km/h
2468 12-06-2007 19:35:02 21.9 C 11.19 g/m*3 21.9 C 0 km/h
2469 12-06-2007 19:47:03 22.4 C 11.32 g/m*3 22.4 C 0 km/h
2470 12-06-2007 19:59:03 22.2 C 10.6 g/m*3 22.2 C 0 km/h
2471 12-06-2007 20:11:03 22 C 10.67 g/m*3 22 C 0 km/h
2472 12-06-2007 20:23:02 21.3 C 10.62 g/m*3 21.3 C 0 km/h
2473 12-06-2007 20:35:03 20.8 C 10.5 g/m*3 20.8 C 0 km/h
2474 12-06-2007 20:47:02 20.7 C 10.8 g/m*3 20.7 C 0 km/h
2475 12-06-2007 20:59:02 20.3 C 10.55 g/m*3 20.3 C 0 km/h
Sensor: Nr:Datum:Temp:Abs-Feuchte:Windchill:Wind:
Aussen-T/F 2476 12-06-2007 21:11:02 19.9 C 10.48 g/m*3 19.9 C 0 km/h
2477 12-06-2007 21:23:02 19.8 C 10.59 g/m*3 19.8 C 0 km/h
2478 12-06-2007 21:35:02 19.7 C 10.87 g/m*3 19.7 C 0 km/h
2479 12-06-2007 21:47:02 19.6 C 10.97 g/m*3 19.6 C 0 km/h
2480 12-06-2007 21:59:02 19.5 C 11.08 g/m*3 19.5 C 0 km/h
2481 12-06-2007 22:11:01 19.1 C 11.15 g/m*3 19.1 C 0 km/h
2482 12-06-2007 22:23:02 18.6 C 10.98 g/m*3 18.6 C 0 km/h
2483 12-06-2007 22:35:02 18.1 C 10.97 g/m*3 18.1 C 0 km/h
2484 12-06-2007 22:47:02 17.8 C 11.08 g/m*3 17.8 C 0 km/h
2485 12-06-2007 22:59:02 17.5 C 11.18 g/m*3 17.5 C 0 km/h
2486 12-06-2007 23:11:02 17.2 C 11.13 g/m*3 17.2 C 0 km/h
2487 12-06-2007 23:23:02 17 C 11.14 g/m*3 17 C 0 km/h
2488 12-06-2007 23:35:03 16.7 C 11.08 g/m*3 16.7 C 0 km/h
2489 12-06-2007 23:47:02 16.6 C 11.16 g/m*3 16.6 C 0 km/h
2490 12-06-2007 23:59:02 16.3 C 10.96 g/m*3 16.3 C 0 km/h
2491 13-06-2007 00:11:02 16.1 C 10.97 g/m*3 16.1 C 0 km/h
2492 13-06-2007 00:23:03 15.9 C 10.97 g/m*3 15.9 C 0 km/h
2493 13-06-2007 00:35:03 15.9 C 10.97 g/m*3 15.9 C 0 km/h
2494 13-06-2007 00:47:02 15.7 C 10.84 g/m*3 15.7 C 0 km/h
2495 13-06-2007 00:59:02 15.8 C 11.17 g/m*3 15.8 C 0 km/h
2496 13-06-2007 01:11:02 15.5 C 10.97 g/m*3 15.5 C 0 km/h
2497 13-06-2007 01:23:02 15.4 C 10.9 g/m*3 15.4 C 0 km/h
2498 13-06-2007 01:35:01 15.4 C 11.04 g/m*3 15.4 C 0 km/h
2499 13-06-2007 01:47:02 15.4 C 11.17 g/m*3 15.4 C 0 km/h
2500 13-06-2007 01:59:02 15.4 C 11.17 g/m*3 15.4 C 0 km/h
Sensor: Nr:Datum:Temp:Abs-Feuchte:Windchill:Wind:
Aussen-T/F 2501 13-06-2007 02:11:02 15.6 C 11.17 g/m*3 15.6 C 0 km/h
2502 13-06-2007 02:23:02 15.6 C 11.3 g/m*3 15.6 C 0 km/h
2503 13-06-2007 02:35:02 15.6 C 11.44 g/m*3 15.6 C 0 km/h
2504 13-06-2007 02:48:03 15.5 C 11.37 g/m*3 15.5 C 0 km/h
2505 13-06-2007 03:00:03 15.4 C 11.17 g/m*3 15.4 C 0 km/h
2506 13-06-2007 03:12:03 15.2 C 11.03 g/m*3 15.2 C 0 km/h
2507 13-06-2007 03:24:03 14.9 C 11.09 g/m*3 14.9 C 0 km/h
2508 13-06-2007 03:36:03 14.8 C 11.15 g/m*3 14.8 C 0 km/h
2509 13-06-2007 03:48:03 14.8 C 11.27 g/m*3 14.8 C 0 km/h
2510 13-06-2007 04:00:03 14.6 C 11.14 g/m*3 14.6 C 0 km/h
2511 13-06-2007 04:12:02 14.5 C 11.07 g/m*3 14.5 C 0 km/h
2512 13-06-2007 04:24:02 14.3 C 10.93 g/m*3 14.3 C 0 km/h
2513 13-06-2007 04:36:02 14.2 C 10.87 g/m*3 14.2 C 0 km/h
2514 13-06-2007 04:48:02 14 C 10.74 g/m*3 14 C 0 km/h
2515 13-06-2007 05:00:02 14 C 10.74 g/m*3 14 C 0 km/h
2516 13-06-2007 05:12:02 13.9 C 10.79 g/m*3 13.9 C 0 km/h
2517 13-06-2007 05:24:02 13.8 C 10.72 g/m*3 13.8 C 0 km/h
2518 13-06-2007 05:36:02 13.9 C 10.79 g/m*3 13.9 C 0 km/h
2519 13-06-2007 05:48:01 14.1 C 10.92 g/m*3 14.1 C 0 km/h
2520 13-06-2007 06:00:01 14.1 C 10.92 g/m*3 14.1 C 0 km/h
2521 13-06-2007 06:12:02 14.3 C 11.06 g/m*3 14.3 C 0 km/h
2522 13-06-2007 06:24:02 14.4 C 11 g/m*3 14.4 C 0 km/h
2523 13-06-2007 06:36:01 14.5 C 11.07 g/m*3 14.5 C 0 km/h
2524 13-06-2007 06:48:02 14.9 C 11.34 g/m*3 14.9 C 0 km/h
2525 13-06-2007 07:00:02 15.1 C 11.22 g/m*3 15.1 C 0 km/h
Sensor: Nr:Datum:Temp:Abs-Feuchte:Windchill:Wind:
Aussen-T/F 2526 13-06-2007 07:12:01 15.4 C 11.3 g/m*3 15.4 C 0 km/h
2527 13-06-2007 07:24:01 16 C 11.04 g/m*3 16 C 0 km/h
2528 13-06-2007 07:36:02 16.4 C 11.17 g/m*3 16.4 C 0 km/h
2529 13-06-2007 07:48:02 16.8 C 11.15 g/m*3 16.8 C 0 km/h
2530 13-06-2007 08:00:02 17 C 11 g/m*3 17 C 0 km/h
2531 13-06-2007 08:12:02 17.1 C 10.77 g/m*3 17.1 C 0 km/h
2532 13-06-2007 08:24:02 17.5 C 11.03 g/m*3 17.5 C 0 km/h
2533 13-06-2007 08:36:02 17.9 C 10.99 g/m*3 17.9 C 0 km/h
2534 13-06-2007 08:48:02 18 C 10.91 g/m*3 18 C 0 km/h
2535 13-06-2007 09:00:02 17.8 C 11.08 g/m*3 17.8 C 0 km/h
2536 13-06-2007 09:12:01 18 C 10.91 g/m*3 18 C 0 km/h
2537 13-06-2007 09:24:02 18.3 C 10.79 g/m*3 18.3 C 0 km/h
2538 13-06-2007 09:36:02 18.9 C 11.02 g/m*3 18.9 C 0 km/h
2539 13-06-2007 09:48:02 19.1 C 10.49 g/m*3 19.1 C 0 km/h
2540 13-06-2007 10:00:02 19.4 C 10.34 g/m*3 19.4 C 0 km/h
2541 13-06-2007 10:12:02 20 C 10.54 g/m*3 20 C 0 km/h
2542 13-06-2007 10:24:02 20.2 C 10.32 g/m*3 20.2 C 0 km/h
2543 13-06-2007 10:36:02 20.6 C 10.2 g/m*3 20.6 C 0 km/h
2544 13-06-2007 10:48:02 21.1 C 9.77 g/m*3 21.1 C 0 km/h
2545 13-06-2007 11:00:02 21.9 C 10.23 g/m*3 21.9 C 0 km/h
2546 13-06-2007 11:12:02 22.1 C 9.56 g/m*3 22.1 C 0 km/h
2547 13-06-2007 11:24:01 22.5 C 9.79 g/m*3 22.5 C 0 km/h
2548 13-06-2007 11:36:02 23 C 9.66 g/m*3 23 C 0 km/h
2549 13-06-2007 11:48:02 23.3 C 8.78 g/m*3 23.3 C 0 km/h
2550 13-06-2007 12:00:02 23.8 C 8.82 g/m*3 23.8 C 0 km/h
Sensor: Nr:Datum:Temp:Abs-Feuchte:Windchill:Wind:
Aussen-T/F 2551 13-06-2007 12:12:02 24.6 C 8.55 g/m*3 24.6 C 0 km/h
2552 13-06-2007 12:24:01 25 C 8.06 g/m*3 25 C 0 km/h
2553 13-06-2007 12:36:02 25.8 C 8.43 g/m*3 25.8 C 0 km/h
2554 13-06-2007 12:48:02 25.4 C 8 g/m*3 25.4 C 0 km/h
2555 13-06-2007 13:00:02 25.2 C 7.45 g/m*3 25.2 C 0 km/h
2556 13-06-2007 13:12:03 26.8 C 7.64 g/m*3 26.8 C 0 km/h
2557 13-06-2007 13:24:02 27.6 C 7.71 g/m*3 27.6 C 0 km/h
2558 13-06-2007 13:36:02 28.1 C 7.93 g/m*3 28.1 C 0 km/h
2559 13-06-2007 13:48:02 26.5 C 7.76 g/m*3 26.5 C 0 km/h
2560 13-06-2007 14:00:02 26.6 C 7.05 g/m*3 26.6 C 0 km/h
2561 13-06-2007 14:12:02 26.5 C 7.76 g/m*3 26.5 C 0 km/h
2562 13-06-2007 14:24:04 26.5 C 8.01 g/m*3 26.5 C 0 km/h
2563 13-06-2007 14:36:03 26.7 C 7.09 g/m*3 26.7 C 0 km/h
2564 13-06-2007 14:48:03 27.6 C 7.45 g/m*3 27.6 C 0 km/h
2565 13-06-2007 15:00:03 27.5 C 6.61 g/m*3 27.5 C 0 km/h
2566 13-06-2007 15:12:03 28.2 C 7.15 g/m*3 28.2 C 0 km/h
2567 13-06-2007 15:24:02 28.6 C 6.74 g/m*3 28.6 C 0 km/h
2568 13-06-2007 15:36:02 28.5 C 6.99 g/m*3 28.5 C 0 km/h
2569 13-06-2007 15:48:03 28.5 C 6.71 g/m*3 28.5 C 0 km/h
2570 13-06-2007 16:00:03 27.5 C 7.41 g/m*3 27.5 C 0 km/h
2571 13-06-2007 16:12:02 28.6 C 7.31 g/m*3 28.6 C 0 km/h
2572 13-06-2007 16:24:02 28.7 C 7.63 g/m*3 28.7 C 0 km/h
2573 13-06-2007 16:36:03 28.6 C 7.31 g/m*3 28.6 C 0 km/h
2574 13-06-2007 16:48:02 28.8 C 7.39 g/m*3 28.8 C 0 km/h
2575 13-06-2007 17:00:02 29.5 C 7.38 g/m*3 29.5 C 0 km/h
Sensor: Nr:Datum:Temp:Abs-Feuchte:Windchill:Wind:
Aussen-T/F 2576 13-06-2007 17:12:03 29.7 C 7.16 g/m*3 29.7 C 0 km/h
2577 13-06-2007 17:24:02 29 C 7.18 g/m*3 29 C 0 km/h
2578 13-06-2007 17:36:02 27.8 C 7.26 g/m*3 27.8 C 0 km/h
2579 13-06-2007 17:48:02 28.4 C 7.23 g/m*3 28.4 C 0 km/h
2580 13-06-2007 18:00:02 28.9 C 7.14 g/m*3 28.9 C 0 km/h
2581 13-06-2007 18:12:02 28.9 C 7.14 g/m*3 28.9 C 0 km/h
2582 13-06-2007 18:24:03 29.4 C 7.34 g/m*3 29.4 C 0 km/h
2583 13-06-2007 18:36:03 29.5 C 7.08 g/m*3 29.5 C 0 km/h
2584 13-06-2007 18:48:02 29.1 C 6.64 g/m*3 29.1 C 0 km/h
2585 13-06-2007 19:00:02 28.3 C 6.91 g/m*3 28.3 C 0 km/h
2586 13-06-2007 19:12:03 28.5 C 6.99 g/m*3 28.5 C 0 km/h
2587 13-06-2007 19:24:03 28.1 C 7.11 g/m*3 28.1 C 0 km/h
2588 13-06-2007 19:36:03 27.9 C 7.03 g/m*3 27.9 C 0 km/h
2589 13-06-2007 19:48:02 27.7 C 6.95 g/m*3 27.7 C 0 km/h
2590 13-06-2007 20:00:02 27.8 C 7.26 g/m*3 27.8 C 0 km/h
2591 13-06-2007 20:12:03 27.9 C 7.84 g/m*3 27.9 C 0 km/h
2592 13-06-2007 20:24:02 28 C 7.89 g/m*3 28 C 0 km/h
2593 13-06-2007 20:36:02 27.7 C 8.02 g/m*3 27.7 C 0 km/h
2594 13-06-2007 20:48:02 27.2 C 8.33 g/m*3 27.2 C 0 km/h
2595 13-06-2007 21:00:02 26.2 C 8.12 g/m*3 26.2 C 0 km/h
2596 13-06-2007 21:12:01 24.7 C 8.15 g/m*3 24.7 C 0 km/h
2597 13-06-2007 21:24:01 24.1 C 8.1 g/m*3 24.1 C 0 km/h
2598 13-06-2007 21:36:02 23.4 C 8.62 g/m*3 23.4 C 0 km/h
2599 13-06-2007 21:48:02 23 C 8.63 g/m*3 23 C 0 km/h
2600 13-06-2007 22:00:02 22.5 C 8.59 g/m*3 22.5 C 0 km/h
Sensor: Nr:Datum:Temp:Abs-Feuchte:Windchill:Wind:
Aussen-T/F 2601 13-06-2007 22:12:03 22 C 8.73 g/m*3 22 C 0 km/h
2602 13-06-2007 22:24:02 21.8 C 9.21 g/m*3 21.8 C 0 km/h
2603 13-06-2007 22:36:02 21.7 C 9.54 g/m*3 21.7 C 0 km/h
2604 13-06-2007 22:48:02 21.3 C 9.13 g/m*3 21.3 C 0 km/h
2605 13-06-2007 23:00:02 21 C 9.16 g/m*3 21 C 0 km/h
2606 13-06-2007 23:12:02 20.8 C 9.42 g/m*3 20.8 C 0 km/h
2607 13-06-2007 23:24:03 20.6 C 9.49 g/m*3 20.6 C 0 km/h
2608 13-06-2007 23:36:02 20.4 C 9.38 g/m*3 20.4 C 0 km/h
2609 13-06-2007 23:48:02 20.1 C 9.39 g/m*3 20.1 C 0 km/h
2610 14-06-2007 00:00:02 19.8 C 9.57 g/m*3 19.8 C 0 km/h
2611 14-06-2007 00:12:02 19.6 C 9.62 g/m*3 19.6 C 0 km/h
2612 14-06-2007 00:24:03 19.4 C 9.51 g/m*3 19.4 C 0 km/h
2613 14-06-2007 00:36:02 19.2 C 9.56 g/m*3 19.2 C 0 km/h
2614 14-06-2007 00:48:02 19 C 9.45 g/m*3 19 C 0 km/h
2615 14-06-2007 01:00:02 18.9 C 9.72 g/m*3 18.9 C 0 km/h
2616 14-06-2007 01:12:01 18.8 C 9.82 g/m*3 18.8 C 0 km/h
2617 14-06-2007 01:24:02 18.9 C 9.72 g/m*3 18.9 C 0 km/h
2618 14-06-2007 01:36:01 18.9 C 9.88 g/m*3 18.9 C 0 km/h
2619 14-06-2007 01:48:02 18.9 C 10.21 g/m*3 18.9 C 0 km/h
2620 14-06-2007 02:00:02 18.9 C 10.04 g/m*3 18.9 C 0 km/h
2621 14-06-2007 02:12:02 18.6 C 10.19 g/m*3 18.6 C 0 km/h
2622 14-06-2007 02:24:03 18.6 C 10.19 g/m*3 18.6 C 0 km/h
2623 14-06-2007 02:36:02 18.6 C 10.19 g/m*3 18.6 C 0 km/h
2624 14-06-2007 02:49:03 18.6 C 10.19 g/m*3 18.6 C 0 km/h
2625 14-06-2007 03:01:03 18.6 C 10.19 g/m*3 18.6 C 0 km/h
Sensor: Nr:Datum:Temp:Abs-Feuchte:Windchill:Wind:
Aussen-T/F 2626 14-06-2007 03:13:04 18.6 C 10.35 g/m*3 18.6 C 0 km/h
2627 14-06-2007 03:25:04 18.3 C 10.63 g/m*3 18.3 C 0 km/h
2628 14-06-2007 03:37:02 18.1 C 10.66 g/m*3 18.1 C 0 km/h
2629 14-06-2007 03:49:02 18.1 C 10.66 g/m*3 18.1 C 0 km/h
2630 14-06-2007 04:01:01 17.8 C 10.93 g/m*3 17.8 C 0 km/h
2631 14-06-2007 04:13:01 17.7 C 11.32 g/m*3 17.7 C 0 km/h
2632 14-06-2007 04:25:01 17.3 C 11.34 g/m*3 17.3 C 0 km/h
2633 14-06-2007 04:37:01 17.1 C 11.35 g/m*3 17.1 C 0 km/h
2634 14-06-2007 04:49:02 17.1 C 11.35 g/m*3 17.1 C 0 km/h
2635 14-06-2007 05:01:02 17.1 C 11.21 g/m*3 17.1 C 0 km/h
2636 14-06-2007 05:13:02 17 C 11.14 g/m*3 17 C 0 km/h
2637 14-06-2007 05:25:02 16.9 C 11.08 g/m*3 16.9 C 0 km/h
2638 14-06-2007 05:37:02 16.8 C 11.01 g/m*3 16.8 C 0 km/h
2639 14-06-2007 05:49:02 16.7 C 10.94 g/m*3 16.7 C 0 km/h
2640 14-06-2007 06:01:03 16.6 C 10.88 g/m*3 16.6 C 0 km/h
2641 14-06-2007 06:13:03 16.6 C 11.02 g/m*3 16.6 C 0 km/h
2642 14-06-2007 06:25:02 16.6 C 10.88 g/m*3 16.6 C 0 km/h
2643 14-06-2007 06:37:02 16.6 C 10.88 g/m*3 16.6 C 0 km/h
2644 14-06-2007 06:49:02 16.8 C 11.01 g/m*3 16.8 C 0 km/h
2645 14-06-2007 07:01:02 17.1 C 11.06 g/m*3 17.1 C 0 km/h
2646 14-06-2007 07:13:02 17.2 C 11.13 g/m*3 17.2 C 0 km/h
2647 14-06-2007 07:25:03 17.2 C 11.13 g/m*3 17.2 C 0 km/h
2648 14-06-2007 07:37:02 17.3 C 11.2 g/m*3 17.3 C 0 km/h
2649 14-06-2007 07:49:02 17.7 C 11.47 g/m*3 17.7 C 0 km/h
2650 14-06-2007 08:01:02 17.9 C 11.3 g/m*3 17.9 C 0 km/h
Sensor: Nr:Datum:Temp:Abs-Feuchte:Windchill:Wind:
Aussen-T/F 2651 14-06-2007 08:13:03 18.3 C 11.41 g/m*3 18.3 C 0 km/h
2652 14-06-2007 08:25:01 18.6 C 11.3 g/m*3 18.6 C 0 km/h
2653 14-06-2007 08:37:02 18.9 C 11.34 g/m*3 18.9 C 0 km/h
2654 14-06-2007 08:49:02 19.4 C 11.01 g/m*3 19.4 C 0 km/h
2655 14-06-2007 09:01:03 20.2 C 11.02 g/m*3 20.2 C 0 km/h
2656 14-06-2007 09:13:03 20.7 C 11.34 g/m*3 20.7 C 0 km/h
2657 14-06-2007 09:25:03 21.4 C 11.25 g/m*3 21.4 C 0 km/h
2658 14-06-2007 09:37:03 22 C 11.26 g/m*3 22 C 0 km/h
2659 14-06-2007 09:49:02 22.6 C 11.05 g/m*3 22.6 C 0 km/h
2660 14-06-2007 10:01:02 23.3 C 11.29 g/m*3 23.3 C 0 km/h
2661 14-06-2007 10:13:02 23.9 C 11.25 g/m*3 23.9 C 0 km/h
2662 14-06-2007 10:25:02 24.4 C 10.9 g/m*3 24.4 C 0 km/h
2663 14-06-2007 10:37:03 25.1 C 10.65 g/m*3 25.1 C 0 km/h
2664 14-06-2007 10:49:02 25.3 C 10.53 g/m*3 25.3 C 0 km/h
2665 14-06-2007 11:01:02 25.9 C 10.41 g/m*3 25.9 C 0 km/h
2666 14-06-2007 11:13:02 26.5 C 10.01 g/m*3 26.5 C 0 km/h
2667 14-06-2007 11:25:02 26.7 C 9.62 g/m*3 26.7 C 0 km/h
2668 14-06-2007 11:37:03 27.1 C 9.58 g/m*3 27.1 C 0 km/h
2669 14-06-2007 11:49:02 27.8 C 9.68 g/m*3 27.8 C 0 km/h
2670 14-06-2007 12:01:02 28.1 C 9.02 g/m*3 28.1 C 0 km/h
2671 14-06-2007 12:13:03 29.4 C 9.1 g/m*3 29.4 C 0 km/h
2672 14-06-2007 12:25:01 30.1 C 8.84 g/m*3 30.1 C 0 km/h
2673 14-06-2007 12:37:01 28.8 C 8.81 g/m*3 28.8 C 0 km/h
2674 14-06-2007 12:49:01 29.3 C 9.34 g/m*3 29.3 C 0 km/h
2675 14-06-2007 13:01:02 30.1 C 9.15 g/m*3 30.1 C 0 km/h
Sensor: Nr:Datum:Temp:Abs-Feuchte:Windchill:Wind:
Aussen-T/F 2676 14-06-2007 13:13:02 28.6 C 9.55 g/m*3 28.6 C 0 km/h
2677 14-06-2007 13:25:05 28.3 C 9.95 g/m*3 28.3 C 0 km/h
2678 14-06-2007 13:37:03 29.3 C 10.22 g/m*3 29.3 C 0 km/h
2679 14-06-2007 13:49:02 30 C 9.4 g/m*3 30 C 0 km/h
2680 14-06-2007 14:01:03 30 C 9.4 g/m*3 30 C 0 km/h
2681 14-06-2007 14:13:03 30.2 C 9.81 g/m*3 30.2 C 0 km/h
2682 14-06-2007 14:25:03 29.9 C 9.05 g/m*3 29.9 C 0 km/h
2683 14-06-2007 14:37:03 30 C 9.1 g/m*3 30 C 0 km/h
2684 14-06-2007 14:49:02 29.7 C 8.95 g/m*3 29.7 C 0 km/h
2685 14-06-2007 15:01:11 28.6 C 9.84 g/m*3 28.6 C 0 km/h
2686 14-06-2007 15:13:11 26.3 C 12.87 g/m*3 26.3 C 0 km/h
2687 14-06-2007 15:25:11 25.6 C 13.57 g/m*3 25.6 C 0 km/h
2688 14-06-2007 15:37:11 27.8 C 13.45 g/m*3 27.8 C 0 km/h
2689 14-06-2007 15:49:11 29.6 C 11.57 g/m*3 29.6 C 0 km/h
2690 14-06-2007 16:01:11 30.5 C 11.84 g/m*3 30.5 C 0 km/h
2691 14-06-2007 16:13:11 30.7 C 11.02 g/m*3 30.7 C 0 km/h
2692 14-06-2007 16:25:11 30.4 C 12.08 g/m*3 30.4 C 0 km/h
2693 14-06-2007 16:37:11 29.2 C 11.61 g/m*3 29.2 C 0 km/h
2694 14-06-2007 16:49:11 27.7 C 11.5 g/m*3 27.7 C 0 km/h
2695 14-06-2007 17:01:11 26.5 C 12.27 g/m*3 26.5 C 0 km/h
2696 14-06-2007 17:13:11 21 C 13.37 g/m*3 21 C 0 km/h
2697 14-06-2007 17:25:11 19.9 C 14.26 g/m*3 19.9 C 0 km/h
2698 14-06-2007 17:37:11 20.1 C 14.78 g/m*3 20.1 C 0 km/h
2699 14-06-2007 17:49:02 20.9 C 15.66 g/m*3 20.9 C 0 km/h
2700 14-06-2007 18:01:01 23.3 C 17.56 g/m*3 23.3 C 0 km/h
Sensor: Nr:Datum:Temp:Abs-Feuchte:Windchill:Wind:
Aussen-T/F 2701 14-06-2007 18:13:01 24.8 C 15.93 g/m*3 24.8 C 0 km/h
2702 14-06-2007 18:25:02 25.4 C 16.72 g/m*3 25.4 C 0 km/h
2703 14-06-2007 18:37:02 24.9 C 16.02 g/m*3 24.9 C 0 km/h
2704 14-06-2007 18:49:03 24.3 C 16.38 g/m*3 24.3 C 0 km/h
2705 14-06-2007 19:01:02 23.3 C 16.1 g/m*3 23.3 C 0 km/h
2706 14-06-2007 19:13:02 23 C 15.83 g/m*3 23 C 0 km/h
2707 14-06-2007 19:25:02 22.7 C 15.76 g/m*3 22.7 C 0 km/h
2708 14-06-2007 19:37:03 22.6 C 15.87 g/m*3 22.6 C 0 km/h
2709 14-06-2007 19:49:03 22.1 C 15.42 g/m*3 22.1 C 0 km/h
2710 14-06-2007 20:01:02 21.9 C 15.82 g/m*3 21.9 C 0 km/h
2711 14-06-2007 20:13:03 22.1 C 15.81 g/m*3 22.1 C 0 km/h
2712 14-06-2007 20:25:02 22.3 C 15.6 g/m*3 22.3 C 0 km/h
2713 14-06-2007 20:37:03 22.5 C 15.78 g/m*3 22.5 C 0 km/h
2714 14-06-2007 20:49:02 22.5 C 14.58 g/m*3 22.5 C 0 km/h
2715 14-06-2007 21:01:03 22.1 C 13.66 g/m*3 22.1 C 0 km/h
2716 14-06-2007 21:13:03 21.4 C 13.5 g/m*3 21.4 C 0 km/h
2717 14-06-2007 21:25:03 20.9 C 13.66 g/m*3 20.9 C 0 km/h
2718 14-06-2007 21:37:04 20.4 C 13.62 g/m*3 20.4 C 0 km/h
2719 14-06-2007 21:49:02 20.2 C 12.94 g/m*3 20.2 C 0 km/h
2720 14-06-2007 22:01:03 20 C 13.13 g/m*3 20 C 0 km/h
2721 14-06-2007 22:13:03 19.8 C 13.32 g/m*3 19.8 C 0 km/h
2722 14-06-2007 22:25:03 19.9 C 13.4 g/m*3 19.9 C 0 km/h
2723 14-06-2007 22:37:03 19.9 C 13.23 g/m*3 19.9 C 0 km/h
2724 14-06-2007 22:49:02 19.9 C 12.54 g/m*3 19.9 C 0 km/h
2725 14-06-2007 23:01:01 19.7 C 12.74 g/m*3 19.7 C 0 km/h
Sensor: Nr:Datum:Temp:Abs-Feuchte:Windchill:Wind:
Aussen-T/F 2726 14-06-2007 23:13:01 19.3 C 12.77 g/m*3 19.3 C 0 km/h
2727 14-06-2007 23:25:01 19.2 C 12.7 g/m*3 19.2 C 0 km/h
2728 14-06-2007 23:37:02 19.3 C 12.94 g/m*3 19.3 C 0 km/h
2729 14-06-2007 23:49:02 19.1 C 12.62 g/m*3 19.1 C 0 km/h
2730 15-06-2007 00:01:03 19.1 C 12.79 g/m*3 19.1 C 0 km/h
2731 15-06-2007 00:13:03 18.9 C 12.8 g/m*3 18.9 C 0 km/h
2732 15-06-2007 00:25:03 18.9 C 12.8 g/m*3 18.9 C 0 km/h
2733 15-06-2007 00:37:03 18.9 C 12.8 g/m*3 18.9 C 0 km/h
2734 15-06-2007 00:49:03 19 C 12.22 g/m*3 19 C 0 km/h
2735 15-06-2007 01:01:04 18.8 C 12.4 g/m*3 18.8 C 0 km/h
2736 15-06-2007 01:13:04 18.7 C 12.49 g/m*3 18.7 C 0 km/h
2737 15-06-2007 01:25:03 18.6 C 12.26 g/m*3 18.6 C 0 km/h
2738 15-06-2007 01:37:03 18.9 C 11.99 g/m*3 18.9 C 0 km/h
2739 15-06-2007 01:49:02 19.1 C 11.8 g/m*3 19.1 C 0 km/h
2740 15-06-2007 02:01:04 19.1 C 11.8 g/m*3 19.1 C 0 km/h
2741 15-06-2007 02:13:04 18.9 C 12.15 g/m*3 18.9 C 0 km/h
2742 15-06-2007 02:25:03 18.9 C 12.15 g/m*3 18.9 C 0 km/h
2743 15-06-2007 02:37:03 19.1 C 12.13 g/m*3 19.1 C 0 km/h
2744 15-06-2007 02:50:05 19.1 C 11.97 g/m*3 19.1 C 0 km/h
2745 15-06-2007 03:02:05 19.1 C 11.97 g/m*3 19.1 C 0 km/h
2746 15-06-2007 03:14:04 19 C 11.9 g/m*3 19 C 0 km/h
2747 15-06-2007 03:26:04 19.1 C 11.97 g/m*3 19.1 C 0 km/h
2748 15-06-2007 03:38:02 19.1 C 11.97 g/m*3 19.1 C 0 km/h
2749 15-06-2007 03:50:02 19.1 C 11.8 g/m*3 19.1 C 0 km/h
2750 15-06-2007 04:02:03 19.1 C 11.8 g/m*3 19.1 C 0 km/h
Sensor: Nr:Datum:Temp:Abs-Feuchte:Windchill:Wind:
Aussen-T/F 2751 15-06-2007 04:14:03 19.1 C 11.8 g/m*3 19.1 C 0 km/h
2752 15-06-2007 04:26:03 19 C 11.73 g/m*3 19 C 0 km/h
2753 15-06-2007 04:38:03 18.9 C 11.83 g/m*3 18.9 C 0 km/h
2754 15-06-2007 04:50:02 19 C 11.73 g/m*3 19 C 0 km/h
2755 15-06-2007 05:02:02 19 C 11.57 g/m*3 19 C 0 km/h
2756 15-06-2007 05:14:03 18.9 C 11.66 g/m*3 18.9 C 0 km/h
2757 15-06-2007 05:26:02 18.8 C 11.6 g/m*3 18.8 C 0 km/h
2758 15-06-2007 05:38:02 18.8 C 11.6 g/m*3 18.8 C 0 km/h
2759 15-06-2007 05:50:03 18.8 C 11.6 g/m*3 18.8 C 0 km/h
2760 15-06-2007 06:02:02 18.9 C 11.66 g/m*3 18.9 C 0 km/h
2761 15-06-2007 06:14:03 19 C 11.57 g/m*3 19 C 0 km/h
2762 15-06-2007 06:26:02 19.1 C 11.64 g/m*3 19.1 C 0 km/h
2763 15-06-2007 06:38:03 19.3 C 11.61 g/m*3 19.3 C 0 km/h
2764 15-06-2007 06:50:02 19.4 C 11.68 g/m*3 19.4 C 0 km/h
2765 15-06-2007 07:02:02 19.5 C 11.92 g/m*3 19.5 C 0 km/h
2766 15-06-2007 07:14:02 19.6 C 11.99 g/m*3 19.6 C 0 km/h
2767 15-06-2007 07:26:02 19.9 C 12.03 g/m*3 19.9 C 0 km/h
2768 15-06-2007 07:38:00 19.9 C 12.2 g/m*3 19.9 C 0 km/h
2769 15-06-2007 07:50:02 20 C 12.27 g/m*3 20 C 0 km/h
2770 15-06-2007 08:02:02 20 C 12.27 g/m*3 20 C 0 km/h
2771 15-06-2007 08:14:02 20 C 12.27 g/m*3 20 C 0 km/h
2772 15-06-2007 08:26:02 20 C 12.27 g/m*3 20 C 0 km/h
2773 15-06-2007 08:38:02 19.7 C 12.23 g/m*3 19.7 C 0 km/h
2774 15-06-2007 08:50:02 19.6 C 12.15 g/m*3 19.6 C 0 km/h
2775 15-06-2007 09:02:02 19.4 C 12.51 g/m*3 19.4 C 0 km/h
Sensor: Nr:Datum:Temp:Abs-Feuchte:Windchill:Wind:
Aussen-T/F 2776 15-06-2007 09:14:02 19.2 C 12.86 g/m*3 19.2 C 0 km/h
2777 15-06-2007 09:26:02 19.3 C 13.27 g/m*3 19.3 C 0 km/h
2778 15-06-2007 09:38:02 19.5 C 13.43 g/m*3 19.5 C 0 km/h
2779 15-06-2007 09:50:02 20.4 C 13.09 g/m*3 20.4 C 0 km/h
2780 15-06-2007 10:02:02 21.1 C 12.71 g/m*3 21.1 C 0 km/h
2781 15-06-2007 10:14:02 21.2 C 12.42 g/m*3 21.2 C 0 km/h
2782 15-06-2007 10:26:02 21.6 C 12.71 g/m*3 21.6 C 0 km/h
2783 15-06-2007 10:38:02 21.3 C 12.3 g/m*3 21.3 C 0 km/h
2784 15-06-2007 10:50:02 19.9 C 12.89 g/m*3 19.9 C 0 km/h
2785 15-06-2007 11:02:02 19 C 13.53 g/m*3 19 C 0 km/h
2786 15-06-2007 11:14:02 18.9 C 13.93 g/m*3 18.9 C 0 km/h
2787 15-06-2007 11:26:02 19.2 C 13.85 g/m*3 19.2 C 0 km/h
2788 15-06-2007 11:38:03 20.4 C 13.8 g/m*3 20.4 C 0 km/h
2789 15-06-2007 11:50:03 21 C 13.37 g/m*3 21 C 0 km/h
2790 15-06-2007 12:02:03 21.9 C 13.12 g/m*3 21.9 C 0 km/h
2791 15-06-2007 12:14:03 23 C 12.74 g/m*3 23 C 0 km/h
2792 15-06-2007 12:26:03 23.1 C 11.99 g/m*3 23.1 C 0 km/h
2793 15-06-2007 12:38:03 23.2 C 12.47 g/m*3 23.2 C 0 km/h
2794 15-06-2007 12:50:03 22.9 C 12.06 g/m*3 22.9 C 0 km/h
2795 15-06-2007 13:02:03 22.5 C 12.18 g/m*3 22.5 C 0 km/h
2796 15-06-2007 13:14:03 21.4 C 12.37 g/m*3 21.4 C 0 km/h
2797 15-06-2007 13:26:03 22 C 13 g/m*3 22 C 0 km/h
2798 15-06-2007 13:38:03 21.9 C 12.35 g/m*3 21.9 C 0 km/h
2799 15-06-2007 13:50:03 21.1 C 12.16 g/m*3 21.1 C 0 km/h
2800 15-06-2007 14:02:03 20.3 C 12.14 g/m*3 20.3 C 0 km/h
Sensor: Nr:Datum:Temp:Abs-Feuchte:Windchill:Wind:
Aussen-T/F 2801 15-06-2007 14:14:03 20.8 C 12.31 g/m*3 20.8 C 0 km/h
2802 15-06-2007 14:26:03 21.1 C 12.16 g/m*3 21.1 C 0 km/h
2803 15-06-2007 14:38:00 21.7 C 12.02 g/m*3 21.7 C 0 km/h
2804 15-06-2007 14:50:02 21.5 C 11.31 g/m*3 21.5 C 0 km/h
2805 15-06-2007 15:02:02 21.2 C 11.49 g/m*3 21.2 C 0 km/h
2806 15-06-2007 15:14:02 20.3 C 11.96 g/m*3 20.3 C 0 km/h
2807 15-06-2007 15:26:02 20.4 C 12.03 g/m*3 20.4 C 0 km/h
2808 15-06-2007 15:38:01 20.5 C 12.1 g/m*3 20.5 C 0 km/h
2809 15-06-2007 15:50:02 20.4 C 12.74 g/m*3 20.4 C 0 km/h
2810 15-06-2007 16:02:01 20.7 C 12.78 g/m*3 20.7 C 0 km/h
2811 15-06-2007 16:14:01 21.2 C 12.23 g/m*3 21.2 C 0 km/h
2812 15-06-2007 16:26:02 21.4 C 12.19 g/m*3 21.4 C 0 km/h
2813 15-06-2007 16:38:02 21.4 C 11.62 g/m*3 21.4 C 0 km/h
2814 15-06-2007 16:50:02 21.1 C 11.42 g/m*3 21.1 C 0 km/h
2815 15-06-2007 17:02:02 20.9 C 11.66 g/m*3 20.9 C 0 km/h
2816 15-06-2007 17:14:02 20.7 C 11.16 g/m*3 20.7 C 0 km/h
2817 15-06-2007 17:26:02 20 C 11.23 g/m*3 20 C 0 km/h
2818 15-06-2007 17:38:02 20.2 C 11.37 g/m*3 20.2 C 0 km/h
2819 15-06-2007 17:50:03 20.6 C 11.1 g/m*3 20.6 C 0 km/h
2820 15-06-2007 18:02:03 21 C 10.81 g/m*3 21 C 0 km/h
2821 15-06-2007 18:14:03 21.2 C 10.38 g/m*3 21.2 C 0 km/h
2822 15-06-2007 18:26:03 21.4 C 10.31 g/m*3 21.4 C 0 km/h
2823 15-06-2007 18:38:02 21.7 C 9.92 g/m*3 21.7 C 0 km/h
2824 15-06-2007 18:50:02 21.2 C 9.82 g/m*3 21.2 C 0 km/h
2825 15-06-2007 19:02:02 21.3 C 10.07 g/m*3 21.3 C 0 km/h
Sensor: Nr:Datum:Temp:Abs-Feuchte:Windchill:Wind:
Aussen-T/F 2826 15-06-2007 19:14:02 21 C 9.71 g/m*3 21 C 0 km/h
2827 15-06-2007 19:26:02 20.8 C 9.78 g/m*3 20.8 C 0 km/h
2828 15-06-2007 19:38:02 20.6 C 9.84 g/m*3 20.6 C 0 km/h
2829 15-06-2007 19:50:01 20.4 C 9.73 g/m*3 20.4 C 0 km/h
2830 15-06-2007 20:02:02 20.1 C 9.73 g/m*3 20.1 C 0 km/h
2831 15-06-2007 20:14:02 19.9 C 9.79 g/m*3 19.9 C 0 km/h
2832 15-06-2007 20:26:02 19.7 C 9.68 g/m*3 19.7 C 0 km/h
2833 15-06-2007 20:38:01 19.5 C 9.57 g/m*3 19.5 C 0 km/h
2834 15-06-2007 20:50:02 19.3 C 9.62 g/m*3 19.3 C 0 km/h
2835 15-06-2007 21:02:03 19.1 C 9.67 g/m*3 19.1 C 0 km/h
2836 15-06-2007 21:14:03 19 C 9.45 g/m*3 19 C 0 km/h
2837 15-06-2007 21:26:02 18.8 C 9.5 g/m*3 18.8 C 0 km/h
2838 15-06-2007 21:38:02 18.5 C 9.49 g/m*3 18.5 C 0 km/h
2839 15-06-2007 21:50:02 18.4 C 9.28 g/m*3 18.4 C 0 km/h
2840 15-06-2007 22:02:02 18.2 C 9.33 g/m*3 18.2 C 0 km/h
2841 15-06-2007 22:14:02 17.9 C 9.31 g/m*3 17.9 C 0 km/h
2842 15-06-2007 22:26:03 17.6 C 9.45 g/m*3 17.6 C 0 km/h
2843 15-06-2007 22:38:03 17.6 C 9.45 g/m*3 17.6 C 0 km/h
2844 15-06-2007 22:50:02 17.5 C 9.39 g/m*3 17.5 C 0 km/h
2845 15-06-2007 23:02:02 17.4 C 9.48 g/m*3 17.4 C 0 km/h
2846 15-06-2007 23:14:02 17.4 C 9.48 g/m*3 17.4 C 0 km/h
2847 15-06-2007 23:26:02 17.4 C 9.78 g/m*3 17.4 C 0 km/h
2848 15-06-2007 23:38:03 17.2 C 9.81 g/m*3 17.2 C 0 km/h
2849 15-06-2007 23:50:02 17 C 9.84 g/m*3 17 C 0 km/h
2850 16-06-2007 00:02:02 16.7 C 9.66 g/m*3 16.7 C 0 km/h
Sensor: Nr:Datum:Temp:Abs-Feuchte:Windchill:Wind:
Aussen-T/F 2851 16-06-2007 00:14:02 16.6 C 9.75 g/m*3 16.6 C 0 km/h
2852 16-06-2007 00:26:02 16.6 C 9.75 g/m*3 16.6 C 0 km/h
2853 16-06-2007 00:38:02 16.4 C 9.63 g/m*3 16.4 C 0 km/h
2854 16-06-2007 00:50:02 16.1 C 9.6 g/m*3 16.1 C 0 km/h
2855 16-06-2007 01:02:03 15.9 C 9.75 g/m*3 15.9 C 0 km/h
2856 16-06-2007 01:14:03 15.8 C 9.83 g/m*3 15.8 C 0 km/h
2857 16-06-2007 01:26:02 16 C 9.81 g/m*3 16 C 0 km/h
2858 16-06-2007 01:38:02 16.2 C 9.79 g/m*3 16.2 C 0 km/h
2859 16-06-2007 01:50:01 16.2 C 9.93 g/m*3 16.2 C 0 km/h
2860 16-06-2007 02:02:01 16.1 C 9.87 g/m*3 16.1 C 0 km/h
2861 16-06-2007 02:14:01 15.8 C 9.83 g/m*3 15.8 C 0 km/h
2862 16-06-2007 02:26:02 15.9 C 10.02 g/m*3 15.9 C 0 km/h
2863 16-06-2007 02:38:01 15.9 C 9.89 g/m*3 15.9 C 0 km/h
2864 16-06-2007 02:51:03 15.8 C 9.83 g/m*3 15.8 C 0 km/h
2865 16-06-2007 03:03:03 15.6 C 9.84 g/m*3 15.6 C 0 km/h
2866 16-06-2007 03:15:03 15.2 C 9.73 g/m*3 15.2 C 0 km/h
2867 16-06-2007 03:27:03 14.8 C 9.75 g/m*3 14.8 C 0 km/h
2868 16-06-2007 03:39:02 14.6 C 9.76 g/m*3 14.6 C 0 km/h
2869 16-06-2007 03:51:02 14.4 C 9.77 g/m*3 14.4 C 0 km/h
2870 16-06-2007 04:03:03 14.3 C 9.71 g/m*3 14.3 C 0 km/h
2871 16-06-2007 04:15:02 14.1 C 9.71 g/m*3 14.1 C 0 km/h
2872 16-06-2007 04:27:02 13.9 C 9.83 g/m*3 13.9 C 0 km/h
2873 16-06-2007 04:39:02 13.8 C 9.77 g/m*3 13.8 C 0 km/h
2874 16-06-2007 04:51:02 14.1 C 9.95 g/m*3 14.1 C 0 km/h
2875 16-06-2007 05:03:02 14.1 C 9.83 g/m*3 14.1 C 0 km/h
Sensor: Nr:Datum:Temp:Abs-Feuchte:Windchill:Wind:
Aussen-T/F 2876 16-06-2007 05:15:03 14.4 C 10.01 g/m*3 14.4 C 0 km/h
2877 16-06-2007 05:27:03 14.6 C 10.01 g/m*3 14.6 C 0 km/h
2878 16-06-2007 05:39:02 14.4 C 9.77 g/m*3 14.4 C 0 km/h
2879 16-06-2007 05:51:02 15.2 C 9.99 g/m*3 15.2 C 0 km/h
2880 16-06-2007 06:03:03 15.5 C 9.91 g/m*3 15.5 C 0 km/h
2881 16-06-2007 06:15:02 15.7 C 9.77 g/m*3 15.7 C 0 km/h
2882 16-06-2007 06:27:02 15.8 C 9.69 g/m*3 15.8 C 0 km/h
2883 16-06-2007 06:39:02 15.9 C 9.62 g/m*3 15.9 C 0 km/h
2884 16-06-2007 06:51:02 15.9 C 9.62 g/m*3 15.9 C 0 km/h
2885 16-06-2007 07:03:02 16 C 9.4 g/m*3 16 C 0 km/h
2886 16-06-2007 07:15:02 16 C 9.26 g/m*3 16 C 0 km/h
2887 16-06-2007 07:27:02 16.2 C 9.38 g/m*3 16.2 C 0 km/h
2888 16-06-2007 07:39:02 16.5 C 9.41 g/m*3 16.5 C 0 km/h
2889 16-06-2007 07:51:02 16.6 C 9.18 g/m*3 16.6 C 0 km/h
2890 16-06-2007 08:03:02 16.7 C 9.1 g/m*3 16.7 C 0 km/h
2891 16-06-2007 08:15:02 16.6 C 9.04 g/m*3 16.6 C 0 km/h
2892 16-06-2007 08:27:03 16.6 C 8.9 g/m*3 16.6 C 0 km/h
2893 16-06-2007 08:39:01 16.6 C 8.9 g/m*3 16.6 C 0 km/h
2894 16-06-2007 08:51:02 16.5 C 8.99 g/m*3 16.5 C 0 km/h
2895 16-06-2007 09:03:02 17 C 8.68 g/m*3 17 C 0 km/h
2896 16-06-2007 09:15:02 17.5 C 8.5 g/m*3 17.5 C 0 km/h
2897 16-06-2007 09:27:02 17.7 C 8.3 g/m*3 17.7 C 0 km/h
2898 16-06-2007 09:39:02 18.2 C 8.39 g/m*3 18.2 C 0 km/h
2899 16-06-2007 09:51:03 18.3 C 8.29 g/m*3 18.3 C 0 km/h
2900 16-06-2007 10:03:02 17.9 C 8.4 g/m*3 17.9 C 0 km/h
Sensor: Nr:Datum:Temp:Abs-Feuchte:Windchill:Wind:
Aussen-T/F 2901 16-06-2007 10:15:02 18.3 C 8.44 g/m*3 18.3 C 0 km/h
2902 16-06-2007 10:27:02 19 C 8.15 g/m*3 19 C 0 km/h
2903 16-06-2007 10:39:02 19.4 C 8.34 g/m*3 19.4 C 0 km/h
2904 16-06-2007 10:51:02 19.2 C 7.91 g/m*3 19.2 C 0 km/h
2905 16-06-2007 11:03:02 19 C 7.82 g/m*3 19 C 0 km/h
2906 16-06-2007 11:15:02 18.7 C 7.84 g/m*3 18.7 C 0 km/h
2907 16-06-2007 11:27:02 19.3 C 8.13 g/m*3 19.3 C 0 km/h
2908 16-06-2007 11:39:02 19.4 C 7.67 g/m*3 19.4 C 0 km/h
2909 16-06-2007 11:51:01 20.4 C 7.78 g/m*3 20.4 C 0 km/h
2910 16-06-2007 12:03:02 21.6 C 6.83 g/m*3 21.6 C 0 km/h
2911 16-06-2007 12:15:02 20.9 C 6.92 g/m*3 20.9 C 0 km/h
2912 16-06-2007 12:27:02 20.6 C 6.98 g/m*3 20.6 C 0 km/h
2913 16-06-2007 12:39:01 23.1 C 7.03 g/m*3 23.1 C 0 km/h
2914 16-06-2007 12:51:02 23.6 C 6.81 g/m*3 23.6 C 0 km/h
2915 16-06-2007 13:03:01 23.5 C 6.56 g/m*3 23.5 C 0 km/h
2916 16-06-2007 13:15:02 24.1 C 6.56 g/m*3 24.1 C 0 km/h
2917 16-06-2007 13:27:02 23 C 6.37 g/m*3 23 C 0 km/h
2918 16-06-2007 13:39:02 22.1 C 6.83 g/m*3 22.1 C 0 km/h
2919 16-06-2007 13:51:02 21.3 C 7.27 g/m*3 21.3 C 0 km/h
2920 16-06-2007 14:03:02 20.7 C 7.56 g/m*3 20.7 C 0 km/h
2921 16-06-2007 14:15:02 21.9 C 7.53 g/m*3 21.9 C 0 km/h
2922 16-06-2007 14:27:02 21.9 C 7.14 g/m*3 21.9 C 0 km/h
2923 16-06-2007 14:39:02 21.5 C 7.17 g/m*3 21.5 C 0 km/h
2924 16-06-2007 14:51:03 20.8 C 7.42 g/m*3 20.8 C 0 km/h
2925 16-06-2007 15:03:03 22.1 C 7.81 g/m*3 22.1 C 0 km/h
Sensor: Nr:Datum:Temp:Abs-Feuchte:Windchill:Wind:
Aussen-T/F 2926 16-06-2007 15:15:02 21.4 C 8.06 g/m*3 21.4 C 0 km/h
2927 16-06-2007 15:27:02 17.8 C 9.87 g/m*3 17.8 C 0 km/h
2928 16-06-2007 15:39:02 16.9 C 10.64 g/m*3 16.9 C 0 km/h
2929 16-06-2007 15:51:01 18.2 C 10.57 g/m*3 18.2 C 0 km/h
2930 16-06-2007 16:03:02 19.7 C 9.68 g/m*3 19.7 C 0 km/h
2931 16-06-2007 16:15:02 20.9 C 9.47 g/m*3 20.9 C 0 km/h
2932 16-06-2007 16:27:02 21.9 C 8.88 g/m*3 21.9 C 0 km/h
2933 16-06-2007 16:39:01 22.4 C 8.14 g/m*3 22.4 C 0 km/h
2934 16-06-2007 16:51:02 23.1 C 7.86 g/m*3 23.1 C 0 km/h
2935 16-06-2007 17:03:02 23.2 C 7.28 g/m*3 23.2 C 0 km/h
2936 16-06-2007 17:15:02 22.7 C 7.27 g/m*3 22.7 C 0 km/h
2937 16-06-2007 17:27:02 22.4 C 7.55 g/m*3 22.4 C 0 km/h
2938 16-06-2007 17:39:03 21.2 C 7.41 g/m*3 21.2 C 0 km/h
2939 16-06-2007 17:51:02 21 C 7.51 g/m*3 21 C 0 km/h
2940 16-06-2007 18:03:03 21.7 C 7.63 g/m*3 21.7 C 0 km/h
2941 16-06-2007 18:15:02 23.6 C 7.44 g/m*3 23.6 C 0 km/h
2942 16-06-2007 18:27:03 22 C 7.76 g/m*3 22 C 0 km/h
2943 16-06-2007 18:39:02 23 C 8.22 g/m*3 23 C 0 km/h
2944 16-06-2007 18:51:02 24 C 7.61 g/m*3 24 C 0 km/h
2945 16-06-2007 19:03:02 22.5 C 7.59 g/m*3 22.5 C 0 km/h
2946 16-06-2007 19:15:01 21.8 C 7.87 g/m*3 21.8 C 0 km/h
2947 16-06-2007 19:27:01 21.9 C 8.1 g/m*3 21.9 C 0 km/h
2948 16-06-2007 19:39:02 21.8 C 8.44 g/m*3 21.8 C 0 km/h
2949 16-06-2007 19:51:01 21.9 C 8.68 g/m*3 21.9 C 0 km/h
2950 16-06-2007 20:03:01 21.9 C 8.68 g/m*3 21.9 C 0 km/h
Sensor: Nr:Datum:Temp:Abs-Feuchte:Windchill:Wind:
Aussen-T/F 2951 16-06-2007 20:15:02 18.3 C 8.91 g/m*3 18.3 C 0 km/h
2952 16-06-2007 20:27:02 16 C 9.95 g/m*3 16 C 0 km/h
2953 16-06-2007 20:39:01 15.2 C 10.25 g/m*3 15.2 C 0 km/h
2954 16-06-2007 20:51:02 15.3 C 10.84 g/m*3 15.3 C 0 km/h
2955 16-06-2007 21:03:02 15.2 C 10.64 g/m*3 15.2 C 0 km/h
2956 16-06-2007 21:15:02 15.2 C 10.38 g/m*3 15.2 C 0 km/h
2957 16-06-2007 21:27:02 15 C 10.39 g/m*3 15 C 0 km/h
2958 16-06-2007 21:39:02 14.9 C 10.2 g/m*3 14.9 C 0 km/h
2959 16-06-2007 21:51:02 14.9 C 9.94 g/m*3 14.9 C 0 km/h
2960 16-06-2007 22:03:01 14.8 C 10.13 g/m*3 14.8 C 0 km/h
2961 16-06-2007 22:15:02 14.8 C 10.26 g/m*3 14.8 C 0 km/h
2962 16-06-2007 22:27:02 14.8 C 10.39 g/m*3 14.8 C 0 km/h
2963 16-06-2007 22:39:02 14.7 C 10.32 g/m*3 14.7 C 0 km/h
2964 16-06-2007 22:51:02 14.7 C 10.32 g/m*3 14.7 C 0 km/h
2965 16-06-2007 23:03:03 14.7 C 10.45 g/m*3 14.7 C 0 km/h
2966 16-06-2007 23:15:02 14.7 C 10.45 g/m*3 14.7 C 0 km/h
2967 16-06-2007 23:27:02 14.8 C 10.64 g/m*3 14.8 C 0 km/h
2968 16-06-2007 23:39:02 14.9 C 10.58 g/m*3 14.9 C 0 km/h
2969 16-06-2007 23:51:01 15.1 C 10.58 g/m*3 15.1 C 0 km/h
2970 17-06-2007 00:03:02 14.5 C 10.32 g/m*3 14.5 C 0 km/h
2971 17-06-2007 00:15:02 14.5 C 10.45 g/m*3 14.5 C 0 km/h
2972 17-06-2007 00:27:02 14.5 C 10.45 g/m*3 14.5 C 0 km/h
2973 17-06-2007 00:39:02 14.5 C 10.45 g/m*3 14.5 C 0 km/h
2974 17-06-2007 00:51:02 14.5 C 10.32 g/m*3 14.5 C 0 km/h
2975 17-06-2007 01:03:02 14.4 C 10.26 g/m*3 14.4 C 0 km/h
Sensor: Nr:Datum:Temp:Abs-Feuchte:Windchill:Wind:
Aussen-T/F 2976 17-06-2007 01:15:02 14.2 C 10.14 g/m*3 14.2 C 0 km/h
2977 17-06-2007 01:27:02 14.2 C 10.14 g/m*3 14.2 C 0 km/h
2978 17-06-2007 01:39:02 14.1 C 10.07 g/m*3 14.1 C 0 km/h
2979 17-06-2007 01:51:02 13.9 C 10.07 g/m*3 13.9 C 0 km/h
2980 17-06-2007 02:03:02 13.8 C 10.01 g/m*3 13.8 C 0 km/h
2981 17-06-2007 02:15:02 13.7 C 9.83 g/m*3 13.7 C 0 km/h
2982 17-06-2007 02:27:02 14 C 9.65 g/m*3 14 C 0 km/h
2983 17-06-2007 02:39:02 14 C 9.53 g/m*3 14 C 0 km/h
2984 17-06-2007 02:52:03 13.7 C 9.47 g/m*3 13.7 C 0 km/h
2985 17-06-2007 03:04:03 13.5 C 9.47 g/m*3 13.5 C 0 km/h
2986 17-06-2007 03:16:04 13.2 C 9.42 g/m*3 13.2 C 0 km/h
2987 17-06-2007 03:28:04 13.1 C 9.36 g/m*3 13.1 C 0 km/h
2988 17-06-2007 03:40:02 13 C 9.3 g/m*3 13 C 0 km/h
2989 17-06-2007 03:52:02 12.8 C 9.41 g/m*3 12.8 C 0 km/h
2990 17-06-2007 04:04:03 12.6 C 9.29 g/m*3 12.6 C 0 km/h
2991 17-06-2007 04:16:02 12.4 C 9.18 g/m*3 12.4 C 0 km/h
2992 17-06-2007 04:28:02 12.5 C 9.35 g/m*3 12.5 C 0 km/h
2993 17-06-2007 04:40:02 12.3 C 9.23 g/m*3 12.3 C 0 km/h
2994 17-06-2007 04:52:02 12.1 C 9.12 g/m*3 12.1 C 0 km/h
2995 17-06-2007 05:04:02 12 C 9.06 g/m*3 12 C 0 km/h
2996 17-06-2007 05:16:02 12.1 C 9.12 g/m*3 12.1 C 0 km/h
2997 17-06-2007 05:28:02 12 C 9.06 g/m*3 12 C 0 km/h
2998 17-06-2007 05:40:02 11.9 C 9 g/m*3 11.9 C 0 km/h
2999 17-06-2007 05:52:02 12 C 9.06 g/m*3 12 C 0 km/h
3000 17-06-2007 06:04:02 12.1 C 9.22 g/m*3 12.1 C 0 km/h
Sensor: Nr:Datum:Temp:Abs-Feuchte:Windchill:Wind:
Aussen-T/F 3001 17-06-2007 06:16:02 12.1 C 9.22 g/m*3 12.1 C 0 km/h
3002 17-06-2007 06:28:02 12.2 C 9.28 g/m*3 12.2 C 0 km/h
3003 17-06-2007 06:40:02 12.4 C 9.4 g/m*3 12.4 C 0 km/h
3004 17-06-2007 06:52:02 12.6 C 9.51 g/m*3 12.6 C 0 km/h
3005 17-06-2007 07:04:03 12.8 C 9.41 g/m*3 12.8 C 0 km/h
3006 17-06-2007 07:16:02 13 C 9.19 g/m*3 13 C 0 km/h
3007 17-06-2007 07:28:02 13.6 C 9.42 g/m*3 13.6 C 0 km/h
3008 17-06-2007 07:40:02 13.7 C 9.24 g/m*3 13.7 C 0 km/h
3009 17-06-2007 07:52:02 13.6 C 9.42 g/m*3 13.6 C 0 km/h
3010 17-06-2007 08:04:01 13.8 C 9.53 g/m*3 13.8 C 0 km/h
3011 17-06-2007 08:16:01 14 C 9.53 g/m*3 14 C 0 km/h
3012 17-06-2007 08:28:01 14.3 C 9.58 g/m*3 14.3 C 0 km/h
3013 17-06-2007 08:40:02 15.1 C 9.68 g/m*3 15.1 C 0 km/h
3014 17-06-2007 08:52:02 15.3 C 9.66 g/m*3 15.3 C 0 km/h
3015 17-06-2007 09:04:02 15.8 C 9.83 g/m*3 15.8 C 0 km/h
3016 17-06-2007 09:16:02 16.3 C 9.85 g/m*3 16.3 C 0 km/h
3017 17-06-2007 09:28:02 16.8 C 9.87 g/m*3 16.8 C 0 km/h
3018 17-06-2007 09:40:02 17.5 C 9.69 g/m*3 17.5 C 0 km/h
3019 17-06-2007 09:52:02 18.1 C 9.43 g/m*3 18.1 C 0 km/h
3020 17-06-2007 10:04:02 18.7 C 9.61 g/m*3 18.7 C 0 km/h
3021 17-06-2007 10:16:02 19.1 C 9.34 g/m*3 19.1 C 0 km/h
3022 17-06-2007 10:28:02 19.4 C 9.01 g/m*3 19.4 C 0 km/h
3023 17-06-2007 10:40:01 19.7 C 8.49 g/m*3 19.7 C 0 km/h
3024 17-06-2007 10:52:02 20.2 C 8.57 g/m*3 20.2 C 0 km/h
3025 17-06-2007 11:04:01 20.6 C 8.41 g/m*3 20.6 C 0 km/h
Sensor: Nr:Datum:Temp:Abs-Feuchte:Windchill:Wind:
Aussen-T/F 3026 17-06-2007 11:16:01 21.1 C 8.29 g/m*3 21.1 C 0 km/h
3027 17-06-2007 11:28:01 21.8 C 8.44 g/m*3 21.8 C 0 km/h
3028 17-06-2007 11:40:02 22.3 C 8.1 g/m*3 22.3 C 0 km/h
3029 17-06-2007 11:52:02 23 C 7.6 g/m*3 23 C 0 km/h
3030 17-06-2007 12:04:02 23.6 C 7.44 g/m*3 23.6 C 0 km/h
3031 17-06-2007 12:16:02 23.7 C 7.27 g/m*3 23.7 C 0 km/h
3032 17-06-2007 12:28:02 23.8 C 7.53 g/m*3 23.8 C 0 km/h
3033 17-06-2007 12:40:02 25.3 C 7.02 g/m*3 25.3 C 0 km/h
3034 17-06-2007 12:52:01 24.4 C 6.9 g/m*3 24.4 C 0 km/h
3035 17-06-2007 13:04:02 23.8 C 6.88 g/m*3 23.8 C 0 km/h
3036 17-06-2007 13:16:02 25.2 C 6.98 g/m*3 25.2 C 0 km/h
3037 17-06-2007 13:28:02 26 C 6.33 g/m*3 26 C 0 km/h
3038 17-06-2007 13:40:01 25.9 C 6.54 g/m*3 25.9 C 0 km/h
3039 17-06-2007 13:52:02 26.1 C 6.12 g/m*3 26.1 C 0 km/h
3040 17-06-2007 14:04:02 26.2 C 6.4 g/m*3 26.2 C 0 km/h
3041 17-06-2007 14:16:01 25.6 C 6.19 g/m*3 25.6 C 0 km/h
3042 17-06-2007 14:28:01 26.3 C 6.68 g/m*3 26.3 C 0 km/h
3043 17-06-2007 14:40:02 25.8 C 6.02 g/m*3 25.8 C 0 km/h
3044 17-06-2007 14:52:01 26.4 C 6.22 g/m*3 26.4 C 0 km/h
3045 17-06-2007 15:04:02 26.4 C 6.22 g/m*3 26.4 C 0 km/h
3046 17-06-2007 15:16:02 27.1 C 5.95 g/m*3 27.1 C 0 km/h
3047 17-06-2007 15:28:03 27.2 C 5.46 g/m*3 27.2 C 0 km/h
3048 17-06-2007 15:40:01 26.8 C 5.6 g/m*3 26.8 C 0 km/h
3049 17-06-2007 15:52:02 26.6 C 6.04 g/m*3 26.6 C 0 km/h
3050 17-06-2007 16:04:01 27.7 C 5.88 g/m*3 27.7 C 0 km/h
Sensor: Nr:Datum:Temp:Abs-Feuchte:Windchill:Wind:
Aussen-T/F 3051 17-06-2007 16:16:02 28 C 5.71 g/m*3 28 C 0 km/h
3052 17-06-2007 16:28:02 28.2 C 5.77 g/m*3 28.2 C 0 km/h
3053 17-06-2007 16:40:02 27.3 C 5.76 g/m*3 27.3 C 0 km/h
3054 17-06-2007 16:52:02 27.5 C 5.82 g/m*3 27.5 C 0 km/h
3055 17-06-2007 17:04:02 28.2 C 5.77 g/m*3 28.2 C 0 km/h
3056 17-06-2007 17:16:02 28.3 C 5.53 g/m*3 28.3 C 0 km/h
3057 17-06-2007 17:28:02 28.9 C 6 g/m*3 28.9 C 0 km/h
3058 17-06-2007 17:40:02 28.9 C 6 g/m*3 28.9 C 0 km/h
3059 17-06-2007 17:52:03 28.8 C 5.97 g/m*3 28.8 C 0 km/h
3060 17-06-2007 18:04:02 28.1 C 6.29 g/m*3 28.1 C 0 km/h
3061 17-06-2007 18:16:02 28.6 C 6.18 g/m*3 28.6 C 0 km/h
3062 17-06-2007 18:28:02 28.6 C 6.46 g/m*3 28.6 C 0 km/h
3063 17-06-2007 18:40:02 28.9 C 6.57 g/m*3 28.9 C 0 km/h
3064 17-06-2007 18:52:02 28.2 C 6.87 g/m*3 28.2 C 0 km/h
3065 17-06-2007 19:04:02 28.4 C 6.95 g/m*3 28.4 C 0 km/h
3066 17-06-2007 19:16:02 27.8 C 6.99 g/m*3 27.8 C 0 km/h
3067 17-06-2007 19:28:02 27.7 C 7.22 g/m*3 27.7 C 0 km/h
3068 17-06-2007 19:40:03 27.5 C 7.14 g/m*3 27.5 C 0 km/h
3069 17-06-2007 19:52:02 26.8 C 8.4 g/m*3 26.8 C 0 km/h
3070 17-06-2007 20:04:02 26.1 C 8.32 g/m*3 26.1 C 0 km/h
3071 17-06-2007 20:16:02 25.4 C 8.48 g/m*3 25.4 C 0 km/h
3072 17-06-2007 20:28:02 24.6 C 8.55 g/m*3 24.6 C 0 km/h
3073 17-06-2007 20:40:03 24.1 C 8.1 g/m*3 24.1 C 0 km/h
3074 17-06-2007 20:52:02 23.7 C 8.34 g/m*3 23.7 C 0 km/h
3075 17-06-2007 21:04:02 23.5 C 8.25 g/m*3 23.5 C 0 km/h
Sensor: Nr:Datum:Temp:Abs-Feuchte:Windchill:Wind:
Aussen-T/F 3076 17-06-2007 21:16:02 23.3 C 8.57 g/m*3 23.3 C 0 km/h
3077 17-06-2007 21:28:02 23.1 C 9.1 g/m*3 23.1 C 0 km/h
3078 17-06-2007 21:40:02 23 C 8.84 g/m*3 23 C 0 km/h
3079 17-06-2007 21:52:02 22.9 C 9.4 g/m*3 22.9 C 0 km/h
3080 17-06-2007 22:04:02 22.9 C 8.99 g/m*3 22.9 C 0 km/h
3081 17-06-2007 22:16:02 22.5 C 9.39 g/m*3 22.5 C 0 km/h
3082 17-06-2007 22:28:02 21.7 C 10.49 g/m*3 21.7 C 0 km/h
3083 17-06-2007 22:40:02 19.5 C 11.92 g/m*3 19.5 C 0 km/h
3084 17-06-2007 22:52:01 18.8 C 12.56 g/m*3 18.8 C 0 km/h
3085 17-06-2007 23:04:02 18.5 C 13.13 g/m*3 18.5 C 0 km/h
3086 17-06-2007 23:16:02 18.5 C 13.45 g/m*3 18.5 C 0 km/h
3087 17-06-2007 23:28:02 18.1 C 13.29 g/m*3 18.1 C 0 km/h
3088 17-06-2007 23:40:02 17.9 C 13.44 g/m*3 17.9 C 0 km/h
3089 17-06-2007 23:52:02 17.8 C 13.51 g/m*3 17.8 C 0 km/h
3090 18-06-2007 00:04:02 17.9 C 13.59 g/m*3 17.9 C 0 km/h
3091 18-06-2007 00:16:02 17.6 C 13.5 g/m*3 17.6 C 0 km/h
3092 18-06-2007 00:28:02 17.8 C 13.66 g/m*3 17.8 C 0 km/h
3093 18-06-2007 00:40:02 17.8 C 13.81 g/m*3 17.8 C 0 km/h
3094 18-06-2007 00:52:01 17.9 C 13.89 g/m*3 17.9 C 0 km/h
3095 18-06-2007 01:04:02 17.7 C 13.73 g/m*3 17.7 C 0 km/h
3096 18-06-2007 01:16:02 17.4 C 13.49 g/m*3 17.4 C 0 km/h
3097 18-06-2007 01:28:02 17.6 C 13.8 g/m*3 17.6 C 0 km/h
3098 18-06-2007 01:40:02 17.9 C 14.05 g/m*3 17.9 C 0 km/h
3099 18-06-2007 01:52:01 17.4 C 13.63 g/m*3 17.4 C 0 km/h
3100 18-06-2007 02:04:01 17.4 C 13.63 g/m*3 17.4 C 0 km/h
Sensor: Nr:Datum:Temp:Abs-Feuchte:Windchill:Wind:
Aussen-T/F 3101 18-06-2007 02:16:02 17.4 C 13.78 g/m*3 17.4 C 0 km/h
3102 18-06-2007 02:28:02 17.4 C 13.78 g/m*3 17.4 C 0 km/h
3103 18-06-2007 02:40:02 17.5 C 13.87 g/m*3 17.5 C 0 km/h
3104 18-06-2007 02:52:01 17.5 C 13.87 g/m*3 17.5 C 0 km/h
3105 18-06-2007 03:04:01 17.4 C 13.78 g/m*3 17.4 C 0 km/h
3106 18-06-2007 03:16:02 17.2 C 13.77 g/m*3 17.2 C 0 km/h
3107 18-06-2007 03:28:02 17.2 C 13.77 g/m*3 17.2 C 0 km/h
3108 18-06-2007 03:40:02 17.1 C 13.68 g/m*3 17.1 C 0 km/h
3109 18-06-2007 03:52:02 17.2 C 13.77 g/m*3 17.2 C 0 km/h
3110 18-06-2007 04:04:01 17.2 C 13.77 g/m*3 17.2 C 0 km/h
3111 18-06-2007 04:16:02 17 C 13.6 g/m*3 17 C 0 km/h
3112 18-06-2007 04:28:02 17 C 13.6 g/m*3 17 C 0 km/h
3113 18-06-2007 04:40:02 17 C 13.31 g/m*3 17 C 0 km/h
3114 18-06-2007 04:52:01 17 C 13.17 g/m*3 17 C 0 km/h
3115 18-06-2007 05:04:01 16.9 C 12.94 g/m*3 16.9 C 0 km/h
3116 18-06-2007 05:16:02 16.9 C 12.8 g/m*3 16.9 C 0 km/h
3117 18-06-2007 05:28:02 16.9 C 12.66 g/m*3 16.9 C 0 km/h
3118 18-06-2007 05:40:02 16.8 C 12.44 g/m*3 16.8 C 0 km/h
3119 18-06-2007 05:52:02 16.7 C 12.36 g/m*3 16.7 C 0 km/h
3120 18-06-2007 06:04:01 16.7 C 12.36 g/m*3 16.7 C 0 km/h
3121 18-06-2007 06:16:01 16.7 C 12.22 g/m*3 16.7 C 0 km/h
3122 18-06-2007 06:28:01 16.7 C 12.22 g/m*3 16.7 C 0 km/h
3123 18-06-2007 06:40:02 16.6 C 12.01 g/m*3 16.6 C 0 km/h
3124 18-06-2007 06:52:01 16.8 C 12.01 g/m*3 16.8 C 0 km/h
3125 18-06-2007 07:04:02 16.8 C 11.87 g/m*3 16.8 C 0 km/h
Sensor: Nr:Datum:Temp:Abs-Feuchte:Windchill:Wind:
Aussen-T/F 3126 18-06-2007 07:16:02 17 C 11.87 g/m*3 17 C 0 km/h
3127 18-06-2007 07:28:02 17.1 C 11.79 g/m*3 17.1 C 0 km/h
3128 18-06-2007 07:40:01 17.4 C 11.86 g/m*3 17.4 C 0 km/h
3129 18-06-2007 07:52:02 18 C 11.67 g/m*3 18 C 0 km/h
3130 18-06-2007 08:04:01 17.9 C 11.3 g/m*3 17.9 C 0 km/h
3131 18-06-2007 08:16:01 18.1 C 11.28 g/m*3 18.1 C 0 km/h
3132 18-06-2007 08:28:01 18.3 C 11.1 g/m*3 18.3 C 0 km/h
3133 18-06-2007 08:40:02 18.7 C 10.89 g/m*3 18.7 C 0 km/h
3134 18-06-2007 08:52:01 18.9 C 10.85 g/m*3 18.9 C 0 km/h
3135 18-06-2007 09:04:02 19.2 C 10.39 g/m*3 19.2 C 0 km/h
3136 18-06-2007 09:16:01 19.3 C 10.12 g/m*3 19.3 C 0 km/h
3137 18-06-2007 09:28:02 19.4 C 10.18 g/m*3 19.4 C 0 km/h
3138 18-06-2007 09:40:01 19.6 C 10.13 g/m*3 19.6 C 0 km/h
3139 18-06-2007 09:52:02 19.7 C 10.02 g/m*3 19.7 C 0 km/h
3140 18-06-2007 10:04:01 19.8 C 9.91 g/m*3 19.8 C 0 km/h
3141 18-06-2007 10:16:01 20.4 C 9.73 g/m*3 20.4 C 0 km/h
3142 18-06-2007 10:28:01 20.9 C 9.47 g/m*3 20.9 C 0 km/h
3143 18-06-2007 10:40:02 21.4 C 9 g/m*3 21.4 C 0 km/h
3144 18-06-2007 10:52:01 21.5 C 9.05 g/m*3 21.5 C 0 km/h
3145 18-06-2007 11:04:02 21.5 C 9.05 g/m*3 21.5 C 0 km/h
3146 18-06-2007 11:16:02 22 C 8.93 g/m*3 22 C 0 km/h
3147 18-06-2007 11:28:02 22.6 C 8.84 g/m*3 22.6 C 0 km/h
3148 18-06-2007 11:40:02 22.8 C 8.53 g/m*3 22.8 C 0 km/h
3149 18-06-2007 11:52:01 22.9 C 8.38 g/m*3 22.9 C 0 km/h
3150 18-06-2007 12:04:01 23.1 C 8.27 g/m*3 23.1 C 0 km/h
Sensor: Nr:Datum:Temp:Abs-Feuchte:Windchill:Wind:
Aussen-T/F 3151 18-06-2007 12:16:02 23.4 C 8.2 g/m*3 23.4 C 0 km/h
3152 18-06-2007 12:28:02 23.1 C 8.06 g/m*3 23.1 C 0 km/h
3153 18-06-2007 12:40:02 23.7 C 8.56 g/m*3 23.7 C 0 km/h
3154 18-06-2007 12:52:01 24.3 C 8.63 g/m*3 24.3 C 0 km/h
3155 18-06-2007 13:04:02 25.1 C 8.33 g/m*3 25.1 C 0 km/h
3156 18-06-2007 13:16:01 25.4 C 8.48 g/m*3 25.4 C 0 km/h
3157 18-06-2007 13:28:01 26.9 C 8.45 g/m*3 26.9 C 0 km/h
3158 18-06-2007 13:40:01 27.2 C 7.81 g/m*3 27.2 C 0 km/h
3159 18-06-2007 13:52:01 25.9 C 7.99 g/m*3 25.9 C 0 km/h
3160 18-06-2007 14:04:01 26 C 8.28 g/m*3 26 C 0 km/h
3161 18-06-2007 14:16:02 24.3 C 7.75 g/m*3 24.3 C 0 km/h
3162 18-06-2007 14:28:02 25.1 C 8.1 g/m*3 25.1 C 0 km/h
3163 18-06-2007 14:40:02 25.3 C 7.96 g/m*3 25.3 C 0 km/h
3164 18-06-2007 14:52:02 25.7 C 7.42 g/m*3 25.7 C 0 km/h
3165 18-06-2007 15:04:02 26 C 7.55 g/m*3 26 C 0 km/h
3166 18-06-2007 15:16:01 26.5 C 7.76 g/m*3 26.5 C 0 km/h
3167 18-06-2007 15:28:01 27.2 C 7.81 g/m*3 27.2 C 0 km/h
3168 18-06-2007 15:40:01 25.8 C 7.7 g/m*3 25.8 C 0 km/h
3169 18-06-2007 15:52:01 26.1 C 8.08 g/m*3 26.1 C 0 km/h
3170 18-06-2007 16:04:01 25.8 C 7.94 g/m*3 25.8 C 0 km/h
3171 18-06-2007 16:16:02 26.4 C 7.97 g/m*3 26.4 C 0 km/h
3172 18-06-2007 16:28:02 26.3 C 8.17 g/m*3 26.3 C 0 km/h
3173 18-06-2007 16:40:02 26.6 C 8.31 g/m*3 26.6 C 0 km/h
3174 18-06-2007 16:52:01 26.2 C 8.37 g/m*3 26.2 C 0 km/h
3175 18-06-2007 17:04:02 27 C 8.24 g/m*3 27 C 0 km/h
Sensor: Nr:Datum:Temp:Abs-Feuchte:Windchill:Wind:
Aussen-T/F 3176 18-06-2007 17:16:02 27.4 C 7.89 g/m*3 27.4 C 0 km/h
3177 18-06-2007 17:28:02 26.5 C 8.26 g/m*3 26.5 C 0 km/h
3178 18-06-2007 17:40:02 25.7 C 8.62 g/m*3 25.7 C 0 km/h
3179 18-06-2007 17:52:02 25 C 8.06 g/m*3 25 C 0 km/h
3180 18-06-2007 18:04:01 25.1 C 9.03 g/m*3 25.1 C 0 km/h
3181 18-06-2007 18:16:01 24.5 C 9.4 g/m*3 24.5 C 0 km/h
3182 18-06-2007 18:28:01 24 C 10.66 g/m*3 24 C 0 km/h
3183 18-06-2007 18:40:02 23.7 C 10.27 g/m*3 23.7 C 0 km/h
3184 18-06-2007 18:52:01 23.7 C 9.63 g/m*3 23.7 C 0 km/h
3185 18-06-2007 19:04:01 24.4 C 9.35 g/m*3 24.4 C 0 km/h
3186 18-06-2007 19:16:02 23.9 C 9.74 g/m*3 23.9 C 0 km/h
3187 18-06-2007 19:28:02 23.8 C 10.97 g/m*3 23.8 C 0 km/h
3188 18-06-2007 19:40:03 23.5 C 11 g/m*3 23.5 C 0 km/h
3189 18-06-2007 19:52:02 23.3 C 11.08 g/m*3 23.3 C 0 km/h
3190 18-06-2007 20:04:02 23.1 C 11.16 g/m*3 23.1 C 0 km/h
3191 18-06-2007 20:16:02 23 C 11.3 g/m*3 23 C 0 km/h
3192 18-06-2007 20:28:02 22.7 C 11.31 g/m*3 22.7 C 0 km/h
3193 18-06-2007 20:40:01 22.8 C 11.58 g/m*3 22.8 C 0 km/h
3194 18-06-2007 20:52:02 22.4 C 11.92 g/m*3 22.4 C 0 km/h
3195 18-06-2007 21:04:01 22.2 C 11.78 g/m*3 22.2 C 0 km/h
3196 18-06-2007 21:16:01 22 C 11.84 g/m*3 22 C 0 km/h
3197 18-06-2007 21:28:01 21.4 C 10.87 g/m*3 21.4 C 0 km/h
3198 18-06-2007 21:40:02 20.8 C 9.78 g/m*3 20.8 C 0 km/h
3199 18-06-2007 21:52:01 20.4 C 9.91 g/m*3 20.4 C 0 km/h
3200 18-06-2007 22:04:02 20.2 C 9.79 g/m*3 20.2 C 0 km/h
Sensor: Nr:Datum:Temp:Abs-Feuchte:Windchill:Wind:
Aussen-T/F 3201 18-06-2007 22:16:01 20 C 9.51 g/m*3 20 C 0 km/h
3202 18-06-2007 22:28:02 19.5 C 9.57 g/m*3 19.5 C 0 km/h
3203 18-06-2007 22:40:01 19 C 9.61 g/m*3 19 C 0 km/h
3204 18-06-2007 22:52:02 18.7 C 9.77 g/m*3 18.7 C 0 km/h
3205 18-06-2007 23:04:01 18.2 C 9.64 g/m*3 18.2 C 0 km/h
3206 18-06-2007 23:16:02 18.1 C 9.73 g/m*3 18.1 C 0 km/h
3207 18-06-2007 23:28:02 18 C 10.14 g/m*3 18 C 0 km/h
3208 18-06-2007 23:40:02 17.8 C 10.32 g/m*3 17.8 C 0 km/h
3209 18-06-2007 23:52:01 17.5 C 10.14 g/m*3 17.5 C 0 km/h
3210 19-06-2007 00:04:02 17.4 C 10.23 g/m*3 17.4 C 0 km/h
3211 19-06-2007 00:16:03 17.1 C 10.19 g/m*3 17.1 C 0 km/h
3212 19-06-2007 00:28:03 17 C 10.27 g/m*3 17 C 0 km/h
3213 19-06-2007 00:40:02 16.8 C 10.58 g/m*3 16.8 C 0 km/h
3214 19-06-2007 00:52:02 16.6 C 10.31 g/m*3 16.6 C 0 km/h
3215 19-06-2007 01:04:02 16.5 C 10.39 g/m*3 16.5 C 0 km/h
3216 19-06-2007 01:16:01 16.3 C 10.68 g/m*3 16.3 C 0 km/h
3217 19-06-2007 01:28:02 16.1 C 10.55 g/m*3 16.1 C 0 km/h
3218 19-06-2007 01:40:02 16 C 10.49 g/m*3 16 C 0 km/h
3219 19-06-2007 01:52:02 16.2 C 10.62 g/m*3 16.2 C 0 km/h
3220 19-06-2007 02:04:02 16.4 C 10.89 g/m*3 16.4 C 0 km/h
3221 19-06-2007 02:16:02 16.3 C 10.68 g/m*3 16.3 C 0 km/h
3222 19-06-2007 02:28:02 15.9 C 10.56 g/m*3 15.9 C 0 km/h